Provisional Data: Little Chiques Creek near Mount Joy, PA


Please select a monitoring station.
Please select start date.
Please select start date.

Toggle Unit: C/F Toggle Unit: C/F
Sample Time Temperature (C) Temperature (F) Specific Conductivity (mS/cm) pH   Turbidity (NTU+) DO (mg/L)
10/17/2022 12:00:00 AM 12.74 54.932 0.459 7.8 2.31 8.64
10/17/2022 12:15:00 AM 12.74 54.932 0.459 7.8 2.37 8.62
10/17/2022 12:30:00 AM 12.72 54.896 0.459 7.8 2.35 8.62
10/17/2022 12:45:00 AM 12.71 54.878 0.459 7.79 2.33 8.56
10/17/2022 1:00:00 AM 12.7 54.86 0.459 7.8 2.27 8.58
10/17/2022 1:15:00 AM 12.68 54.824 0.459 7.8 2.36 8.56
10/17/2022 1:30:00 AM 12.66 54.788 0.459 7.79 2.3 8.51
10/17/2022 1:45:00 AM 12.65 54.77 0.459 7.79 2.4 8.52
10/17/2022 2:00:00 AM 12.64 54.752 0.46 7.79 2.34 8.5
10/17/2022 2:15:00 AM 12.62 54.716 0.46 7.78 2.37 8.38
10/17/2022 2:30:00 AM 12.6 54.68 0.46 7.78 2.33 8.41
10/17/2022 2:45:00 AM 12.58 54.644 0.46 7.78 2.32 8.36
10/17/2022 3:00:00 AM 12.56 54.608 0.46 7.77 2.29 8.33
10/17/2022 3:15:00 AM 12.52 54.536 0.46 7.77 2.28 8.32
10/17/2022 3:30:00 AM 12.49 54.482 0.46 7.77 2.29 8.3
10/17/2022 3:45:00 AM 12.45 54.41 0.461 7.76 2.36 8.26
10/17/2022 4:00:00 AM 12.42 54.356 0.461 7.77 2.49 8.3
10/17/2022 4:15:00 AM 12.38 54.284 0.461 7.77 2.3 8.31
10/17/2022 4:30:00 AM 12.33 54.194 0.461 7.77 2.27 8.32
10/17/2022 4:45:00 AM 12.29 54.122 0.462 7.77 2.31 8.3
10/17/2022 5:00:00 AM 12.24 54.032 0.461 7.77 2.38 8.3
10/17/2022 5:15:00 AM 12.19 53.942 0.461 7.76 2.42 8.3
10/17/2022 5:30:00 AM 12.15 53.87 0.462 7.76 2.34 8.29
10/17/2022 5:45:00 AM 12.1 53.78 0.462 7.76 2.36 8.29
10/17/2022 6:00:00 AM 12.06 53.708 0.462 7.76 2.38 8.34
10/17/2022 6:15:00 AM 12.03 53.654 0.462 7.76 2.51 8.3
10/17/2022 6:30:00 AM 11.99 53.582 0.462 7.76 2.54 8.31
10/17/2022 6:45:00 AM 11.95 53.51 0.462 7.76 2.6 8.36
10/17/2022 7:00:00 AM 11.92 53.456 0.462 7.76 2.39 8.37
10/17/2022 7:15:00 AM 11.89 53.402 0.462 7.76 2.49 8.34
10/17/2022 7:30:00 AM 11.88 53.384 0.463 7.76 2.47 8.38
10/17/2022 7:45:00 AM 11.86 53.348 0.463 7.76 2.46 8.38
10/17/2022 8:00:00 AM 11.84 53.312 0.463 7.76 2.43 8.38
10/17/2022 8:15:00 AM 11.84 53.312 0.463 7.76 2.45 8.41
10/17/2022 8:30:00 AM 11.84 53.312 0.463 7.76 3.34 8.45
10/17/2022 8:45:00 AM 11.86 53.348 0.463 7.76 2.35 8.5
10/17/2022 9:00:00 AM 11.88 53.384 0.463 7.77 2.4 8.58
10/17/2022 9:15:00 AM 11.9 53.42 0.463 7.77 2.24 8.64
10/17/2022 9:30:00 AM 11.94 53.492 0.463 7.78 2.29 8.73
10/17/2022 9:45:00 AM 12 53.6 0.463 7.79 2.29 8.89
10/17/2022 10:00:00 AM 12.08 53.744 0.463 7.8 3.02 9.04
10/17/2022 10:15:00 AM 12.14 53.852 0.463 7.81 2.27 9.22
10/17/2022 10:30:00 AM 12.23 54.014 0.462 7.83 2.09 9.4
10/17/2022 10:45:00 AM 12.32 54.176 0.462 7.84 2.21 9.54
10/17/2022 11:00:00 AM 12.42 54.356 0.462 7.85 2.19 9.69
10/17/2022 11:15:00 AM 12.49 54.482 0.462 7.87 2.21 9.82
10/17/2022 11:30:00 AM 12.57 54.626 0.462 7.88 2.23 9.95
10/17/2022 11:45:00 AM 12.7 54.86 0.462 7.9 2.21 10.17
10/17/2022 12:00:00 PM 12.8 55.04 0.462 7.91 2.23 10.24
10/17/2022 12:15:00 PM 12.82 55.076 0.462 7.92 2.25 10.24
10/17/2022 12:30:00 PM 12.92 55.256 0.461 7.93 2.16 10.37
10/17/2022 12:45:00 PM 12.97 55.346 0.461 7.95 2.18 10.42
10/17/2022 1:00:00 PM 13.02 55.436 0.461 7.94 2.12 10.33
10/17/2022 1:15:00 PM 13.12 55.616 0.461 7.96 2.24 10.52
10/17/2022 1:30:00 PM 13.18 55.724 0.461 7.97 2.08 10.56
10/17/2022 1:45:00 PM 13.23 55.814 0.461 7.98 2.21 10.61
10/17/2022 2:00:00 PM 13.29 55.922 0.461 7.98 2.23 10.68
10/17/2022 2:15:00 PM 13.31 55.958 0.462 7.98 2.18 10.61
10/17/2022 2:30:00 PM 13.34 56.012 0.462 7.98 2.1 10.63
10/17/2022 2:45:00 PM 13.37 56.066 0.462 7.99 2.27 10.62
10/17/2022 3:00:00 PM 13.39 56.102 0.462 7.99 2.15 10.62
10/17/2022 3:15:00 PM 13.42 56.156 0.462 8 2.11 10.65
10/17/2022 3:30:00 PM 13.44 56.192 0.462 7.99 2.12 10.6
10/17/2022 3:45:00 PM 13.45 56.21 0.462 7.98 2.24 10.55
10/17/2022 4:00:00 PM 13.44 56.192 0.462 7.99 2.15 10.44
10/17/2022 4:15:00 PM 13.43 56.174 0.463 7.99 2.18 10.48
10/17/2022 4:30:00 PM 13.43 56.174 0.463 7.99 2.21 10.46
10/17/2022 4:45:00 PM 13.43 56.174 0.463 7.98 8.68 10.39
10/17/2022 5:00:00 PM 13.41 56.138 0.463 7.97 2.27 10.34
10/17/2022 5:15:00 PM 13.38 56.084 0.463 7.97 5.87 10.23
10/17/2022 5:30:00 PM 13.35 56.03 0.463 7.96 2.17 10.15
10/17/2022 5:45:00 PM 13.32 55.976 0.464 7.95 2.18 9.96
10/17/2022 6:00:00 PM 13.29 55.922 0.464 7.95 2.12 9.92
10/17/2022 6:15:00 PM 13.26 55.868 0.464 7.94 4.24 9.79
10/17/2022 6:30:00 PM 13.22 55.796 0.465 7.92 2.62 9.63
10/17/2022 6:45:00 PM 13.19 55.742 0.465 7.91 2.18 9.53
10/17/2022 7:00:00 PM 13.15 55.67 0.465 7.9 2.25 9.42
10/17/2022 7:15:00 PM 13.09 55.562 0.465 7.89 2.28 9.27
10/17/2022 7:30:00 PM 13.04 55.472 0.465 7.88 2.26 9.15
10/17/2022 7:45:00 PM 12.99 55.382 0.466 7.87 2.27 9.07
10/17/2022 8:00:00 PM 12.95 55.31 0.466 7.86 2.43 9
10/17/2022 8:15:00 PM 12.91 55.238 0.466 7.85 2.35 8.9
10/17/2022 8:30:00 PM 12.85 55.13 0.466 7.85 2.36 8.81
10/17/2022 8:45:00 PM 12.8 55.04 0.466 7.84 2.35 8.78
10/17/2022 9:00:00 PM 12.75 54.95 0.466 7.84 2.39 8.77
10/17/2022 9:15:00 PM 12.7 54.86 0.466 7.84 2.53 8.7
10/17/2022 9:30:00 PM 12.65 54.77 0.467 7.83 2.49 8.64
10/17/2022 9:45:00 PM 12.6 54.68 0.467 7.82 2.39 8.57
10/17/2022 10:00:00 PM 12.56 54.608 0.467 7.82 2.38 8.55
10/17/2022 10:15:00 PM 12.51 54.518 0.467 7.82 2.56 8.58
10/17/2022 10:30:00 PM 12.47 54.446 0.467 7.82 2.5 8.56
10/17/2022 10:45:00 PM 12.42 54.356 0.467 7.81 9 8.54
10/17/2022 11:00:00 PM 12.37 54.266 0.467 7.81 2.64 8.48
10/17/2022 11:15:00 PM 12.33 54.194 0.467 7.8 2.51 8.47
10/17/2022 11:30:00 PM 12.27 54.086 0.467 7.8 2.71 8.48
10/17/2022 11:45:00 PM 12.22 53.996 0.467 7.8 2.4 8.45
10/18/2022 12:00:00 AM 12.17 53.906 0.468 7.8 2.81 8.52
10/18/2022 12:15:00 AM 12.13 53.834 0.468 7.81 2.57 8.53
10/18/2022 12:30:00 AM 12.08 53.744 0.468 7.8 2.71 8.58
10/18/2022 12:45:00 AM 12.04 53.672 0.468 7.8 2.57 8.46
10/18/2022 1:00:00 AM 11.99 53.582 0.468 7.79 2.82 8.36
10/18/2022 1:15:00 AM 11.95 53.51 0.468 7.8 2.74 8.41
10/18/2022 1:30:00 AM 11.91 53.438 0.468 7.8 2.65 8.39
10/18/2022 1:45:00 AM 11.87 53.366 0.468 7.79 2.77 8.39
10/18/2022 2:00:00 AM 11.82 53.276 0.468 7.8 2.73 8.44
10/18/2022 2:15:00 AM 11.77 53.186 0.469 7.8 2.8 8.42
10/18/2022 2:30:00 AM 11.73 53.114 0.469 7.8 2.79 8.43
10/18/2022 2:45:00 AM 11.68 53.024 0.469 7.8 2.83 8.42
10/18/2022 3:00:00 AM 11.64 52.952 0.469 7.8 2.92 8.42
10/18/2022 3:15:00 AM 11.59 52.862 0.469 7.8 2.77 8.41
10/18/2022 3:30:00 AM 11.54 52.772 0.469 7.79 2.56 8.44
10/18/2022 3:45:00 AM 11.49 52.682 0.469 7.79 2.85 8.47
10/18/2022 4:00:00 AM 11.42 52.556 0.47 7.79 2.93 8.47
10/18/2022 4:15:00 AM 11.36 52.448 0.47 7.79 3.09 8.53
10/18/2022 4:30:00 AM 11.3 52.34 0.47 7.78 3.53 8.49
10/18/2022 4:45:00 AM 11.24 52.232 0.47 7.78 3.18 8.5
10/18/2022 5:00:00 AM 11.18 52.124 0.47 7.78 3.16 8.47
10/18/2022 5:15:00 AM 11.11 51.998 0.47 7.79 3.1 8.58
10/18/2022 5:30:00 AM 11.04 51.872 0.47 7.78 3.12 8.54
10/18/2022 5:45:00 AM 10.97 51.746 0.47 7.78 3.11 8.53
10/18/2022 6:00:00 AM 10.92 51.656 0.47 7.78 3.06 8.45
10/18/2022 6:15:00 AM 10.85 51.53 0.47 7.78 3.18 8.52
10/18/2022 6:30:00 AM 10.77 51.386 0.471 7.78 3.1 8.47
10/18/2022 6:45:00 AM 10.7 51.26 0.471 7.78 3.15 8.52
10/18/2022 7:00:00 AM 10.64 51.152 0.471 7.78 3.12 8.51
10/18/2022 7:15:00 AM 10.56 51.008 0.471 7.78 3.14 8.55
10/18/2022 7:30:00 AM 10.49 50.882 0.471 7.78 3.09 8.54
10/18/2022 7:45:00 AM 10.44 50.792 0.471 7.78 3.07 8.57
10/18/2022 8:00:00 AM 10.38 50.684 0.471 7.78 2.93 8.56
10/18/2022 8:15:00 AM 10.35 50.63 0.471 7.78 3.05 8.57
10/18/2022 8:30:00 AM 10.32 50.576 0.472 7.78 2.92 8.69
10/18/2022 8:45:00 AM 10.3 50.54 0.472 7.79 2.88 8.76
10/18/2022 9:00:00 AM 10.3 50.54 0.472 7.79 2.85 8.81
10/18/2022 9:15:00 AM 10.29 50.522 0.472 7.8 2.82 8.89
10/18/2022 9:30:00 AM 10.29 50.522 0.472 7.8 2.81 8.96
10/18/2022 9:45:00 AM 10.29 50.522 0.472 7.81 2.78 9
10/18/2022 10:00:00 AM 10.29 50.522 0.472 7.81 2.75 9.09
10/18/2022 10:15:00 AM 10.3 50.54 0.472 7.82 2.74 9.15
10/18/2022 10:30:00 AM 10.32 50.576 0.472 7.83 2.75 9.29
10/18/2022 10:45:00 AM 10.37 50.666 0.472 7.84 2.69 9.34
10/18/2022 11:00:00 AM 10.42 50.756 0.472 7.84 2.7 9.49
10/18/2022 11:15:00 AM 10.49 50.882 0.472 7.86 2.65 9.63
10/18/2022 11:30:00 AM 10.59 51.062 0.472 7.87 2.76 9.76
10/18/2022 11:45:00 AM 10.66 51.188 0.472 7.88 2.68 9.9
10/18/2022 12:00:00 PM 10.74 51.332 0.472 7.89 2.73 10
10/18/2022 12:15:00 PM 10.83 51.494 0.472 7.89 2.69 10.08
10/18/2022 12:30:00 PM 10.91 51.638 0.472 7.9 2.75 10.17
10/18/2022 12:45:00 PM 11.01 51.818 0.472 7.92 2.77 10.34
10/18/2022 1:00:00 PM 11.12 52.016 0.472 7.93 3.03 10.47
10/18/2022 1:15:00 PM 11.28 52.304 0.472 7.95 2.7 10.6
10/18/2022 1:30:00 PM 11.44 52.592 0.472 7.96 2.66 10.86
10/18/2022 1:45:00 PM 11.52 52.736 0.472 7.97 2.72 10.88
10/18/2022 2:00:00 PM 11.7 53.06 0.472 7.99 2.65 11
10/18/2022 2:15:00 PM 11.79 53.222 0.472 7.99 2.72 10.93
10/18/2022 2:30:00 PM 11.78 53.204 0.472 8 2.67 11.02
10/18/2022 2:45:00 PM 11.86 53.348 0.472 8.01 2.71 11.08
10/18/2022 3:00:00 PM 11.91 53.438 0.472 8.02 2.68 11.09
10/18/2022 3:15:00 PM 11.9 53.42 0.472 8.02 2.73 11.11
10/18/2022 3:30:00 PM 11.9 53.42 0.472 8.02 2.69 11.11
10/18/2022 3:45:00 PM 11.91 53.438 0.472 8.03 2.75 11.1
10/18/2022 4:00:00 PM 11.88 53.384 0.472 8.03 2.72 11.04
10/18/2022 4:15:00 PM 11.87 53.366 0.471 8.03 2.78 11.09
10/18/2022 4:30:00 PM 11.85 53.33 0.471 8.03 3.02 11.01
10/18/2022 4:45:00 PM 11.82 53.276 0.471 8.02 4.42 10.97
10/18/2022 5:00:00 PM 11.77 53.186 0.471 8.03 3.27 11.05
10/18/2022 5:15:00 PM 11.69 53.042 0.471 8.02 3.41 10.92
10/18/2022 5:30:00 PM 11.64 52.952 0.471 8.01 2.91 10.85
10/18/2022 5:45:00 PM 11.6 52.88 0.472 8 31.76 10.66
10/18/2022 6:00:00 PM 11.54 52.772 0.472 8 2.93 10.64
10/18/2022 6:15:00 PM 11.47 52.646 0.473 7.98 2.87 10.5
10/18/2022 6:30:00 PM 11.4 52.52 0.473 7.97 2.99 10.35
10/18/2022 6:45:00 PM 11.32 52.376 0.474 7.96 3 10.28
10/18/2022 7:00:00 PM 11.25 52.25 0.474 7.94 3.47 10.12
10/18/2022 7:15:00 PM 11.19 52.142 0.474 7.92 3.12 9.99
10/18/2022 7:30:00 PM 11.12 52.016 0.475 7.92 5.21 9.89
10/18/2022 7:45:00 PM 11.07 51.926 0.475 7.9 4.1 9.81
10/18/2022 8:00:00 PM 11.02 51.836 0.475 7.89 3.05 9.67
10/18/2022 8:15:00 PM 10.97 51.746 0.475 7.88 4.23 9.57
10/18/2022 8:30:00 PM 10.92 51.656 0.475 7.87 3.51 9.51
10/18/2022 8:45:00 PM 10.88 51.584 0.476 7.86 3.13 9.4
10/18/2022 9:00:00 PM 10.83 51.494 0.476 7.86 3.14 9.37
10/18/2022 9:15:00 PM 10.81 51.458 0.476 7.85 3.16 9.33
10/18/2022 9:30:00 PM 10.75 51.35 0.476 7.85 3.42 9.28
10/18/2022 9:45:00 PM 10.71 51.278 0.476 7.84 3.23 9.27
10/18/2022 10:00:00 PM 10.66 51.188 0.477 7.85 3.14 9.29
10/18/2022 10:15:00 PM 10.62 51.116 0.478 7.84 3.39 9.21
10/18/2022 10:30:00 PM 10.59 51.062 0.476 7.83 3.1 9.15
10/18/2022 10:45:00 PM 10.55 50.99 0.477 7.83 3.18 9.17
10/18/2022 11:00:00 PM 10.51 50.918 0.477 7.83 3.18 9.14
10/18/2022 11:15:00 PM 10.46 50.828 0.477 7.82 3.16 9.14
10/18/2022 11:30:00 PM 10.4 50.72 0.477 7.82 3.22 9.1
10/18/2022 11:45:00 PM 10.36 50.648 0.478 7.83 3.51 9.15
10/19/2022 12:00:00 AM 10.3 50.54 0.478 7.83 3.35 9.18
10/19/2022 12:15:00 AM 10.28 50.504 0.477 7.82 3.35 9.1
10/19/2022 12:30:00 AM 10.22 50.396 0.477 7.82 3.33 9.05
10/19/2022 12:45:00 AM 10.18 50.324 0.477 7.81 3.39 9.04
10/19/2022 1:00:00 AM 10.13 50.234 0.477 7.82 3.42 9.14
10/19/2022 1:15:00 AM 10.09 50.162 0.477 7.82 3.29 9.07
10/19/2022 1:30:00 AM 10.04 50.072 0.477 7.81 3.42 9.08
10/19/2022 1:45:00 AM 9.99 49.982 0.477 7.81 3.42 9.06
10/19/2022 2:00:00 AM 9.93 49.874 0.477 7.82 3.34 9
10/19/2022 2:15:00 AM 9.86 49.748 0.477 7.81 3.34 9.07
10/19/2022 2:30:00 AM 9.8 49.64 0.478 7.81 3.42 9.06
10/19/2022 2:45:00 AM 9.74 49.532 0.478 7.81 3.34 9.04
10/19/2022 3:00:00 AM 9.69 49.442 0.478 7.81 3.44 9.02
10/19/2022 3:15:00 AM 9.64 49.352 0.478 7.81 3.49 9.02
10/19/2022 3:30:00 AM 9.6 49.28 0.478 7.81 3.38 8.99
10/19/2022 3:45:00 AM 9.54 49.172 0.478 7.8 3.38 9.01
10/19/2022 4:00:00 AM 9.51 49.118 0.478 7.81 3.31 8.94
10/19/2022 4:15:00 AM 9.46 49.028 0.478 7.8 3.35 8.99
10/19/2022 4:30:00 AM 9.41 48.938 0.478 7.8 3.46 8.97
10/19/2022 4:45:00 AM 9.36 48.848 0.478 7.8 3.52 9
10/19/2022 5:00:00 AM 9.33 48.794 0.479 7.8 3.68 9.1
10/19/2022 5:15:00 AM 9.32 48.776 0.479 7.8 3.64 9
10/19/2022 5:30:00 AM 9.29 48.722 0.479 7.8 3.89 8.93
10/19/2022 5:45:00 AM 9.27 48.686 0.479 7.8 3.61 9
10/19/2022 6:00:00 AM 9.26 48.668 0.479 7.79 3.63 8.76
10/19/2022 6:15:00 AM 9.25 48.65 0.479 7.79 3.59 8.98
10/19/2022 6:30:00 AM 9.25 48.65 0.479 7.79 3.58 8.98
10/19/2022 6:45:00 AM 9.25 48.65 0.479 7.79 3.56 8.97
10/19/2022 7:00:00 AM 9.24 48.632 0.48 7.79 4.67 9.01
10/19/2022 7:15:00 AM 9.24 48.632 0.48 7.79 4.26 9
10/19/2022 7:30:00 AM 9.24 48.632 0.48 7.79 3.54 9.05
10/19/2022 7:45:00 AM 9.21 48.578 0.48 7.79 3.61 9.05
10/19/2022 8:00:00 AM 9.22 48.596 0.465 7.8 3.69 9.19
10/19/2022 8:15:00 AM 9.24 48.632 0.48 7.79 3.46 9.22
10/19/2022 8:30:00 AM 9.25 48.65 0.481 7.8 3.61 9.27
10/19/2022 8:45:00 AM 9.26 48.668 0.481 7.8 3.63 9.27
10/19/2022 9:00:00 AM 9.28 48.704 0.481 7.81 3.63 9.32
10/19/2022 9:15:00 AM 9.32 48.776 0.481 7.81 3.66 9.48
10/19/2022 9:30:00 AM 9.35 48.83 0.481 7.82 3.64 9.64
10/19/2022 9:45:00 AM 9.38 48.884 0.481 7.84 3.54 9.81
10/19/2022 10:00:00 AM 9.4 48.92 0.481 7.85 3.56 9.94
10/19/2022 10:15:00 AM 9.45 49.01 0.481 7.86 3.51 10.08
10/19/2022 10:30:00 AM 9.49 49.082 0.48 7.87 3.56 10.21
10/19/2022 10:45:00 AM 9.51 49.118 0.48 7.88 3.56 10.38
10/19/2022 11:00:00 AM 9.55 49.19 0.48 7.89 3.48 10.52
10/19/2022 11:15:00 AM 9.6 49.28 0.48 7.9 3.5 10.6
10/19/2022 11:30:00 AM 9.67 49.406 0.48 7.91 3.49 10.7
10/19/2022 11:45:00 AM 9.75 49.55 0.479 7.93 3.44 10.87
10/19/2022 12:00:00 PM 9.8 49.64 0.479 7.94 3.59 10.97
10/19/2022 12:15:00 PM 9.83 49.694 0.479 7.95 3.52 11.13
10/19/2022 12:30:00 PM 9.94 49.892 0.479 7.97 3.53 11.35
10/19/2022 12:45:00 PM 10.01 50.018 0.479 7.97 9.43 11.32
10/19/2022 1:00:00 PM 10.06 50.108 0.479 7.98 3.47 11.31
10/19/2022 1:15:00 PM 10.18 50.324 0.478 7.99 3.48 11.54
10/19/2022 1:30:00 PM 10.23 50.414 0.478 8.01 3.47 11.61
10/19/2022 1:45:00 PM 10.25 50.45 0.478 8.01 3.51 11.59
10/19/2022 2:00:00 PM 10.29 50.522 0.478 8.01 3.54 11.59
10/19/2022 2:15:00 PM 10.33 50.594 0.478 8.02 3.54 11.63
10/19/2022 2:30:00 PM 10.38 50.684 0.477 8.03 3.51 11.71
10/19/2022 2:45:00 PM 10.39 50.702 0.477 8.03 3.5 11.68
10/19/2022 3:00:00 PM 10.39 50.702 0.477 8.04 3.54 11.59
10/19/2022 3:15:00 PM 10.4 50.72 0.477 8.05 4.67 11.72
10/19/2022 3:30:00 PM 10.41 50.738 0.477 8.05 3.65 11.76
10/19/2022 3:45:00 PM 10.4 50.72 0.477 8.06 3.63 11.7
10/19/2022 4:00:00 PM 10.39 50.702 0.477 8.04 3.69 11.59
10/19/2022 4:15:00 PM 10.4 50.72 0.477 8.04 3.62 11.65
10/19/2022 4:30:00 PM 10.42 50.756 0.477 8.04 3.62 11.66
10/19/2022 4:45:00 PM 10.41 50.738 0.477 8.04 3.64 11.62
10/19/2022 5:00:00 PM 10.39 50.702 0.477 8.03 3.71 11.46
10/19/2022 5:15:00 PM 10.35 50.63 0.477 8.03 3.74 11.42
10/19/2022 5:30:00 PM 10.31 50.558 0.478 8.02 3.74 11.27
10/19/2022 5:45:00 PM 10.29 50.522 0.478 8.01 3.81 11.18
10/19/2022 6:00:00 PM 10.28 50.504 0.478 8 3.76 11.08
10/19/2022 6:15:00 PM 10.25 50.45 0.479 7.99 3.79 10.99
10/19/2022 6:30:00 PM 10.21 50.378 0.479 7.97 3.99 10.81
10/19/2022 6:45:00 PM 10.18 50.324 0.479 7.96 3.87 10.7
10/19/2022 7:00:00 PM 10.15 50.27 0.479 7.95 3.91 10.57
10/19/2022 7:15:00 PM 10.11 50.198 0.48 7.94 3.96 10.48
10/19/2022 7:30:00 PM 10.07 50.126 0.48 7.93 3.91 10.36
10/19/2022 7:45:00 PM 10.03 50.054 0.48 7.92 3.89 10.2
10/19/2022 8:00:00 PM 9.99 49.982 0.48 7.91 3.92 10.15
10/19/2022 8:15:00 PM 9.96 49.928 0.48 7.9 3.93 10.06
10/19/2022 8:30:00 PM 9.91 49.838 0.48 7.88 130.74 10
10/19/2022 8:45:00 PM 9.86 49.748 0.48 7.88 684.99 10.02
10/19/2022 9:00:00 PM 9.8 49.64 0.48 7.88 665.87 10.02
10/19/2022 9:15:00 PM 9.76 49.568 0.48 7.87 680.01 9.94
10/19/2022 9:30:00 PM 9.74 49.532 0.48 7.87 661.46 9.88
10/19/2022 9:45:00 PM 9.74 49.532 0.48 7.86 590.92 9.79
10/19/2022 10:00:00 PM 9.73 49.514 0.48 7.85 402.66 9.76
10/19/2022 10:15:00 PM 9.7 49.46 0.481 7.85 366.77 9.71
10/19/2022 10:30:00 PM 9.67 49.406 0.48 7.85 291.27 9.66
10/19/2022 10:45:00 PM 9.64 49.352 0.481 7.85 288.36 9.67
10/19/2022 11:00:00 PM 9.63 49.334 0.48 7.84 164.55 9.6
10/19/2022 11:15:00 PM 9.62 49.316 0.48 7.83 86.5 9.57
10/19/2022 11:30:00 PM 9.61 49.298 0.481 7.83 75.84 9.55
10/19/2022 11:45:00 PM 9.6 49.28 0.481 7.83 83.9 9.4
10/20/2022 12:00:00 AM 9.59 49.262 0.48 7.82 56.83 9.42
10/20/2022 12:15:00 AM 9.57 49.226 0.48 7.82 57.52 9.56
10/20/2022 12:30:00 AM 9.56 49.208 0.48 7.82 58.88 9.48
10/20/2022 12:45:00 AM 9.54 49.172 0.48 7.82 59.45 9.48
10/20/2022 1:00:00 AM 9.52 49.136 0.48 7.82 59.46 9.46
10/20/2022 1:15:00 AM 9.5 49.1 0.48 7.82 49.19 9.44
10/20/2022 1:30:00 AM 9.46 49.028 0.48 7.81 53.82 9.33
10/20/2022 1:45:00 AM 9.44 48.992 0.48 7.81 45.85 9.42
10/20/2022 2:00:00 AM 9.41 48.938 0.48 7.81 42.63 9.32
10/20/2022 2:15:00 AM 9.39 48.902 0.481 7.8 64.59 9.22
10/20/2022 2:30:00 AM 9.36 48.848 0.481 7.8 42.41 9.23
10/20/2022 2:45:00 AM 9.32 48.776 0.481 7.81 3.95 9.3
10/20/2022 3:00:00 AM 9.29 48.722 0.481 7.8 3.37 9.26
10/20/2022 3:15:00 AM 9.25 48.65 0.479 7.8 3.36 9.27
10/20/2022 3:30:00 AM 9.21 48.578 0.479 7.8 3.35 9.27
10/20/2022 3:45:00 AM 9.17 48.506 0.479 7.8 3.38 9.31
10/20/2022 4:00:00 AM 9.14 48.452 0.478 7.8 3.39 9.25
10/20/2022 4:15:00 AM 9.1 48.38 0.473 7.8 3.44 9.22
10/20/2022 4:30:00 AM 9.05 48.29 0.473 7.8 3.43 9.24
10/20/2022 4:45:00 AM 9 48.2 0.474 7.8 3.41 9.26
10/20/2022 5:00:00 AM 8.95 48.11 0.474 7.79 3.58 9.23
10/20/2022 5:15:00 AM 8.89 48.002 0.474 7.79 3.54 9.2
10/20/2022 5:30:00 AM 8.83 47.894 0.474 7.79 3.48 9.2
10/20/2022 5:45:00 AM 8.77 47.786 0.474 7.79 3.49 9.19
10/20/2022 6:00:00 AM 8.71 47.678 0.474 7.79 3.47 9.2
10/20/2022 6:15:00 AM 8.65 47.57 0.474 7.79 3.47 9.23
10/20/2022 6:30:00 AM 8.58 47.444 0.474 7.79 3.48 9.23
10/20/2022 6:45:00 AM 8.52 47.336 0.474 7.79 3.44 9.24
10/20/2022 7:00:00 AM 8.45 47.21 0.474 7.79 3.45 9.25
10/20/2022 7:15:00 AM 8.4 47.12 0.474 7.79 3.5 9.27
10/20/2022 7:30:00 AM 8.34 47.012 0.474 7.78 3.65 9.27
10/20/2022 7:45:00 AM 8.29 46.922 0.475 7.78 3.59 9.31
10/20/2022 8:00:00 AM 8.24 46.832 0.475 7.79 3.7 9.31
10/20/2022 8:15:00 AM 8.19 46.742 0.475 7.78 3.81 9.36
10/20/2022 8:30:00 AM 8.18 46.724 0.475 7.79 3.81 9.38
10/20/2022 8:45:00 AM 8.17 46.706 0.476 7.79 3.77 9.45
10/20/2022 9:00:00 AM 8.19 46.742 0.476 7.79 3.65 9.52
10/20/2022 9:15:00 AM 8.24 46.832 0.476 7.8 3.62 9.6
10/20/2022 9:30:00 AM 8.28 46.904 0.475 7.8 3.6 9.66
10/20/2022 9:45:00 AM 8.33 46.994 0.475 7.81 3.52 9.8
10/20/2022 10:00:00 AM 8.38 47.084 0.475 7.82 3.53 9.9
10/20/2022 10:15:00 AM 8.41 47.138 0.475 7.82 3.54 9.91
10/20/2022 10:30:00 AM 8.48 47.264 0.475 7.83 3.51 10.08
10/20/2022 10:45:00 AM 8.56 47.408 0.474 7.84 3.49 10.22
10/20/2022 11:00:00 AM 8.66 47.588 0.474 7.85 3.41 10.33
10/20/2022 11:15:00 AM 8.75 47.75 0.474 7.86 3.45 10.48
10/20/2022 11:30:00 AM 8.85 47.93 0.474 7.86 3.6 10.56
10/20/2022 11:45:00 AM 8.96 48.128 0.473 7.88 3.47 10.73
10/20/2022 12:00:00 PM 9.07 48.326 0.473 7.89 3.36 10.83
10/20/2022 12:15:00 PM 9.18 48.524 0.473 7.9 3.41 10.95
10/20/2022 12:30:00 PM 9.3 48.74 0.473 7.9 3.37 10.93
10/20/2022 12:45:00 PM 9.43 48.974 0.476 7.91 3.48 11.07
10/20/2022 1:00:00 PM 9.57 49.226 0.471 7.93 3.45 11.15
10/20/2022 1:15:00 PM 9.73 49.514 0.47 7.94 3.45 11.23
10/20/2022 1:30:00 PM 9.9 49.82 0.469 7.95 3.43 11.37
10/20/2022 1:45:00 PM 10.04 50.072 0.469 7.96 3.42 11.42
10/20/2022 2:00:00 PM 10.18 50.324 0.468 7.96 3.45 11.46
10/20/2022 2:15:00 PM 10.31 50.558 0.468 7.97 3.47 11.53
10/20/2022 2:30:00 PM 10.41 50.738 0.468 7.97 3.44 11.55
10/20/2022 2:45:00 PM 10.48 50.864 0.467 7.98 3.44 11.55
10/20/2022 3:00:00 PM 10.54 50.972 0.467 7.98 3.45 11.53
10/20/2022 3:15:00 PM 10.58 51.044 0.467 7.99 3.48 11.49
10/20/2022 3:30:00 PM 10.63 51.134 0.467 7.99 3.58 11.49
10/20/2022 3:45:00 PM 10.66 51.188 0.467 7.99 3.58 11.3
10/20/2022 4:00:00 PM 10.69 51.242 0.466 7.99 3.58 11.49
10/20/2022 4:15:00 PM 10.7 51.26 0.466 7.99 3.55 11.29
10/20/2022 4:30:00 PM 10.7 51.26 0.467 7.99 3.52 11.38
10/20/2022 4:45:00 PM 10.68 51.224 0.467 7.98 3.53 11.14
10/20/2022 5:00:00 PM 10.65 51.17 0.466 7.98 3.67 10.98
10/20/2022 5:15:00 PM 10.61 51.098 0.466 7.97 3.68 11.12
10/20/2022 5:30:00 PM 10.56 51.008 0.465 7.96 3.56 10.82
10/20/2022 5:45:00 PM 10.5 50.9 0.469 7.95 3.75 10.87
10/20/2022 6:00:00 PM 10.44 50.792 0.464 7.95 3.63 10.79
10/20/2022 6:15:00 PM 10.39 50.702 0.463 7.93 3.72 10.65
10/20/2022 6:30:00 PM 10.32 50.576 0.463 7.92 3.68 10.52
10/20/2022 6:45:00 PM 10.25 50.45 0.463 7.91 3.65 10.42
10/20/2022 7:00:00 PM 10.17 50.306 0.463 7.9 3.69 10.04
10/20/2022 7:15:00 PM 10.08 50.144 0.463 7.89 4.02 9.96
10/20/2022 7:30:00 PM 9.99 49.982 0.463 7.88 3.85 10.11
10/20/2022 7:45:00 PM 9.89 49.802 0.464 7.87 3.69 10.1
10/20/2022 8:00:00 PM 9.79 49.622 0.464 7.87 3.7 10.05
10/20/2022 8:15:00 PM 9.7 49.46 0.464 7.86 3.94 9.98
10/20/2022 8:30:00 PM 9.61 49.298 0.464 7.85 4.07 9.92
10/20/2022 8:45:00 PM 9.53 49.154 0.464 7.85 3.93 9.84
10/20/2022 9:00:00 PM 9.45 49.01 0.464 7.84 3.97 9.83
10/20/2022 9:15:00 PM 9.38 48.884 0.464 7.83 3.97 9.77
10/20/2022 9:30:00 PM 9.3 48.74 0.464 7.82 4.09 9.75
10/20/2022 9:45:00 PM 9.25 48.65 0.464 7.82 4.03 9.71
10/20/2022 10:00:00 PM 9.18 48.524 0.464 7.82 4.77 9.63
10/20/2022 10:15:00 PM 9.12 48.416 0.464 7.81 4.07 9.57
10/20/2022 10:30:00 PM 9.06 48.308 0.465 7.81 4.14 9.6
10/20/2022 10:45:00 PM 9.01 48.218 0.464 7.81 4.14 9.58
10/20/2022 11:00:00 PM 8.96 48.128 0.464 7.81 4.15 9.61
10/20/2022 11:15:00 PM 8.93 48.074 0.464 7.8 4.23 9.65
10/20/2022 11:30:00 PM 8.91 48.038 0.464 7.8 4.23 9.58
10/20/2022 11:45:00 PM 8.89 48.002 0.464 7.8 4.08 9.61
10/21/2022 12:00:00 AM 8.87 47.966 0.464 7.8 4.08 9.57
10/21/2022 12:15:00 AM 8.87 47.966 0.464 7.8 4.06 9.56
10/21/2022 12:30:00 AM 8.85 47.93 0.464 7.8 4.51 9.56
10/21/2022 12:45:00 AM 8.84 47.912 0.464 7.8 4.73 9.56
10/21/2022 1:00:00 AM 8.82 47.876 0.464 7.8 4.66 9.57
10/21/2022 1:15:00 AM 8.81 47.858 0.464 7.8 4.54 9.54
10/21/2022 1:30:00 AM 8.79 47.822 0.464 7.8 4.32 9.58
10/21/2022 1:45:00 AM 8.76 47.768 0.464 7.8 4.18 9.6
10/21/2022 2:00:00 AM 8.74 47.732 0.464 7.8 4.43 9.55
10/21/2022 2:15:00 AM 8.72 47.696 0.464 7.8 4.82 9.54
10/21/2022 2:30:00 AM 8.69 47.642 0.464 7.79 4.27 9.52
10/21/2022 2:45:00 AM 8.65 47.57 0.464 7.79 4.36 9.52
10/21/2022 3:00:00 AM 8.61 47.498 0.464 7.79 4.47 9.54
10/21/2022 3:15:00 AM 8.56 47.408 0.464 7.79 4.31 9.53
10/21/2022 3:30:00 AM 8.52 47.336 0.464 7.79 4.44 9.5
10/21/2022 3:45:00 AM 8.48 47.264 0.464 7.79 4.38 9.47
10/21/2022 4:00:00 AM 8.44 47.192 0.465 7.79 4.31 9.47
10/21/2022 4:15:00 AM 8.4 47.12 0.466 7.79 4.31 9.56
10/21/2022 4:30:00 AM 8.35 47.03 0.464 7.79 4.41 9.51
10/21/2022 4:45:00 AM 8.32 46.976 0.465 7.79 4.33 9.54
10/21/2022 5:00:00 AM 8.27 46.886 0.465 7.78 4.36 9.49
10/21/2022 5:15:00 AM 8.22 46.796 0.465 7.78 4.35 9.53
10/21/2022 5:30:00 AM 8.17 46.706 0.465 7.78 4.48 9.49
10/21/2022 5:45:00 AM 8.13 46.634 0.465 7.78 4.42 9.51
10/21/2022 6:00:00 AM 8.08 46.544 0.465 7.78 4.39 9.52
10/21/2022 6:15:00 AM 8.03 46.454 0.465 7.78 4.43 9.52
10/21/2022 6:30:00 AM 7.99 46.382 0.465 7.78 4.45 9.52
10/21/2022 6:45:00 AM 7.94 46.292 0.465 7.78 4.54 9.56
10/21/2022 7:00:00 AM 7.9 46.22 0.465 7.78 4.65 9.57
10/21/2022 7:15:00 AM 7.86 46.148 0.465 7.78 4.43 9.57
10/21/2022 7:30:00 AM 7.82 46.076 0.466 7.78 4.53 9.61
10/21/2022 7:45:00 AM 7.78 46.004 0.466 7.78 4.52 9.61
10/21/2022 8:00:00 AM 7.75 45.95 0.466 7.78 4.48 9.64
10/21/2022 8:15:00 AM 7.72 45.896 0.484 7.78 4.47 9.73
10/21/2022 8:30:00 AM 7.71 45.878 0.484 7.78 4.51 9.76
10/21/2022 8:45:00 AM 7.71 45.878 0.484 7.78 4.41 9.82
10/21/2022 9:00:00 AM 7.73 45.914 0.484 7.79 4.43 9.79
10/21/2022 9:15:00 AM 7.77 45.986 0.484 7.79 4.45 9.87
10/21/2022 9:30:00 AM 7.81 46.058 0.484 7.8 4.39 9.99
10/21/2022 9:45:00 AM 7.87 46.166 0.485 7.8 4.38 10.1
10/21/2022 10:00:00 AM 7.93 46.274 0.485 7.81 4.35 10.24
10/21/2022 10:15:00 AM 8 46.4 0.485 7.82 4.33 10.28
10/21/2022 10:30:00 AM 8.07 46.526 0.483 7.82 4.32 10.4
10/21/2022 10:45:00 AM 8.17 46.706 0.483 7.83 4.39 10.51
10/21/2022 11:00:00 AM 8.29 46.922 0.483 7.84 4.54 10.58
10/21/2022 11:15:00 AM 8.39 47.102 0.483 7.85 4.36 10.8
10/21/2022 11:30:00 AM 8.52 47.336 0.482 7.86 4.32 10.86
10/21/2022 11:45:00 AM 8.66 47.588 0.482 7.87 4.3 11.01
10/21/2022 12:00:00 PM 8.81 47.858 0.482 7.89 4.55 11.16
10/21/2022 12:15:00 PM 8.94 48.092 0.482 7.89 4.47 11.22
10/21/2022 12:30:00 PM 9.09 48.362 0.481 7.9 4.36 11.3
10/21/2022 12:45:00 PM 9.23 48.614 0.481 7.92 4.38 11.4
10/21/2022 1:00:00 PM 9.4 48.92 0.481 7.92 4.35 11.47
10/21/2022 1:15:00 PM 9.57 49.226 0.48 7.94 4.31 11.6
10/21/2022 1:30:00 PM 9.75 49.55 0.48 7.95 4.4 11.65
10/21/2022 1:45:00 PM 9.93 49.874 0.48 7.96 4.35 11.76
10/21/2022 2:00:00 PM 10.09 50.162 0.479 7.97 4.35 11.85
10/21/2022 2:15:00 PM 10.23 50.414 0.479 7.98 4.42 11.92
10/21/2022 2:30:00 PM 10.35 50.63 0.479 7.97 4.38 11.79
10/21/2022 2:45:00 PM 10.45 50.81 0.479 7.97 4.46 11.79
10/21/2022 3:00:00 PM 10.54 50.972 0.479 7.97 4.48 11.75
10/21/2022 3:15:00 PM 10.6 51.08 0.479 7.98 4.44 11.83
10/21/2022 3:30:00 PM 10.67 51.206 0.479 7.98 4.69 11.77
10/21/2022 3:45:00 PM 10.72 51.296 0.478 7.99 4.41 11.8
10/21/2022 4:00:00 PM 10.76 51.368 0.478 7.99 4.47 11.81
10/21/2022 4:15:00 PM 10.81 51.458 0.478 7.99 5.27 11.73
10/21/2022 4:30:00 PM 10.83 51.494 0.478 7.99 4.51 11.68
10/21/2022 4:45:00 PM 10.82 51.476 0.478 7.98 4.63 11.62
10/21/2022 5:00:00 PM 10.81 51.458 0.477 7.96 4.87 11.56
10/21/2022 5:15:00 PM 10.78 51.404 0.477 7.97 4.37 11.44
10/21/2022 5:30:00 PM 10.73 51.314 0.477 7.95 4.5 11.33
10/21/2022 5:45:00 PM 10.67 51.206 0.478 7.95 4.54 11.14
10/21/2022 6:00:00 PM 10.62 51.116 0.478 7.93 4.46 11.06
10/21/2022 6:15:00 PM 10.56 51.008 0.478 7.93 4.7 10.96
10/21/2022 6:30:00 PM 10.49 50.882 0.478 7.91 8.12 10.81
10/21/2022 6:45:00 PM 10.42 50.756 0.478 7.9 6.14 10.74
10/21/2022 7:00:00 PM 10.34 50.612 0.478 7.9 4.35 10.71
10/21/2022 7:15:00 PM 10.26 50.468 0.478 7.88 6.15 10.59
10/21/2022 7:30:00 PM 10.18 50.324 0.477 7.87 4.95 10.5
10/21/2022 7:45:00 PM 10.1 50.18 0.477 7.87 5.24 10.44
10/21/2022 8:00:00 PM 10.02 50.036 0.477 7.86 4.66 10.34
10/21/2022 8:15:00 PM 9.95 49.91 0.477 7.85 7.54 10.21
10/21/2022 8:30:00 PM 9.87 49.766 0.476 7.84 6.96 10.13
10/21/2022 8:45:00 PM 9.79 49.622 0.477 7.84 7.57 10.03
10/21/2022 9:00:00 PM 9.72 49.496 0.477 7.84 5.23 10.02
10/21/2022 9:15:00 PM 9.65 49.37 0.478 7.83 5.15 9.96
10/21/2022 9:30:00 PM 9.58 49.244 0.477 7.83 5.15 9.96
10/21/2022 9:45:00 PM 9.51 49.118 0.472 7.82 5.35 9.94
10/21/2022 10:00:00 PM 9.46 49.028 0.477 7.82 5.21 9.9
10/21/2022 10:15:00 PM 9.4 48.92 0.477 7.82 4.31 9.89
10/21/2022 10:30:00 PM 9.34 48.812 0.478 7.82 4.18 9.87
10/21/2022 10:45:00 PM 9.3 48.74 0.479 7.81 3.32 9.8
10/21/2022 11:00:00 PM 9.26 48.668 0.477 7.81 3.44 9.74
10/21/2022 11:15:00 PM 9.2 48.56 0.477 7.81 3.36 9.77
10/21/2022 11:30:00 PM 9.15 48.47 0.479 7.81 3.86 9.81
10/21/2022 11:45:00 PM 9.1 48.38 0.476 7.81 3.34 9.81
10/22/2022 12:00:00 AM 9.06 48.308 0.477 7.8 3.41 9.78
10/22/2022 12:15:00 AM 9.02 48.236 0.477 7.8 3.18 9.79
10/22/2022 12:30:00 AM 8.98 48.164 0.477 7.8 3.42 9.79
10/22/2022 12:45:00 AM 8.95 48.11 0.476 7.8 3.37 9.79
10/22/2022 1:00:00 AM 8.91 48.038 0.477 7.8 5.69 9.76
10/22/2022 1:15:00 AM 8.87 47.966 0.477 7.8 3.51 9.77
10/22/2022 1:30:00 AM 8.84 47.912 0.477 7.8 3.53 9.73
10/22/2022 1:45:00 AM 8.8 47.84 0.477 7.8 3.47 9.72
10/22/2022 2:00:00 AM 8.76 47.768 0.477 7.8 3.49 9.7
10/22/2022 2:15:00 AM 8.72 47.696 0.477 7.8 3.45 9.74
10/22/2022 2:30:00 AM 8.68 47.624 0.478 7.8 4.08 9.73
10/22/2022 2:45:00 AM 8.64 47.552 0.477 7.8 3.53 9.73
10/22/2022 3:00:00 AM 8.6 47.48 0.478 7.8 3.83 9.73
10/22/2022 3:15:00 AM 8.56 47.408 0.478 7.79 3.47 9.69
10/22/2022 3:30:00 AM 8.53 47.354 0.478 7.79 3.66 9.66
10/22/2022 3:45:00 AM 8.49 47.282 0.478 7.79 3.75 9.63
10/22/2022 4:00:00 AM 8.46 47.228 0.479 7.79 3.61 9.67
10/22/2022 4:15:00 AM 8.43 47.174 0.479 7.79 3.65 9.65
10/22/2022 4:30:00 AM 8.39 47.102 0.479 7.79 3.8 9.65
10/22/2022 4:45:00 AM 8.36 47.048 0.479 7.79 4.49 9.65
10/22/2022 5:00:00 AM 8.32 46.976 0.479 7.79 3.96 9.67
10/22/2022 5:15:00 AM 8.28 46.904 0.479 7.79 3.77 9.66
10/22/2022 5:30:00 AM 8.25 46.85 0.479 7.79 4.15 9.68
10/22/2022 5:45:00 AM 8.21 46.778 0.479 7.79 3.81 9.65
10/22/2022 6:00:00 AM 8.18 46.724 0.479 7.78 4.47 9.66
10/22/2022 6:15:00 AM 8.14 46.652 0.479 7.78 4.34 9.67
10/22/2022 6:30:00 AM 8.11 46.598 0.479 7.78 4.13 9.69
10/22/2022 6:45:00 AM 8.08 46.544 0.479 7.78 4.87 9.69
10/22/2022 7:00:00 AM 8.04 46.472 0.481 7.79 2.65 9.73
10/22/2022 7:15:00 AM 8.01 46.418 0.481 7.79 2.64 9.72
10/22/2022 7:30:00 AM 7.97 46.346 0.481 7.78 2.33 9.72
10/22/2022 7:45:00 AM 7.94 46.292 0.481 7.79 2.35 9.76
10/22/2022 8:00:00 AM 7.91 46.238 0.481 7.79 2.22 9.79
10/22/2022 8:15:00 AM 7.89 46.202 0.481 7.8 2.22 9.83
10/22/2022 8:30:00 AM 7.88 46.184 0.481 7.8 2.35 9.87
10/22/2022 8:45:00 AM 7.88 46.184 0.481 7.8 2.27 9.92
10/22/2022 9:00:00 AM 7.9 46.22 0.481 7.81 2.36 10.01
10/22/2022 9:15:00 AM 7.95 46.31 0.48 7.81 10.64 10.1
10/22/2022 9:30:00 AM 8 46.4 0.48 7.82 29.82 10.18
10/22/2022 9:45:00 AM 8.06 46.508 0.463 7.82 2.47 10.26
10/22/2022 10:00:00 AM 8.14 46.652 0.464 7.83 2.47 10.38
10/22/2022 10:15:00 AM 8.21 46.778 0.461 7.84 7.39 10.47
10/22/2022 10:30:00 AM 8.3 46.94 0.463 7.85 3.16 10.59
10/22/2022 10:45:00 AM 8.4 47.12 0.464 7.86 2.43 10.71
10/22/2022 11:00:00 AM 8.54 47.372 0.465 7.86 2.61 10.79
10/22/2022 11:15:00 AM 8.65 47.57 0.467 7.88 2.67 10.94
10/22/2022 11:30:00 AM 8.79 47.822 0.463 7.89 21.86 11.16
10/22/2022 11:45:00 AM 8.95 48.11 0.453 7.9 2.05 11.26
10/22/2022 12:00:00 PM 9.11 48.398 0.456 7.91 2.14 11.32
10/22/2022 12:15:00 PM 9.26 48.668 0.452 7.92 8.66 11.43
10/22/2022 12:30:00 PM 9.42 48.956 0.44 7.93 2.94 11.52
10/22/2022 12:45:00 PM 9.56 49.208 0.442 7.94 2.75 11.56
10/22/2022 1:00:00 PM 9.74 49.532 0.442 7.95 2.22 11.63
10/22/2022 1:15:00 PM 9.95 49.91 0.443 7.97 2.24 11.75
10/22/2022 1:30:00 PM 10.15 50.27 0.443 7.98 2.2 11.82
10/22/2022 1:45:00 PM 10.34 50.612 0.442 7.99 2.57 11.91
10/22/2022 2:00:00 PM 10.51 50.918 0.442 7.99 2.35 12.02
10/22/2022 2:15:00 PM 10.67 51.206 0.442 8 2.27 12.04
10/22/2022 2:30:00 PM 10.79 51.422 0.442 8.01 2.18 11.98
10/22/2022 2:45:00 PM 10.91 51.638 0.442 8.01 2.17 12.05
10/22/2022 3:00:00 PM 11.01 51.818 0.442 8.01 2.05 12.09
10/22/2022 3:15:00 PM 11.08 51.944 0.442 8.02 2.18 11.99
10/22/2022 3:30:00 PM 11.16 52.088 0.442 8.02 2.06 11.92
10/22/2022 3:45:00 PM 11.22 52.196 0.442 8.02 2.11 11.84
10/22/2022 4:00:00 PM 11.27 52.286 0.442 8.01 2 11.81
10/22/2022 4:15:00 PM 11.31 52.358 0.441 8.01 2.02 11.71
10/22/2022 4:30:00 PM 11.33 52.394 0.441 8.01 8 11.65
10/22/2022 4:45:00 PM 11.33 52.394 0.441 8 5.18 11.53
10/22/2022 5:00:00 PM 11.31 52.358 0.442 8 5.07 11.48
10/22/2022 5:15:00 PM 11.28 52.304 0.442 8 5.17 11.43
10/22/2022 5:30:00 PM 11.24 52.232 0.442 7.98 4.73 11.24
10/22/2022 5:45:00 PM 11.2 52.16 0.376 7.97 12.1 11.14
10/22/2022 6:00:00 PM 11.15 52.07 0.376 7.96 6.36 11.06
10/22/2022 6:15:00 PM 11.09 51.962 0.377 7.95 14.18 10.96
10/22/2022 6:30:00 PM 11.04 51.872 0.377 7.94 3 10.84
10/22/2022 6:45:00 PM 10.97 51.746 0.377 7.93 2.99 10.71
10/22/2022 7:00:00 PM 10.91 51.638 0.377 7.92 3.36 10.61
10/22/2022 7:15:00 PM 10.83 51.494 0.377 7.91 3.29 10.54
10/22/2022 7:30:00 PM 10.75 51.35 0.399 7.9 3.88 10.41
10/22/2022 7:45:00 PM 10.66 51.188 0.399 7.89 3.62 10.33
10/22/2022 8:00:00 PM 10.57 51.026 0.421 7.89 3.83 10.26
10/22/2022 8:15:00 PM 10.49 50.882 0.418 7.88 3.85 10.2
10/22/2022 8:30:00 PM 10.41 50.738 0.418 7.87 3.45 10.12
10/22/2022 8:45:00 PM 10.33 50.594 0.418 7.86 3.51 10.03
10/22/2022 9:00:00 PM 10.26 50.468 0.417 7.85 3.39 9.89
10/22/2022 9:15:00 PM 10.19 50.342 0.417 7.85 3.69 9.92
10/22/2022 9:30:00 PM 10.13 50.234 0.417 7.84 3.66 9.86
10/22/2022 9:45:00 PM 10.08 50.144 0.417 7.84 3.69 9.82
10/22/2022 10:00:00 PM 10.03 50.054 0.416 7.83 3.71 9.77
10/22/2022 10:15:00 PM 9.99 49.982 0.416 7.83 3.59 9.7
10/22/2022 10:30:00 PM 9.95 49.91 0.416 7.83 3.5 9.66
10/22/2022 10:45:00 PM 9.91 49.838 0.417 7.82 4.05 9.64
10/22/2022 11:00:00 PM 9.88 49.784 0.417 7.82 4.36 9.64
10/22/2022 11:15:00 PM 9.84 49.712 0.411 7.82 3.33 9.68
10/22/2022 11:30:00 PM 9.81 49.658 0.411 7.82 3.57 9.61
10/22/2022 11:45:00 PM 9.78 49.604 0.411 7.81 3.67 9.55
10/23/2022 12:00:00 AM 9.74 49.532 0.411 7.81 3.91 9.48
10/23/2022 12:15:00 AM 9.71 49.478 0.411 7.81 3.64 9.53
10/23/2022 12:30:00 AM 9.68 49.424 0.411 7.8 3.63 9.52
10/23/2022 12:45:00 AM 9.64 49.352 0.411 7.8 3.69 9.51
10/23/2022 1:00:00 AM 9.61 49.298 0.41 7.8 3.71 9.5
10/23/2022 1:15:00 AM 9.57 49.226 0.421 7.8 4.57 9.49
10/23/2022 1:30:00 AM 9.54 49.172 0.421 7.8 4.58 9.5
10/23/2022 1:45:00 AM 9.51 49.118 0.421 7.8 4.42 9.48
10/23/2022 2:00:00 AM 9.47 49.046 0.422 7.8 4.45 9.46
10/23/2022 2:15:00 AM 9.44 48.992 0.422 7.8 4.59 9.45
10/23/2022 2:30:00 AM 9.41 48.938 0.422 7.8 4.62 9.45
10/23/2022 2:45:00 AM 9.37 48.866 0.422 7.8 4.64 9.47
10/23/2022 3:00:00 AM 9.33 48.794 0.422 7.79 4.52 9.42
10/23/2022 3:15:00 AM 9.29 48.722 0.422 7.79 4.64 9.41
10/23/2022 3:30:00 AM 9.25 48.65 0.422 7.79 4.58 9.43
10/23/2022 3:45:00 AM 9.22 48.596 0.422 7.79 4.65 9.44
10/23/2022 4:00:00 AM 9.18 48.524 0.422 7.78 4.58 9.39
10/23/2022 4:15:00 AM 9.15 48.47 0.422 7.79 4.62 9.45
10/23/2022 4:30:00 AM 9.11 48.398 0.422 7.79 4.12 9.45
10/23/2022 4:45:00 AM 9.07 48.326 0.422 7.79 4.2 9.42
10/23/2022 5:00:00 AM 9.04 48.272 0.422 7.79 3.99 9.42
10/23/2022 5:15:00 AM 9.01 48.218 0.422 7.79 4 9.42
10/23/2022 5:30:00 AM 8.98 48.164 0.422 7.79 3.95 9.4
10/23/2022 5:45:00 AM 8.95 48.11 0.422 7.79 3.94 9.38
10/23/2022 6:00:00 AM 8.93 48.074 0.422 7.79 3.98 9.4
10/23/2022 6:15:00 AM 8.9 48.02 0.422 7.79 4 9.4
10/23/2022 6:30:00 AM 8.88 47.984 0.422 7.79 4.02 9.39
10/23/2022 6:45:00 AM 8.86 47.948 0.422 7.79 4.56 9.42
10/23/2022 7:00:00 AM 8.84 47.912 0.422 7.78 4.16 9.39
10/23/2022 7:15:00 AM 8.83 47.894 0.422 7.78 4.19 9.41
10/23/2022 7:30:00 AM 8.81 47.858 0.422 7.78 4.16 9.43
10/23/2022 7:45:00 AM 8.8 47.84 0.435 7.78 4.02 9.35
10/23/2022 8:00:00 AM 8.82 47.876 0.435 7.78 4.02 9.35
10/23/2022 8:15:00 AM 8.83 47.894 0.435 7.78 4 9.46
10/23/2022 8:30:00 AM 8.85 47.93 0.432 7.78 3.76 9.52
10/23/2022 8:45:00 AM 8.88 47.984 0.433 7.79 5.44 9.56
10/23/2022 9:00:00 AM 8.91 48.038 0.433 7.79 5.32 9.63
10/23/2022 9:15:00 AM 8.96 48.128 0.433 7.79 5.35 9.72
10/23/2022 9:30:00 AM 9 48.2 0.433 7.8 5.33 9.82
10/23/2022 9:45:00 AM 9.04 48.272 0.433 7.8 5.18 9.84
10/23/2022 10:00:00 AM 9.1 48.38 0.433 7.81 5.2 9.93
10/23/2022 10:15:00 AM 9.19 48.542 0.433 7.82 5.23 10.15
10/23/2022 10:30:00 AM 9.28 48.704 0.433 7.83 5.2 10.34
10/23/2022 10:45:00 AM 9.36 48.848 0.433 7.85 5.21 10.48
10/23/2022 11:00:00 AM 9.44 48.992 0.433 7.85 5.17 10.58
10/23/2022 11:15:00 AM 9.56 49.208 0.432 7.87 5.2 10.82
10/23/2022 11:30:00 AM 9.69 49.442 0.432 7.89 5.14 11.02
10/23/2022 11:45:00 AM 9.77 49.586 0.432 7.9 5.17 11.1
10/23/2022 12:00:00 PM 9.88 49.784 0.432 7.92 5.12 11.28
10/23/2022 12:15:00 PM 10.01 50.018 0.431 7.93 5.13 11.41
10/23/2022 12:30:00 PM 10.11 50.198 0.431 7.95 5.13 11.53
10/23/2022 12:45:00 PM 10.21 50.378 0.431 7.96 5.2 11.66
10/23/2022 1:00:00 PM 10.31 50.558 0.431 7.97 6.43 11.78
10/23/2022 1:15:00 PM 10.41 50.738 0.431 7.98 6.43 11.84
10/23/2022 1:30:00 PM 10.47 50.846 0.432 7.99 6.5 11.82
10/23/2022 1:45:00 PM 10.54 50.972 0.431 8 6.48 11.85
10/23/2022 2:00:00 PM 10.6 51.08 0.43 8 6.48 11.84
10/23/2022 2:15:00 PM 10.65 51.17 0.431 8 6.7 11.9
10/23/2022 2:30:00 PM 10.7 51.26 0.431 8 6.63 11.93
10/23/2022 2:45:00 PM 10.74 51.332 0.431 8 6.77 11.89
10/23/2022 3:00:00 PM 10.79 51.422 0.43 8.01 7.23 11.87
10/23/2022 3:15:00 PM 10.83 51.494 0.431 8.01 8.52 11.83
10/23/2022 3:30:00 PM 10.87 51.566 0.431 7.99 9.54 11.87
10/23/2022 3:45:00 PM 10.9 51.62 0.431 8.01 12.01 11.77
10/23/2022 4:00:00 PM 10.91 51.638 0.43 8 12.32 11.61
10/23/2022 4:15:00 PM 10.93 51.674 0.43 8 12.38 11.58
10/23/2022 4:30:00 PM 10.95 51.71 0.43 7.99 156.37 11.59
10/23/2022 4:45:00 PM 10.96 51.728 0.43 7.99 224.08 11.42
10/23/2022 5:00:00 PM 10.96 51.728 0.428 7.97 339.4 11.27
10/23/2022 5:15:00 PM 10.95 51.71 0.429 7.96 391.13 11.18
10/23/2022 5:30:00 PM 10.94 51.692 0.429 7.95 398.08 11.05
10/23/2022 5:45:00 PM 10.93 51.674 0.429 7.94 1143.02 10.95
10/23/2022 6:00:00 PM 10.91 51.638 0.429 7.93 1197.83 10.79
10/23/2022 6:15:00 PM 10.9 51.62 0.428 7.92 1232.84 10.66
10/23/2022 6:30:00 PM 10.88 51.584 0.426 7.91 1957.5 10.54
10/23/2022 6:45:00 PM 10.86 51.548 0.429 7.89 15.29 10.39
10/23/2022 7:00:00 PM 10.84 51.512 0.43 7.88 15.3 10.26
10/23/2022 7:15:00 PM 10.83 51.494 0.429 7.86 14.98 10.14
10/23/2022 7:30:00 PM 10.81 51.458 0.428 7.87 14.95 10.04
10/23/2022 7:45:00 PM 10.8 51.44 0.428 7.86 14.57 9.93
10/23/2022 8:00:00 PM 10.8 51.44 0.427 7.84 14.79 9.76
10/23/2022 8:15:00 PM 10.79 51.422 0.426 7.83 14.93 9.79
10/23/2022 8:30:00 PM 10.79 51.422 0.426 7.83 14.98 9.7
10/23/2022 8:45:00 PM 10.8 51.44 0.423 7.82 14.88 9.67
10/23/2022 9:00:00 PM 10.81 51.458 0.422 7.82 15.5 9.61
10/23/2022 9:15:00 PM 10.82 51.476 0.421 7.82 15.1 9.57
10/23/2022 9:30:00 PM 10.83 51.494 0.421 7.81 662.04 9.46
10/23/2022 9:45:00 PM 10.85 51.53 0.418 7.8 5.09 9.45
10/23/2022 10:00:00 PM 10.9 51.62 0.411 7.82 5.86 9.52
10/23/2022 10:15:00 PM 10.93 51.674 0.407 7.82 6.12 9.47
10/23/2022 10:30:00 PM 10.94 51.692 0.408 7.81 8.44 9.42
10/23/2022 10:45:00 PM 10.95 51.71 0.408 7.81 5.78 9.36
10/23/2022 11:00:00 PM 10.97 51.746 0.408 7.81 6.09 9.34
10/23/2022 11:15:00 PM 10.98 51.764 0.408 7.81 5.58 9.3
10/23/2022 11:30:00 PM 11 51.8 0.406 7.81 5.66 9.32
10/23/2022 11:45:00 PM 11.03 51.854 0.402 7.82 5.83 9.34
10/24/2022 12:00:00 AM 11.05 51.89 0.399 7.82 6.1 9.35
10/24/2022 12:15:00 AM 11.08 51.944 0.396 7.82 6.5 9.31
10/24/2022 12:30:00 AM 11.1 51.98 0.393 7.82 6.37 9.31
10/24/2022 12:45:00 AM 11.12 52.016 0.392 7.82 6.48 9.28
10/24/2022 1:00:00 AM 11.14 52.052 0.39 7.81 6.37 9.27
10/24/2022 1:15:00 AM 11.16 52.088 0.388 7.81 6.43 9.22
10/24/2022 1:30:00 AM 11.19 52.142 0.382 7.82 6.89 9.29
10/24/2022 1:45:00 AM 11.21 52.178 0.379 7.81 7.46 9.28
10/24/2022 2:00:00 AM 11.22 52.196 0.378 7.81 7.73 9.14
10/24/2022 2:15:00 AM 11.22 52.196 0.379 7.79 7.59 9.07
10/24/2022 2:30:00 AM 11.23 52.214 0.379 7.79 7.25 9.02
10/24/2022 2:45:00 AM 11.24 52.232 0.379 7.78 7.56 9.01
10/24/2022 3:00:00 AM 11.25 52.25 0.376 7.78 7.78 8.95
10/24/2022 3:15:00 AM 11.26 52.268 0.376 7.77 7.79 8.87
10/24/2022 3:30:00 AM 11.26 52.268 0.377 7.75 8.26 8.83
10/24/2022 3:45:00 AM 11.27 52.286 0.376 7.75 8.24 8.76
10/24/2022 4:00:00 AM 11.27 52.286 0.376 7.74 8.39 8.69
10/24/2022 4:15:00 AM 11.27 52.286 0.375 7.73 8.6 8.68
10/24/2022 4:30:00 AM 11.27 52.286 0.375 7.72 9 8.68
10/24/2022 4:45:00 AM 11.27 52.286 0.373 7.71 9.66 8.53
10/24/2022 5:00:00 AM 11.27 52.286 0.371 7.71 10.95 8.66
10/24/2022 5:15:00 AM 11.27 52.286 0.369 7.71 12.24 8.6
10/24/2022 5:30:00 AM 11.27 52.286 0.366 7.7 12.65 8.62
10/24/2022 5:45:00 AM 11.27 52.286 0.361 7.7 13.44 8.65
10/24/2022 6:00:00 AM 11.27 52.286 0.356 7.69 15.64 8.64
10/24/2022 6:15:00 AM 11.27 52.286 0.353 7.69 18.14 8.64
10/24/2022 6:30:00 AM 11.26 52.268 0.351 7.68 18.86 8.61
10/24/2022 6:45:00 AM 11.24 52.232 0.349 7.69 21.94 8.78
10/24/2022 7:00:00 AM 11.23 52.214 0.346 7.69 26.01 8.89
10/24/2022 7:15:00 AM 11.22 52.196 0.343 7.69 28.4 8.94
10/24/2022 7:30:00 AM 11.23 52.214 0.341 7.71 56.72 9.31
10/24/2022 7:45:00 AM 11.24 52.232 0.34 7.72 97.1 9.46
10/24/2022 8:00:00 AM 11.27 52.286 0.338 7.74 208.44 9.29
10/24/2022 8:15:00 AM 11.3 52.34 0.335 7.74 224.59 9.51
10/24/2022 8:30:00 AM 11.33 52.394 0.334 7.74 197.05 9.43
10/24/2022 8:45:00 AM 11.36 52.448 0.334 7.74 625.03 9.51
10/24/2022 9:00:00 AM 11.4 52.52 0.335 7.75 393.32 9.49
10/24/2022 9:15:00 AM 11.42 52.556 0.336 7.75 331.89 9.36
10/24/2022 9:30:00 AM 11.47 52.646 0.337 7.75 208.36 9.51
10/24/2022 9:45:00 AM 11.49 52.682 0.341 7.75 180.42 9.41
10/24/2022 10:00:00 AM 11.53 52.754 0.34 7.73 181.79 9.18
10/24/2022 10:15:00 AM 11.56 52.808 0.339 7.74 183.44 9.01
10/24/2022 10:30:00 AM 11.58 52.844 0.338 7.75 94.37 8.69
10/24/2022 10:45:00 AM 11.58 52.844 0.339 7.73 236.27 8.65
10/24/2022 11:00:00 AM 11.6 52.88 0.34 7.73 1140.19 8.57
10/24/2022 11:15:00 AM 11.63 52.934 0.34 7.72 90.43 5.64
10/24/2022 11:30:00 AM 11.81 53.258 0.336 7.7 142.06 8.94
10/24/2022 11:45:00 AM 11.83 53.294 0.338 7.66 124.96 7.76
10/24/2022 12:00:00 PM 11.86 53.348 0.338 7.65 130.28 6.82
10/24/2022 12:15:00 PM 11.92 53.456 0.334 7.65 144.16 7.09
10/24/2022 12:30:00 PM 11.94 53.492 0.334 7.62 161.67 6.79
10/24/2022 12:45:00 PM 11.98 53.564 0.331 7.6 191.29 7.19
10/24/2022 1:00:00 PM 12.01 53.618 0.328 7.65 245.57 7.42
10/24/2022 1:15:00 PM 12.01 53.618 0.324 7.69 480.29 6.54
10/24/2022 1:30:00 PM 12.05 53.69 0.324 7.7 451.39 6.9
10/24/2022 1:45:00 PM 12.09 53.762 0.325 7.7 444.71 7.09
10/24/2022 2:00:00 PM 12.14 53.852 0.324 7.69 423.01 7.06
10/24/2022 2:15:00 PM 12.19 53.942 0.323 7.69 426.31 7.17
10/24/2022 2:30:00 PM 12.24 54.032 0.323 7.69 433.42 7.38
10/24/2022 2:45:00 PM 12.28 54.104 0.323 7.69 442.44 6.94
10/24/2022 3:00:00 PM 12.31 54.158 0.323 7.68 451.88 7.06
10/24/2022 3:15:00 PM 12.34 54.212 0.323 7.68 456.23 6.05
10/24/2022 3:30:00 PM 12.38 54.284 0.322 7.68 462.46 6.33
10/24/2022 3:45:00 PM 12.43 54.374 0.322 7.67 462.93 5.78
10/24/2022 4:00:00 PM 12.47 54.446 0.322 7.66 434.24 6.18
10/24/2022 4:15:00 PM 12.51 54.518 0.322 7.66 434.53 6.15
10/24/2022 4:30:00 PM 12.53 54.554 0.322 7.65 436.56 6.17
10/24/2022 4:45:00 PM 12.56 54.608 0.324 7.66 441.63 4.68
10/24/2022 5:00:00 PM 12.57 54.626 0.324 7.65 445.36 4.32
10/24/2022 5:15:00 PM 12.58 54.644 0.324 7.65 455.69 5.02
10/24/2022 5:30:00 PM 12.6 54.68 0.326 7.65 459.78 4.75
10/24/2022 5:45:00 PM 12.62 54.716 0.326 7.64 277.05 3.36
10/24/2022 6:00:00 PM 12.63 54.734 0.327 7.64 308.97 3.63
10/24/2022 6:15:00 PM 12.65 54.77 0.327 7.62 326.83 4.27
10/24/2022 6:30:00 PM 12.66 54.788 0.327 7.62 336.44 4.64
10/24/2022 6:45:00 PM 12.67 54.806 0.328 7.62 387.75 4.4
10/24/2022 7:00:00 PM 12.69 54.842 0.33 7.62 410.14 2.19
10/24/2022 7:15:00 PM 12.71 54.878 0.299 7.61 755.71 3.23
10/24/2022 7:30:00 PM 12.76 54.968 0.321 7.63 126.71 2.51
10/24/2022 7:45:00 PM 12.78 55.004 0.304 7.61 749.94 1.89
10/24/2022 8:00:00 PM 12.8 55.04 0.302 7.62 760.08 6.58
10/24/2022 8:15:00 PM 12.8 55.04 0.301 7.62 841.11 6.2
10/24/2022 8:30:00 PM 12.8 55.04 0.3 7.62 831.45 5.03
10/24/2022 8:45:00 PM 12.81 55.058 0.3 7.62 854.64 5.04
10/24/2022 9:00:00 PM 12.8 55.04 0.3 7.61 885.04 5.41
10/24/2022 9:15:00 PM 12.8 55.04 0.301 7.61 875.25 5.29
10/24/2022 9:30:00 PM 12.81 55.058 0.301 7.61 898.41 5.24
10/24/2022 9:45:00 PM 12.82 55.076 0.302 7.61 921.13 5.95
10/24/2022 10:00:00 PM 12.83 55.094 0.302 7.6 946.2 5.44
10/24/2022 10:15:00 PM 12.83 55.094 0.302 7.6 954.97 5.28
10/24/2022 10:30:00 PM 12.84 55.112 0.303 7.6 973.65 5.56
10/24/2022 10:45:00 PM 12.84 55.112 0.303 7.59 989.29 6.15
10/24/2022 11:00:00 PM 12.84 55.112 0.303 7.59 1017.79 5.64
10/24/2022 11:15:00 PM 12.84 55.112 0.304 7.59 1006.17 6.97
10/24/2022 11:30:00 PM 12.85 55.13 0.304 7.59 1026.15 5.22
10/24/2022 11:45:00 PM 12.86 55.148 0.304 7.59 1074.7 5.64
10/25/2022 12:00:00 AM 12.86 55.148 0.304 7.59 1104.09 5.66
10/25/2022 12:15:00 AM 12.86 55.148 0.305 7.59 1088.51 5.99
10/25/2022 12:30:00 AM 12.86 55.148 0.273 7.59 513.37 5.17
10/25/2022 12:45:00 AM 12.87 55.166 0.274 7.59 522.52 6.95
10/25/2022 1:00:00 AM 12.87 55.166 0.275 7.59 526.37 6.6
10/25/2022 1:15:00 AM 12.88 55.184 0.276 7.59 549.83 5.61
10/25/2022 1:30:00 AM 12.88 55.184 0.277 7.59 558.56 5.45
10/25/2022 1:45:00 AM 12.89 55.202 0.278 7.58 566.74 4.42
10/25/2022 2:00:00 AM 12.89 55.202 0.279 7.58 561.08 4.85
10/25/2022 2:15:00 AM 12.9 55.22 0.28 7.58 565.33 4.21
10/25/2022 2:30:00 AM 12.91 55.238 0.28 7.58 332.94 4.47
10/25/2022 2:45:00 AM 12.91 55.238 0.281 7.58 340.59 4.34
10/25/2022 3:00:00 AM 12.92 55.256 0.282 7.58 321.51 5.16
10/25/2022 3:15:00 AM 12.92 55.256 0.283 7.58 324.04 4.56
10/25/2022 3:30:00 AM 12.92 55.256 0.284 7.58 354.09 5.12
10/25/2022 3:45:00 AM 12.93 55.274 0.285 7.58 362.08 5.52
10/25/2022 4:00:00 AM 12.93 55.274 0.286 7.58 356.94 5.11
10/25/2022 4:15:00 AM 12.93 55.274 0.286 7.58 357.23 5.45
10/25/2022 4:30:00 AM 12.92 55.256 0.287 7.58 181.4 5.7
10/25/2022 4:45:00 AM 12.93 55.274 0.288 7.58 185.88 5.8
10/25/2022 5:00:00 AM 12.94 55.292 0.289 7.58 225.57 5.52
10/25/2022 5:15:00 AM 12.94 55.292 0.289 7.58 228.48 5.86
10/25/2022 5:30:00 AM 12.94 55.292 0.29 7.58 229.29 5.51
10/25/2022 5:45:00 AM 12.94 55.292 0.291 7.58 232.05 6.23
10/25/2022 6:00:00 AM 12.94 55.292 0.291 7.58 239.58 6.49
10/25/2022 6:15:00 AM 12.93 55.274 0.292 7.58 232.96 5.86
10/25/2022 6:30:00 AM 12.93 55.274 0.293 7.58 237.15 6.62
10/25/2022 6:45:00 AM 12.94 55.292 0.293 7.58 237.32 5.24
10/25/2022 7:00:00 AM 12.95 55.31 0.294 7.58 241.73 3.99
10/25/2022 7:15:00 AM 12.95 55.31 0.294 7.58 244.03 3.28
10/25/2022 7:30:00 AM 12.96 55.328 0.295 7.58 250.18 3.8
10/25/2022 7:45:00 AM 12.97 55.346 0.295 7.58 253.88 4.49
10/25/2022 8:00:00 AM 12.97 55.346 0.296 7.58 256.31 3.38
10/25/2022 8:15:00 AM 12.98 55.364 0.296 7.58 238.18 3.78
10/25/2022 8:30:00 AM 12.96 55.328 0.297 7.58 243.95 3.86
10/25/2022 8:45:00 AM 12.99 55.382 0.298 7.58 243.69 4.51
10/25/2022 9:00:00 AM 13.01 55.418 0.299 7.58 254.98 3.56
10/25/2022 9:15:00 AM 13.02 55.436 0.3 7.59 254.05 3.53
10/25/2022 9:30:00 AM 13.03 55.454 0.301 7.59 273.21 3.05
10/25/2022 9:45:00 AM 13.06 55.508 0.302 7.6 253.02 3.2
10/25/2022 10:00:00 AM 13.08 55.544 0.303 7.6 260.1 2.65
10/25/2022 10:15:00 AM 13.12 55.616 0.304 7.61 256.59 2.49
10/25/2022 10:30:00 AM 13.16 55.688 0.305 7.62 258.52 3.28
10/25/2022 10:45:00 AM 13.2 55.76 0.305 7.62 165.58 2.55
10/25/2022 11:00:00 AM 13.22 55.796 0.305 7.62 164.64 3.57
10/25/2022 11:15:00 AM 13.24 55.832 0.306 7.63 161.02 4.35
10/25/2022 11:30:00 AM 13.28 55.904 0.306 7.63 160.81 3.07
10/25/2022 11:45:00 AM 13.3 55.94 0.307 7.63 87.48 2.67
10/25/2022 12:00:00 PM 13.32 55.976 0.308 7.63 86.99 2.62
10/25/2022 12:15:00 PM 13.34 56.012 0.308 7.64 86.21 2.36
10/25/2022 12:30:00 PM 13.37 56.066 0.309 7.64 86.46 2.68
10/25/2022 12:45:00 PM 13.37 56.066 0.31 7.64 88.29 3.53
10/25/2022 1:00:00 PM 13.43 56.174 0.31 7.65 88.9 4.46
10/25/2022 1:15:00 PM 13.49 56.282 0.31 7.66 88.4 3.73
10/25/2022 1:30:00 PM 13.56 56.408 0.31 7.66 96.53 4.36
10/25/2022 1:45:00 PM 13.62 56.516 0.311 7.67 96.94 5.41
10/25/2022 2:00:00 PM 13.67 56.606 0.312 7.68 99.12 4.44
10/25/2022 2:15:00 PM 13.73 56.714 0.312 7.68 99.65 2.44
10/25/2022 2:30:00 PM 13.76 56.768 0.312 7.68 100.55 2.4
10/25/2022 2:45:00 PM 13.79 56.822 0.313 7.68 100.6 1.93
10/25/2022 3:00:00 PM 13.81 56.858 0.312 7.68 101.95 2.02
10/25/2022 3:15:00 PM 13.82 56.876 0.312 7.68 105.6 1.35
10/25/2022 3:30:00 PM 13.83 56.894 0.312 7.68 100.77 2.8
10/25/2022 3:45:00 PM 13.84 56.912 0.312 7.68 106.99 1.49
10/25/2022 4:00:00 PM 13.84 56.912 0.313 7.67 103.54 2.3
10/25/2022 4:15:00 PM 13.84 56.912 0.312 7.68 103.82 1.62
10/25/2022 4:30:00 PM 13.85 56.93 0.311 7.68 108.29 1.52
10/25/2022 4:45:00 PM 13.86 56.948 0.311 7.68 108.32 1.39
10/25/2022 5:00:00 PM 13.87 56.966 0.312 7.67 108.29 1.64
10/25/2022 5:15:00 PM 13.88 56.984 0.312 7.67 108.34 2.64
10/25/2022 5:30:00 PM 13.9 57.02 0.312 7.67 111.42 1.65
10/25/2022 5:45:00 PM 13.9 57.02 0.275 7.65 127.62 2.08
10/25/2022 6:00:00 PM 13.92 57.056 0.275 7.67 79.82 0.86
10/25/2022 6:15:00 PM 13.93 57.074 0.274 7.66 81.98 1.78
10/25/2022 6:30:00 PM 13.91 57.038 0.274 7.66 81.48 1.47
10/25/2022 6:45:00 PM 13.91 57.038 0.275 7.65 81.91 1.74
10/25/2022 7:00:00 PM 13.91 57.038 0.275 7.66 81.48 1.59
10/25/2022 7:15:00 PM 13.92 57.056 0.275 7.66 83.03 1.42
10/25/2022 7:30:00 PM 13.91 57.038 0.275 7.66 80.85 1.81
10/25/2022 7:45:00 PM 13.92 57.056 0.275 7.66 80.57 1.68
10/25/2022 8:00:00 PM 13.92 57.056 0.275 7.65 80.33 1.13
10/25/2022 8:15:00 PM 13.92 57.056 0.275 7.66 79.9 0.79
10/25/2022 8:30:00 PM 13.92 57.056 0.275 7.64 85.71 1.53
10/25/2022 8:45:00 PM 13.91 57.038 0.275 7.65 85.52 1.3
10/25/2022 9:00:00 PM 13.92 57.056 0.275 7.64 85.75 1.24
10/25/2022 9:15:00 PM 13.93 57.074 0.275 7.65 85.02 1.33
10/25/2022 9:30:00 PM 13.95 57.11 0.276 7.64 86.62 1.61
10/25/2022 9:45:00 PM 13.94 57.092 0.276 7.64 88.27 0.95
10/25/2022 10:00:00 PM 13.91 57.038 0.276 7.64 83.16 1.35
10/25/2022 10:15:00 PM 13.92 57.056 0.275 7.63 82.65 0.62
10/25/2022 10:30:00 PM 13.92 57.056 0.276 7.64 82.67 1.47
10/25/2022 10:45:00 PM 13.92 57.056 0.276 7.62 83.14 1.62
10/25/2022 11:00:00 PM 13.91 57.038 0.277 7.64 83.96 1.31
10/25/2022 11:15:00 PM 13.91 57.038 0.277 7.63 83.77 0.82
10/25/2022 11:30:00 PM 13.91 57.038 0.277 7.63 83.4 1.27
10/25/2022 11:45:00 PM 13.89 57.002 0.277 7.65 82.3 0.75
10/26/2022 12:00:00 AM 13.9 57.02 0.278 7.65 83 0.52
10/26/2022 12:15:00 AM 13.89 57.002 0.278 7.65 82.47 0.55
10/26/2022 12:30:00 AM 13.88 56.984 0.279 7.64 81.93 0.8
10/26/2022 12:45:00 AM 13.88 56.984 0.278 7.64 81.78 0.45
10/26/2022 1:00:00 AM 13.84 56.912 0.277 7.64 82.83 0.68
10/26/2022 1:15:00 AM 13.81 56.858 0.278 7.59 83.79 1.86
10/26/2022 1:30:00 AM 13.8 56.84 0.278 7.64 83.95 0.61
10/26/2022 1:45:00 AM 13.79 56.822 0.277 7.65 83.1 0.64
10/26/2022 2:00:00 AM 13.78 56.804 0.279 7.64 83.43 1.04
10/26/2022 2:15:00 AM 13.78 56.804 0.279 7.62 83.35 0.82
10/26/2022 2:30:00 AM 13.77 56.786 0.278 7.65 83.45 0.89
10/26/2022 2:45:00 AM 13.77 56.786 0.28 7.65 83.01 0.92
10/26/2022 3:00:00 AM 13.76 56.768 0.27 7.64 79.03 0.67
10/26/2022 3:15:00 AM 13.76 56.768 0.262 7.65 77.44 1.32
10/26/2022 3:30:00 AM 13.75 56.75 0.284 7.63 77.44 1.21
10/26/2022 3:45:00 AM 13.75 56.75 0.282 7.64 77.31 1
10/26/2022 4:00:00 AM 13.75 56.75 0.253 7.61 781.25 1.44
10/26/2022 4:15:00 AM 13.77 56.786 0.254 7.65 848.65 1.04
10/26/2022 4:30:00 AM 13.79 56.822 0.256 7.65 837.93 0.93
10/26/2022 4:45:00 AM 13.78 56.804 0.256 7.65 896.11 0.41
10/26/2022 5:00:00 AM 13.79 56.822 0.257 7.65 973.42 0.7
10/26/2022 5:15:00 AM 13.8 56.84 0.258 7.64 968.11 0.39
10/26/2022 5:30:00 AM 13.78 56.804 0.258 7.64 982.35 0.51
10/26/2022 5:45:00 AM 13.78 56.804 0.26 7.64 837.98 0.37
10/26/2022 6:00:00 AM 13.78 56.804 0.26 7.63 831.23 0.46
10/26/2022 6:15:00 AM 13.78 56.804 0.261 7.64 1090.27 0.36
10/26/2022 6:30:00 AM 13.78 56.804 0.262 7.65 1070.29 0.37
10/26/2022 6:45:00 AM 13.78 56.804 0.262 7.64 439.19 0.37
10/26/2022 7:00:00 AM 13.79 56.822 0.263 7.65 387.67 0.53
10/26/2022 7:15:00 AM 13.77 56.786 0.264 7.65 348.06 0.38
10/26/2022 7:30:00 AM 13.77 56.786 0.264 7.65 249.14 0.4
10/26/2022 7:45:00 AM 13.76 56.768 0.265 7.65 300.17 0.41
10/26/2022 8:00:00 AM 13.76 56.768 0.266 7.64 332.74 0.48
10/26/2022 8:15:00 AM 13.77 56.786 0.266 7.64 342.41 0.41
10/26/2022 8:30:00 AM 13.78 56.804 0.265 7.64 367.33 0.51
10/26/2022 8:45:00 AM 13.78 56.804 0.265 7.64 374.12 0.66
10/26/2022 9:00:00 AM 13.79 56.822 0.265 7.62 363.16 0.9
10/26/2022 9:15:00 AM 13.79 56.822 0.266 7.64 278.99 0.41
10/26/2022 9:30:00 AM 13.79 56.822 0.265 7.65 303.79 0.43
10/26/2022 9:45:00 AM 13.83 56.894 0.264 7.65 337.73 0.35
10/26/2022 10:00:00 AM 13.86 56.948 0.265 7.65 393.27 0.34
10/26/2022 10:15:00 AM 13.9 57.02 0.265 7.66 405.78 0.36
10/26/2022 10:30:00 AM 13.93 57.074 0.265 7.66 403.38 0.34
10/26/2022 10:45:00 AM 13.95 57.11 0.265 7.67 302.42 0.36
10/26/2022 11:00:00 AM 13.99 57.182 0.264 7.68 329.04 0.49
10/26/2022 11:15:00 AM 14.03 57.254 0.265 7.69 396.43 0.72
10/26/2022 11:30:00 AM 14.07 57.326 0.264 7.69 361.02 0.57
10/26/2022 11:45:00 AM 14.11 57.398 0.261 7.69 362.2 0.39
10/26/2022 12:00:00 PM 14.16 57.488 0.265 7.71 331.77 0.85
10/26/2022 12:15:00 PM 14.19 57.542 0.265 7.71 406.75 1.69
10/26/2022 12:30:00 PM 14.21 57.578 0.265 7.71 254.74 0.76
10/26/2022 12:45:00 PM 14.25 57.65 0.265 7.72 326.65 1.44
10/26/2022 1:00:00 PM 14.29 57.722 0.265 7.72 300.21 1.83
10/26/2022 1:15:00 PM 14.32 57.776 0.266 7.72 304.36 0.79
10/26/2022 1:30:00 PM 14.35 57.83 0.266 7.72 301.35 0.4
10/26/2022 1:45:00 PM 14.39 57.902 0.266 7.73 316.26 0.46
10/26/2022 2:00:00 PM 14.41 57.938 0.265 7.73 332.66 0.41
10/26/2022 2:15:00 PM 14.43 57.974 0.265 7.74 244.81 1.69
10/26/2022 2:30:00 PM 14.45 58.01 0.265 7.73 799.56 0.94
10/26/2022 2:45:00 PM 14.49 58.082 0.265 7.74 913.11 0.67
10/26/2022 3:00:00 PM 14.52 58.136 0.265 7.74 908.72 0.54
10/26/2022 3:15:00 PM 14.54 58.172 0.264 7.74 778.88 0.79
10/26/2022 3:30:00 PM 14.59 58.262 0.264 7.75 954.98 0.71
10/26/2022 3:45:00 PM 14.62 58.316 0.263 7.75 986.84 0.95
10/26/2022 4:00:00 PM 14.65 58.37 0.263 7.76 940.29 0.73
10/26/2022 4:15:00 PM 14.66 58.388 0.263 7.75 965.09 0.57
10/26/2022 4:30:00 PM 14.7 58.46 0.263 7.76 901.78 1.05
10/26/2022 4:45:00 PM 14.73 58.514 0.263 7.74 978.19 0.77
10/26/2022 5:00:00 PM 14.74 58.532 0.263 7.75 972.42 0.78
10/26/2022 5:15:00 PM 14.75 58.55 0.263 7.73 917.81 0.44
10/26/2022 5:30:00 PM 14.75 58.55 0.263 7.74 916.94 0.57
10/26/2022 5:45:00 PM 14.74 58.532 0.265 7.72 539.13 0.97
10/26/2022 6:00:00 PM 14.72 58.496 0.239 7.71 77.18 1.1
10/26/2022 6:15:00 PM 14.73 58.514 0.24 7.69 75.81 0.36
10/26/2022 6:30:00 PM 14.7 58.46 0.241 7.69 78.79 0.71
10/26/2022 6:45:00 PM 14.68 58.424 0.242 7.68 84.26 0.41
10/26/2022 7:00:00 PM 14.67 58.406 0.242 7.69 74.85 0.37
10/26/2022 7:15:00 PM 14.64 58.352 0.242 7.69 80.77 0.58
10/26/2022 7:30:00 PM 14.63 58.334 0.242 7.7 43.06 0.4
10/26/2022 7:45:00 PM 14.61 58.298 0.243 7.69 49.45 0.48
10/26/2022 8:00:00 PM 14.62 58.316 0.243 7.69 50.6 0.64
10/26/2022 8:15:00 PM 14.6 58.28 0.243 7.68 49.47 0.46
10/26/2022 8:30:00 PM 14.59 58.262 0.244 7.68 49.71 0.8
10/26/2022 8:45:00 PM 14.58 58.244 0.244 7.68 51.58 0.7
10/26/2022 9:00:00 PM 14.58 58.244 0.244 7.68 49.38 0.46
10/26/2022 9:15:00 PM 14.58 58.244 0.244 7.68 50.13 0.78
10/26/2022 9:30:00 PM 14.57 58.226 0.245 7.66 50.36 0.49
10/26/2022 9:45:00 PM 14.58 58.244 0.245 7.67 62.03 0.57
10/26/2022 10:00:00 PM 14.56 58.208 0.246 7.69 54.82 0.62
10/26/2022 10:15:00 PM 14.54 58.172 0.247 7.68 53.68 0.51
10/26/2022 10:30:00 PM 14.51 58.118 0.248 7.68 56.46 0.95
10/26/2022 10:45:00 PM 14.47 58.046 0.249 7.69 53.81 0.99
10/26/2022 11:00:00 PM 14.44 57.992 0.249 7.69 53.93 0.95
10/26/2022 11:15:00 PM 14.4 57.92 0.25 7.69 57.88 0.85
10/26/2022 11:30:00 PM 14.38 57.884 0.251 7.69 53.46 0.39
10/26/2022 11:45:00 PM 14.33 57.794 0.252 7.69 53.93 0.51
10/27/2022 12:00:00 AM 14.31 57.758 0.252 7.69 54.04 0.42
10/27/2022 12:15:00 AM 14.25 57.65 0.253 7.69 55.27 0.78
10/27/2022 12:30:00 AM 14.22 57.596 0.253 7.68 55.66 0.45
10/27/2022 12:45:00 AM 14.18 57.524 0.253 7.69 59.84 0.66
10/27/2022 1:00:00 AM 14.14 57.452 0.253 7.69 55.12 0.58
10/27/2022 1:15:00 AM 14.1 57.38 0.253 7.69 51.45 0.79
10/27/2022 1:30:00 AM 14.06 57.308 0.253 7.69 54.17 0.58
10/27/2022 1:45:00 AM 14.02 57.236 0.253 7.69 54.3 0.69
10/27/2022 2:00:00 AM 13.98 57.164 0.253 7.69 49.29 1.1
10/27/2022 2:15:00 AM 13.93 57.074 0.253 7.68 51.41 0.76
10/27/2022 2:30:00 AM 13.9 57.02 0.253 7.69 62.79 0.7
10/27/2022 2:45:00 AM 13.87 56.966 0.253 7.69 48.94 0.85
10/27/2022 3:00:00 AM 13.84 56.912 0.253 7.7 49.13 0.86
10/27/2022 3:15:00 AM 13.82 56.876 0.253 7.7 48.35 0.67
10/27/2022 3:30:00 AM 13.8 56.84 0.253 7.69 48.45 0.49
10/27/2022 3:45:00 AM 13.78 56.804 0.253 7.69 55.21 0.77
10/27/2022 4:00:00 AM 13.76 56.768 0.253 7.69 45.32 1.27
10/27/2022 4:15:00 AM 13.73 56.714 0.253 7.7 61.58 0.77
10/27/2022 4:30:00 AM 13.71 56.678 0.253 7.69 56.13 0.86
10/27/2022 4:45:00 AM 13.67 56.606 0.254 7.69 40.06 0.58
10/27/2022 5:00:00 AM 13.62 56.516 0.268 7.69 74.72 0.47
10/27/2022 5:15:00 AM 13.59 56.462 0.269 7.7 28.62 0.36
10/27/2022 5:30:00 AM 13.55 56.39 0.268 7.69 27.81 0.34
10/27/2022 5:45:00 AM 13.51 56.318 0.269 7.7 28.34 0.34
10/27/2022 6:00:00 AM 13.47 56.246 0.268 7.69 26.73 0.34
10/27/2022 6:15:00 AM 13.42 56.156 0.271 7.67 24.26 0.4
10/27/2022 6:30:00 AM 13.42 56.156 0.273 7.68 37.04 0.36
10/27/2022 6:45:00 AM 13.37 56.066 0.268 7.68 151.46 0.73
10/27/2022 7:00:00 AM 13.39 56.102 0.269 7.69 26.58 0.34
10/27/2022 7:15:00 AM 13.38 56.084 0.27 7.68 26.39 0.34
10/27/2022 7:30:00 AM 13.37 56.066 0.271 7.69 25.94 0.34
10/27/2022 7:45:00 AM 13.35 56.03 0.271 7.69 25.72 0.38
10/27/2022 8:00:00 AM 13.32 55.976 0.271 7.69 25.7 0.36
10/27/2022 8:15:00 AM 13.28 55.904 0.271 7.7 25.59 0.34
10/27/2022 8:30:00 AM 13.27 55.886 0.27 7.69 215.78 0.34
10/27/2022 8:45:00 AM 13.25 55.85 0.271 7.7 217.08 0.34
10/27/2022 9:00:00 AM 13.25 55.85 0.272 7.7 218 0.34
10/27/2022 9:15:00 AM 13.26 55.868 0.272 7.7 215.66 0.35
10/27/2022 9:30:00 AM 13.28 55.904 0.272 7.71 216.2 0.34
10/27/2022 9:45:00 AM 13.27 55.886 0.272 7.71 220.04 0.53
10/27/2022 10:00:00 AM 13.24 55.832 0.272 7.72 220.55 0.37
10/27/2022 10:15:00 AM 13.23 55.814 0.273 7.7 220.18 0.34
10/27/2022 10:30:00 AM 13.22 55.796 0.27 7.71 14.27 0.34
10/27/2022 10:45:00 AM 13.22 55.796 0.271 7.72 14.37 0.34
10/27/2022 11:00:00 AM 13.24 55.832 0.271 7.72 18.24 0.34
10/27/2022 11:15:00 AM 13.29 55.922 0.271 7.73 20.06 0.37
10/27/2022 11:30:00 AM 13.34 56.012 0.271 7.75 16.2 0.4
10/27/2022 11:45:00 AM 13.39 56.102 0.271 7.75 15.45 0.43
10/27/2022 12:00:00 PM 13.45 56.21 0.271 7.75 15.85 0.5
10/27/2022 12:15:00 PM 13.49 56.282 0.272 7.75 15.57 0.39
10/27/2022 12:30:00 PM 13.54 56.372 0.272 7.75 15.17 0.38
10/27/2022 12:45:00 PM 13.6 56.48 0.341 7.76 380.66 0.35
10/27/2022 1:00:00 PM 13.65 56.57 0.306 7.76 66.66 0.34
10/27/2022 1:15:00 PM 13.72 56.696 0.302 7.78 51.54 0.34
10/27/2022 1:30:00 PM 13.8 56.84 0.302 7.78 49.99 0.34
10/27/2022 1:45:00 PM 13.9 57.02 0.302 7.78 48.38 0.34
10/27/2022 2:00:00 PM 13.98 57.164 0.302 7.79 52.24 0.34
10/27/2022 2:15:00 PM 14.02 57.236 0.303 7.78 40.34 0.34
10/27/2022 2:30:00 PM 14.05 57.29 0.304 7.79 36.07 0.34
10/27/2022 2:45:00 PM 14.1 57.38 0.305 7.79 35.49 0.33
10/27/2022 3:00:00 PM 14.13 57.434 0.306 7.79 35.74 0.34
10/27/2022 3:15:00 PM 14.15 57.47 0.308 7.78 32.09 0.33
10/27/2022 3:30:00 PM 14.16 57.488 0.309 7.74 31.71 0.33
10/27/2022 3:45:00 PM 14.16 57.488 0.31 7.79 31.56 0.34
10/27/2022 4:00:00 PM 14.15 57.47 0.311 7.79 76.21 0.33
10/27/2022 4:15:00 PM 14.14 57.452 0.313 7.79 32.62 0.33
10/27/2022 4:30:00 PM 14.11 57.398 0.314 7.79 33.63 0.34
10/27/2022 4:45:00 PM 14.08 57.344 0.315 7.78 35.51 0.34
10/27/2022 5:00:00 PM 14.02 57.236 0.316 7.78 40.26 0.34
10/27/2022 5:15:00 PM 13.98 57.164 0.317 7.78 43.41 0.34
10/27/2022 5:30:00 PM 13.93 57.074 0.318 7.78 31.67 0.34
10/27/2022 5:45:00 PM 13.87 56.966 0.319 7.76 30.36 0.34
10/27/2022 6:00:00 PM 13.82 56.876 0.32 7.76 30.75 0.34
10/27/2022 6:15:00 PM 13.78 56.804 0.321 7.75 30.08 0.33
10/27/2022 6:30:00 PM 13.71 56.678 0.322 7.75 30.83 0.34
10/27/2022 6:45:00 PM 13.63 56.534 0.322 7.75 32.19 0.34
10/27/2022 7:00:00 PM 13.57 56.426 0.323 7.74 32.15 0.34
10/27/2022 7:15:00 PM 13.51 56.318 0.324 7.74 32.39 0.34
10/27/2022 7:30:00 PM 13.45 56.21 0.325 7.73 33.33 0.34
10/27/2022 7:45:00 PM 13.39 56.102 0.33 7.73 33.23 0.34
10/27/2022 8:00:00 PM 13.34 56.012 0.331 7.72 33.26 0.34
10/27/2022 8:15:00 PM 13.3 55.94 0.329 7.71 33.17 0.34
10/27/2022 8:30:00 PM 13.24 55.832 0.33 7.71 33.32 0.34
10/27/2022 8:45:00 PM 13.21 55.778 0.331 7.71 35.5 0.34
10/27/2022 9:00:00 PM 13.16 55.688 0.331 7.71 34.45 0.34
10/27/2022 9:15:00 PM 13.11 55.598 0.332 7.71 41.4 0.34
10/27/2022 9:30:00 PM 13.05 55.49 0.332 7.71 45.63 0.34
10/27/2022 9:45:00 PM 13 55.4 0.328 7.71 43.98 0.34
10/27/2022 10:00:00 PM 12.93 55.274 0.325 7.71 60.52 0.35
10/27/2022 10:15:00 PM 12.87 55.166 0.314 7.71 54.04 0.35
10/27/2022 10:30:00 PM 12.81 55.058 0.31 7.71 63.07 0.36
10/27/2022 10:45:00 PM 12.75 54.95 0.31 7.71 64.89 0.35
10/27/2022 11:00:00 PM 12.7 54.86 0.312 7.7 63.52 0.36
10/27/2022 11:15:00 PM 12.64 54.752 0.313 7.7 62.4 0.35
10/27/2022 11:30:00 PM 12.58 54.644 0.312 7.7 63.5 0.35
10/27/2022 11:45:00 PM 12.48 54.464 0.326 7.69 34.44 0.35
10/28/2022 12:00:00 AM 12.43 54.374 0.328 7.69 33.35 0.62
10/28/2022 12:15:00 AM 12.36 54.248 0.331 7.69 33.3 0.39
10/28/2022 12:30:00 AM 12.3 54.14 0.333 7.68 32.53 0.42
10/28/2022 12:45:00 AM 12.24 54.032 0.335 7.69 32.68 0.35
10/28/2022 1:00:00 AM 12.18 53.924 0.337 7.69 33.08 0.39
10/28/2022 1:15:00 AM 12.15 53.87 0.339 7.68 34.79 0.4
10/28/2022 1:30:00 AM 12.08 53.744 0.34 7.69 32.42 0.39
10/28/2022 1:45:00 AM 12.03 53.654 0.342 7.68 31.14 0.36
10/28/2022 2:00:00 AM 11.95 53.51 0.345 7.7 36.22 0.47
10/28/2022 2:15:00 AM 11.88 53.384 0.347 7.69 29.17 0.41
10/28/2022 2:30:00 AM 11.8 53.24 0.337 7.7 28.04 0.49
10/28/2022 2:45:00 AM 11.67 53.006 0.336 7.67 1886.39 0.38
10/28/2022 3:00:00 AM 11.68 53.024 0.352 7.67 31.32 0.36
10/28/2022 3:15:00 AM 11.62 52.916 0.354 7.67 23.19 0.36
10/28/2022 3:30:00 AM 11.55 52.79 0.356 7.68 22.86 0.36
10/28/2022 3:45:00 AM 11.49 52.682 0.357 7.67 23.05 0.36
10/28/2022 4:00:00 AM 11.42 52.556 0.359 7.68 24.28 0.36
10/28/2022 4:15:00 AM 11.34 52.412 0.36 7.67 22.83 0.39
10/28/2022 4:30:00 AM 11.28 52.304 0.361 7.67 22.95 0.47
10/28/2022 4:45:00 AM 11.23 52.214 0.362 7.68 23.06 0.65
10/28/2022 5:00:00 AM 11.19 52.142 0.363 7.68 22.9 0.51
10/28/2022 5:15:00 AM 11.14 52.052 0.364 7.68 23.29 0.46
10/28/2022 5:30:00 AM 11.08 51.944 0.366 7.68 23.43 0.47
10/28/2022 5:45:00 AM 11.03 51.854 0.37 7.68 23.38 0.46
10/28/2022 6:00:00 AM 10.97 51.746 0.372 7.68 23.84 0.4
10/28/2022 6:15:00 AM 10.89 51.602 0.373 7.67 25.41 0.41
10/28/2022 6:30:00 AM 10.85 51.53 0.375 7.67 23.33 0.39
10/28/2022 6:45:00 AM 10.8 51.44 0.377 7.67 24 0.4
10/28/2022 7:00:00 AM 10.76 51.368 0.379 7.67 23.5 0.55
10/28/2022 7:15:00 AM 10.72 51.296 0.38 7.67 23.71 0.61
10/28/2022 7:30:00 AM 10.67 51.206 0.381 7.67 24.17 0.63
10/28/2022 7:45:00 AM 10.61 51.098 0.384 7.67 24.26 0.67
10/28/2022 8:00:00 AM 10.58 51.044 0.386 7.66 26.49 0.51
10/28/2022 8:15:00 AM 10.52 50.936 0.384 7.68 24.78 0.54
10/28/2022 8:30:00 AM 10.48 50.864 0.386 7.67 24.42 0.61
10/28/2022 8:45:00 AM 10.45 50.81 0.387 7.67 24.92 0.54
10/28/2022 9:00:00 AM 10.42 50.756 0.387 7.69 26.05 0.54
10/28/2022 9:15:00 AM 10.42 50.756 0.387 7.68 25.99 0.56
10/28/2022 9:30:00 AM 10.41 50.738 0.388 7.69 27.83 0.54
10/28/2022 9:45:00 AM 10.43 50.774 0.388 7.71 24.29 0.49
10/28/2022 10:00:00 AM 10.45 50.81 0.388 7.72 23.87 0.62
10/28/2022 10:15:00 AM 10.48 50.864 0.387 7.73 24.63 0.45
10/28/2022 10:30:00 AM 10.51 50.918 0.387 7.74 24.7 0.45
10/28/2022 10:45:00 AM 10.55 50.99 0.387 7.74 24.26 0.48
10/28/2022 11:00:00 AM 10.59 51.062 0.386 7.75 24.14 0.41
10/28/2022 11:15:00 AM 10.62 51.116 0.385 7.76 24.12 0.39
10/28/2022 11:30:00 AM 10.7 51.26 0.385 7.77 23.94 0.41
10/28/2022 11:45:00 AM 10.77 51.386 0.385 7.77 24.23 0.4
10/28/2022 12:00:00 PM 10.84 51.512 0.386 7.77 23.81 0.41
10/28/2022 12:15:00 PM 10.9 51.62 0.385 7.78 32.87 0.4
10/28/2022 12:30:00 PM 10.96 51.728 0.383 7.78 32.6 0.37
10/28/2022 12:45:00 PM 11.02 51.836 0.382 7.79 25.85 0.37
10/28/2022 1:00:00 PM 11.08 51.944 0.383 7.81 26.47 0.5
10/28/2022 1:15:00 PM 11.14 52.052 0.384 7.81 28.3 0.53
10/28/2022 1:30:00 PM 11.21 52.178 0.382 7.82 27.54 0.37
10/28/2022 1:45:00 PM 11.27 52.286 0.383 7.82 28.41 0.41
10/28/2022 2:00:00 PM 11.34 52.412 0.382 7.82 27.87 0.4
10/28/2022 2:15:00 PM 11.39 52.502 0.382 7.82 27.06 0.39
10/28/2022 2:30:00 PM 11.45 52.61 0.38 7.81 27.03 0.36
10/28/2022 2:45:00 PM 11.48 52.664 0.379 7.82 26.91 0.44
10/28/2022 3:00:00 PM 11.54 52.772 0.377 7.84 27.07 0.39
10/28/2022 3:15:00 PM 11.57 52.826 0.377 7.84 28.11 0.39
10/28/2022 3:30:00 PM 11.62 52.916 0.376 7.83 29.15 0.37
10/28/2022 3:45:00 PM 11.64 52.952 0.374 7.83 29.75 0.36
10/28/2022 4:00:00 PM 11.66 52.988 0.374 7.82 29.84 0.36
10/28/2022 4:15:00 PM 11.67 53.006 0.374 7.84 29.64 0.41
10/28/2022 4:30:00 PM 11.67 53.006 0.376 7.84 31.22 0.6
10/28/2022 4:45:00 PM 11.68 53.024 0.376 7.84 32.14 0.4
10/28/2022 5:00:00 PM 11.68 53.024 0.377 7.83 34.19 0.38
10/28/2022 5:15:00 PM 11.65 52.97 0.377 7.79 36.54 0.36
10/28/2022 5:30:00 PM 11.63 52.934 0.376 7.81 36.2 0.39
10/28/2022 5:45:00 PM 11.61 52.898 0.375 7.8 36.42 0.36
10/28/2022 6:00:00 PM 11.6 52.88 0.372 7.8 41.06 0.36
10/28/2022 6:15:00 PM 11.57 52.826 0.372 7.79 37.5 0.38
10/28/2022 6:30:00 PM 11.53 52.754 0.372 7.79 36.52 0.36
10/28/2022 6:45:00 PM 11.49 52.682 0.371 7.75 36.77 0.36
10/28/2022 7:00:00 PM 11.46 52.628 0.37 7.76 36.83 0.36
10/28/2022 7:15:00 PM 11.42 52.556 0.37 7.76 36.31 0.36
10/28/2022 7:30:00 PM 11.39 52.502 0.37 7.75 36.39 0.37
10/28/2022 7:45:00 PM 11.36 52.448 0.369 7.75 36.53 0.36
10/28/2022 8:00:00 PM 11.31 52.358 0.37 7.73 36.34 0.36
10/28/2022 8:15:00 PM 11.27 52.286 0.371 7.74 36.84 0.36
10/28/2022 8:30:00 PM 11.26 52.268 0.372 7.74 36.57 0.36
10/28/2022 8:45:00 PM 11.23 52.214 0.372 7.72 36.3 0.36
10/28/2022 9:00:00 PM 11.19 52.142 0.37 7.72 36.36 0.36
10/28/2022 9:15:00 PM 11.15 52.07 0.37 7.72 36.65 0.36
10/28/2022 9:30:00 PM 11.12 52.016 0.369 7.74 36.76 0.36
10/28/2022 9:45:00 PM 11.09 51.962 0.37 7.73 36.61 0.37
10/28/2022 10:00:00 PM 11.05 51.89 0.37 7.74 36.99 0.38
10/28/2022 10:15:00 PM 11.02 51.836 0.371 7.73 36.7 0.37
10/28/2022 10:30:00 PM 10.98 51.764 0.37 7.71 36.38 0.37
10/28/2022 10:45:00 PM 10.92 51.656 0.369 7.71 36.48 0.37
10/28/2022 11:00:00 PM 10.88 51.584 0.369 7.71 36.28 0.38
10/28/2022 11:15:00 PM 10.84 51.512 0.369 7.72 35.58 0.37
10/28/2022 11:30:00 PM 10.79 51.422 0.368 7.72 35.71 0.37
10/28/2022 11:45:00 PM 10.77 51.386 0.367 7.71 35.87 0.37
10/29/2022 12:00:00 AM 10.69 51.242 0.367 7.72 34.86 0.39
10/29/2022 12:15:00 AM 10.65 51.17 0.367 7.72 35.1 0.37
10/29/2022 12:30:00 AM 10.63 51.134 0.366 7.71 35.35 0.37
10/29/2022 12:45:00 AM 10.58 51.044 0.366 7.7 35.2 0.37
10/29/2022 1:00:00 AM 10.53 50.954 0.366 7.71 35.88 0.38
10/29/2022 1:15:00 AM 10.46 50.828 0.37 7.71 35.56 0.38
10/29/2022 1:30:00 AM 10.42 50.756 0.376 7.71 35.32 0.38
10/29/2022 1:45:00 AM 10.36 50.648 0.363 7.69 35.55 0.37
10/29/2022 2:00:00 AM 10.3 50.54 0.337 7.67 35.79 0.38
10/29/2022 2:15:00 AM 10.26 50.468 0.371 7.68 36.04 0.4
10/29/2022 2:30:00 AM 10.21 50.378 0.369 7.69 35.65 0.38
10/29/2022 2:45:00 AM 10.15 50.27 0.365 7.69 35.26 0.38
10/29/2022 3:00:00 AM 10.1 50.18 0.365 7.7 35.3 0.38
10/29/2022 3:15:00 AM 10.05 50.09 0.367 7.71 35.15 0.38
10/29/2022 3:30:00 AM 10.01 50.018 0.367 7.7 35.07 0.38
10/29/2022 3:45:00 AM 9.94 49.892 0.365 7.68 34.86 0.38
10/29/2022 4:00:00 AM 9.88 49.784 0.364 7.69 34.42 0.38
10/29/2022 4:15:00 AM 9.8 49.64 0.371 7.65 34.84 0.38
10/29/2022 4:30:00 AM 9.76 49.568 0.369 7.69 34.74 0.38
10/29/2022 4:45:00 AM 9.71 49.478 0.368 7.67 34.52 0.39
10/29/2022 5:00:00 AM 9.66 49.388 0.37 7.7 34.87 0.41
10/29/2022 5:15:00 AM 9.62 49.316 0.37 7.69 34.52 0.39
10/29/2022 5:30:00 AM 9.56 49.208 0.369 7.68 34.28 0.39
10/29/2022 5:45:00 AM 9.52 49.136 0.369 7.69 34.18 0.4
10/29/2022 6:00:00 AM 9.44 48.992 0.37 7.69 34.25 0.39
10/29/2022 6:15:00 AM 9.38 48.884 0.37 7.71 34.43 0.46
10/29/2022 6:30:00 AM 9.33 48.794 0.37 7.69 34.47 0.39
10/29/2022 6:45:00 AM 9.28 48.704 0.37 7.68 34.14 0.39
10/29/2022 7:00:00 AM 9.22 48.596 0.369 7.7 35.64 0.4
10/29/2022 7:15:00 AM 9.18 48.524 0.371 7.7 35.66 0.4
10/29/2022 7:30:00 AM 9.14 48.452 0.372 7.68 35.68 0.4
10/29/2022 7:45:00 AM 9.09 48.362 0.371 7.7 35.46 0.4
10/29/2022 8:00:00 AM 9.03 48.254 0.372 7.69 35.44 0.4
10/29/2022 8:15:00 AM 8.98 48.164 0.371 7.69 35.76 0.41
10/29/2022 8:30:00 AM 8.94 48.092 0.371 7.68 35.54 0.41
10/29/2022 8:45:00 AM 8.91 48.038 0.373 7.72 35.3 0.57
10/29/2022 9:00:00 AM 8.9 48.02 0.373 7.69 35.2 0.48
10/29/2022 9:15:00 AM 8.89 48.002 0.373 7.68 35.28 0.42
10/29/2022 9:30:00 AM 8.88 47.984 0.372 7.72 35.29 0.42
10/29/2022 9:45:00 AM 8.89 48.002 0.373 7.72 34.91 0.49
10/29/2022 10:00:00 AM 8.92 48.056 0.373 7.73 35.24 0.46
10/29/2022 10:15:00 AM 8.96 48.128 0.373 7.72 35.08 0.45
10/29/2022 10:30:00 AM 9 48.2 0.372 7.74 35.15 0.41
10/29/2022 10:45:00 AM 9.05 48.29 0.371 7.73 35.09 0.41
10/29/2022 11:00:00 AM 9.11 48.398 0.372 7.75 34.81 0.44
10/29/2022 11:15:00 AM 9.2 48.56 0.373 7.74 34.79 0.46
10/29/2022 11:30:00 AM 9.29 48.722 0.373 7.76 34.64 0.41
10/29/2022 11:45:00 AM 9.39 48.902 0.372 7.77 38.55 0.44
10/29/2022 12:00:00 PM 9.5 49.1 0.372 7.79 38.04 0.48
10/29/2022 12:15:00 PM 9.6 49.28 0.37 7.77 38.32 0.44
10/29/2022 12:30:00 PM 9.7 49.46 0.37 7.77 38.41 0.42
10/29/2022 12:45:00 PM 9.81 49.658 0.37 7.78 38.07 0.54
10/29/2022 1:00:00 PM 9.92 49.856 0.37 7.78 38.2 0.44
10/29/2022 1:15:00 PM 10.07 50.126 0.37 7.79 71.7 0.44
10/29/2022 1:30:00 PM 10.19 50.342 0.369 7.8 73.21 0.42
10/29/2022 1:45:00 PM 10.32 50.576 0.369 7.79 73.02 0.41
10/29/2022 2:00:00 PM 10.42 50.756 0.369 7.81 71.76 0.41
10/29/2022 2:15:00 PM 10.51 50.918 0.369 7.82 72.28 0.42
10/29/2022 2:30:00 PM 10.6 51.08 0.369 7.81 66.34 0.43
10/29/2022 2:45:00 PM 10.73 51.314 0.362 7.8 816.02 0.52
10/29/2022 3:00:00 PM 10.77 51.386 0.365 7.76 340.8 0.44
10/29/2022 3:15:00 PM 10.83 51.494 0.367 7.75 340 0.46
10/29/2022 3:30:00 PM 10.86 51.548 0.368 7.75 342.67 0.42
10/29/2022 3:45:00 PM 10.88 51.584 0.37 7.76 345.55 0.4
10/29/2022 4:00:00 PM 10.89 51.602 0.371 7.76 346.33 0.46
10/29/2022 4:15:00 PM 10.9 51.62 0.371 7.75 349.85 0.41
10/29/2022 4:30:00 PM 10.91 51.638 0.372 7.77 352.52 0.46
10/29/2022 4:45:00 PM 10.9 51.62 0.373 7.77 349.97 0.44
10/29/2022 5:00:00 PM 10.89 51.602 0.374 7.77 352.69 0.46
10/29/2022 5:15:00 PM 10.88 51.584 0.374 7.76 351.59 0.46
10/29/2022 5:30:00 PM 10.86 51.548 0.374 7.82 381.15 0.44
10/29/2022 5:45:00 PM 10.84 51.512 0.375 7.82 380.52 0.38
10/29/2022 6:00:00 PM 10.82 51.476 0.374 7.81 382.95 0.46
10/29/2022 6:15:00 PM 10.75 51.35 0.349 7.8 128.14 0.45
10/29/2022 6:30:00 PM 10.71 51.278 0.334 7.81 192.87 0.51
10/29/2022 6:45:00 PM 10.64 51.152 0.344 7.78 606.36 0.45
10/29/2022 7:00:00 PM 10.63 51.134 0.355 7.78 53.83 0.43
10/29/2022 7:15:00 PM 10.52 50.936 0.333 7.76 373.89 0.42
10/29/2022 7:30:00 PM 10.46 50.828 0.337 7.76 11812.67 0.44
10/29/2022 7:45:00 PM 10.4 50.72 0.368 7.75 1377.55 0.38
10/29/2022 8:00:00 PM 10.35 50.63 0.321 7.75 521.14 0.47
10/29/2022 8:15:00 PM 10.31 50.558 0.345 7.76 16744.05 0.74
10/29/2022 8:30:00 PM 10.24 50.432 0.34 7.74 6977.98 0.4
10/29/2022 8:45:00 PM 10.25 50.45 0.332 7.75 11730.01 0.38
10/29/2022 9:00:00 PM 10.17 50.306 0.331 7.75 2497.63 0.38
10/29/2022 9:15:00 PM 10.12 50.216 0.333 7.74 2381.83 0.39
10/29/2022 9:30:00 PM 10.08 50.144 0.323 7.74 4516.91 0.38
10/29/2022 9:45:00 PM 10.04 50.072 0.315 7.74 17006.15 0.45
10/29/2022 10:00:00 PM 10.01 50.018 0.314 7.75 16993.16 0.62
10/29/2022 10:15:00 PM 9.96 49.928 0.31 7.74 10767.29 0.49
10/29/2022 10:30:00 PM 9.93 49.874 0.286 7.75 8167.96 0.53
10/29/2022 10:45:00 PM 9.91 49.838 0.279 7.74 16856.57 0.6
10/29/2022 11:00:00 PM 9.84 49.712 0.318 7.75 16444.73 0.88
10/29/2022 11:15:00 PM 9.8 49.64 0.364 7.73 12407.5 0.49
10/29/2022 11:30:00 PM 9.76 49.568 0.34 7.73 5760.55 0.86
10/29/2022 11:45:00 PM 9.72 49.496 0.338 7.73 11203.57 0.57
10/30/2022 12:00:00 AM 9.63 49.334 0.334 7.73 12904.84 0.61
10/30/2022 12:15:00 AM 9.64 49.352 0.336 7.72 1326.7 2.15
10/30/2022 12:30:00 AM 9.53 49.154 0.309 7.73 86.14 0.99
10/30/2022 12:45:00 AM 9.49 49.082 0.304 7.72 1713.7 0.68
10/30/2022 1:00:00 AM 9.4 48.92 0.308 7.73 702.05 0.48
10/30/2022 1:15:00 AM 9.38 48.884 0.305 7.74 441.21 0.64
10/30/2022 1:30:00 AM 9.32 48.776 0.305 7.74 371.94 0.62
10/30/2022 1:45:00 AM 9.24 48.632 0.302 7.74 157.86 0.63
10/30/2022 2:00:00 AM 9.2 48.56 0.307 7.74 113 0.5
10/30/2022 2:15:00 AM 9.17 48.506 0.315 7.72 42.03 0.56
10/30/2022 2:30:00 AM 9.09 48.362 0.327 7.74 240.63 0.52
10/30/2022 2:45:00 AM 9.11 48.398 0.32 7.72 223.73 0.7
10/30/2022 3:00:00 AM 9.06 48.308 0.319 7.73 191.38 0.42
10/30/2022 3:15:00 AM 8.99 48.182 0.315 7.73 169.22 0.44
10/30/2022 3:30:00 AM 8.93 48.074 0.312 7.72 145.65 0.4
10/30/2022 3:45:00 AM 8.85 47.93 0.313 7.71 110.34 0.4
10/30/2022 4:00:00 AM 8.8 47.84 0.315 7.67 106.04 0.41
10/30/2022 4:15:00 AM 8.73 47.714 0.343 7.69 97.87 0.52
10/30/2022 4:30:00 AM 8.68 47.624 0.361 7.72 95.97 0.47
10/30/2022 4:45:00 AM 8.63 47.534 0.364 7.72 95.53 0.43
10/30/2022 5:00:00 AM 8.56 47.408 0.36 7.72 99.28 0.48
10/30/2022 5:15:00 AM 8.52 47.336 0.355 7.7 96.28 0.44
10/30/2022 5:30:00 AM 8.39 47.102 0.308 7.72 153.66 0.5
10/30/2022 5:45:00 AM 8.37 47.066 0.301 7.71 523.93 1.14
10/30/2022 6:00:00 AM 8.36 47.048 0.263 7.69 301.76 0.59
10/30/2022 6:15:00 AM 8.35 47.03 0.263 7.69 204.84 1.87
10/30/2022 6:30:00 AM 8.32 46.976 0.267 7.7 160.39 1.66
10/30/2022 6:45:00 AM 8.32 46.976 0.254 7.65 99.53 0.84
10/30/2022 7:00:00 AM 8.25 46.85 0.416 7.71 635.94 2.32
10/30/2022 7:15:00 AM 8.27 46.886 0.395 7.71 492.63 0.67
10/30/2022 7:30:00 AM 8.29 46.922 0.344 7.68 208.16 1.18
10/30/2022 7:45:00 AM 8.28 46.904 0.344 7.72 189.64 0.76
10/30/2022 8:00:00 AM 8.28 46.904 0.345 7.72 206.77 0.47
10/30/2022 8:15:00 AM 8.29 46.922 0.347 7.72 213.56 0.71
10/30/2022 8:30:00 AM 8.29 46.922 0.345 7.72 208.35 0.69
10/30/2022 8:45:00 AM 8.31 46.958 0.348 7.73 171.97 0.5
10/30/2022 9:00:00 AM 8.33 46.994 0.368 7.73 192.6 0.53
10/30/2022 9:15:00 AM 8.32 46.976 0.362 7.73 118.63 0.73
10/30/2022 9:30:00 AM 8.37 47.066 0.354 7.74 306.09 1.41
10/30/2022 9:45:00 AM 8.4 47.12 0.374 7.75 182.65 0.76
10/30/2022 10:00:00 AM 8.46 47.228 0.378 7.71 166.96 0.49
10/30/2022 10:15:00 AM 8.51 47.318 0.38 7.71 162.08 0.48
10/30/2022 10:30:00 AM 8.58 47.444 0.381 7.68 156.67 0.52
10/30/2022 10:45:00 AM 8.65 47.57 0.382 7.69 150.65 0.59
10/30/2022 11:00:00 AM 8.73 47.714 0.383 7.76 145.1 0.72
10/30/2022 11:15:00 AM 8.82 47.876 0.384 7.77 145.01 0.91
10/30/2022 11:30:00 AM 8.94 48.092 0.385 7.77 142.57 0.85
10/30/2022 11:45:00 AM 9.05 48.29 0.385 7.81 145.1 0.92
10/30/2022 12:00:00 PM 9.16 48.488 0.386 7.79 145.15 0.68
10/30/2022 12:15:00 PM 9.25 48.65 0.386 7.82 145.59 0.6
10/30/2022 12:30:00 PM 9.36 48.848 0.388 7.79 146.63 0.58
10/30/2022 12:45:00 PM 9.44 48.992 0.388 7.82 145.78 1.04
10/30/2022 1:00:00 PM 9.51 49.118 0.389 7.8 143.28 0.86
10/30/2022 1:15:00 PM 9.58 49.244 0.39 7.84 142.4 0.42
10/30/2022 1:30:00 PM 9.67 49.406 0.39 7.86 141.77 0.46
10/30/2022 1:45:00 PM 9.74 49.532 0.391 7.84 136.94 0.5
10/30/2022 2:00:00 PM 9.86 49.748 0.392 7.86 137 0.45
10/30/2022 2:15:00 PM 9.96 49.928 0.392 7.88 137.34 0.39
10/30/2022 2:30:00 PM 10.05 50.09 0.392 7.83 137.18 0.39
10/30/2022 2:45:00 PM 10.13 50.234 0.394 7.88 137.35 0.41
10/30/2022 3:00:00 PM 10.19 50.342 0.396 7.88 136.88 0.41
10/30/2022 3:15:00 PM 10.26 50.468 0.397 7.88 137.42 0.38
10/30/2022 3:30:00 PM 10.3 50.54 0.397 7.89 137.19 0.52
10/30/2022 3:45:00 PM 10.34 50.612 0.396 7.9 136.84 0.45
10/30/2022 4:00:00 PM 10.39 50.702 0.396 7.9 137.13 0.49
10/30/2022 4:15:00 PM 10.44 50.792 0.398 7.88 136.31 0.42
10/30/2022 4:30:00 PM 10.48 50.864 0.399 7.89 137.14 0.63
10/30/2022 4:45:00 PM 10.48 50.864 0.398 7.86 138.46 0.43
10/30/2022 5:00:00 PM 10.51 50.918 0.399 7.83 138.79 0.65
10/30/2022 5:15:00 PM 10.53 50.954 0.399 7.87 138.84 0.51
10/30/2022 5:30:00 PM 10.55 50.99 0.399 7.82 140.48 0.38
10/30/2022 5:45:00 PM 10.54 50.972 0.4 7.85 140.53 0.44
10/30/2022 6:00:00 PM 10.52 50.936 0.401 7.85 139.06 0.64
10/30/2022 6:15:00 PM 10.49 50.882 0.401 7.84 140.16 0.42
10/30/2022 6:30:00 PM 10.46 50.828 0.401 7.82 140.52 0.38
10/30/2022 6:45:00 PM 10.44 50.792 0.401 7.79 143.32 0.4
10/30/2022 7:00:00 PM 10.41 50.738 0.401 7.81 143.95 0.47
10/30/2022 7:15:00 PM 10.39 50.702 0.401 7.8 143.95 0.39
10/30/2022 7:30:00 PM 10.35 50.63 0.403 7.81 147.21 0.6
10/30/2022 7:45:00 PM 10.33 50.594 0.402 7.79 146.73 0.4
10/30/2022 8:00:00 PM 10.32 50.576 0.402 7.77 150.13 0.41
10/30/2022 8:15:00 PM 10.31 50.558 0.402 7.79 156.25 0.38
10/30/2022 8:30:00 PM 10.3 50.54 0.402 7.79 162.64 0.4
10/30/2022 8:45:00 PM 10.29 50.522 0.402 7.78 161.92 0.43
10/30/2022 9:00:00 PM 10.28 50.504 0.4 7.79 162.65 0.39
10/30/2022 9:15:00 PM 10.28 50.504 0.399 7.78 165.1 0.49
10/30/2022 9:30:00 PM 10.28 50.504 0.398 7.78 167.94 0.4
10/30/2022 9:45:00 PM 10.29 50.522 0.397 7.76 171.24 0.4
10/30/2022 10:00:00 PM 10.28 50.504 0.397 7.78 171.59 0.5
10/30/2022 10:15:00 PM 10.26 50.468 0.397 7.77 174.65 0.46
10/30/2022 10:30:00 PM 10.23 50.414 0.398 7.78 174.49 0.54
10/30/2022 10:45:00 PM 10.22 50.396 0.398 7.77 176 0.56
10/30/2022 11:00:00 PM 10.19 50.342 0.398 7.77 179.48 0.41
10/30/2022 11:15:00 PM 10.16 50.288 0.398 7.77 181.3 0.39
10/30/2022 11:30:00 PM 10.09 50.162 0.399 7.77 181.55 0.39
10/30/2022 11:45:00 PM 10.05 50.09 0.399 7.77 182.6 0.38
10/31/2022 12:00:00 AM 10 50 0.399 7.75 184.41 0.38
10/31/2022 12:15:00 AM 9.99 49.982 0.399 7.75 187.28 0.4
10/31/2022 12:30:00 AM 9.96 49.928 0.4 7.75 191.53 0.63
10/31/2022 12:45:00 AM 9.92 49.856 0.4 7.75 191.16 0.54
10/31/2022 1:00:00 AM 9.88 49.784 0.399 7.75 193.4 0.45
10/31/2022 1:15:00 AM 9.84 49.712 0.4 7.76 197.12 0.62
10/31/2022 1:30:00 AM 9.79 49.622 0.401 7.75 196.59 1.16
10/31/2022 1:45:00 AM 9.76 49.568 0.4 7.73 197.03 0.45
10/31/2022 2:00:00 AM 9.71 49.478 0.401 7.74 197.71 0.42
10/31/2022 2:15:00 AM 9.68 49.424 0.401 7.74 197.01 0.62
10/31/2022 2:30:00 AM 9.7 49.46 0.401 7.73 198.1 0.84
10/31/2022 2:45:00 AM 9.68 49.424 0.402 7.73 198.86 0.8
10/31/2022 3:00:00 AM 9.66 49.388 0.402 7.73 196.85 0.67
10/31/2022 3:15:00 AM 9.62 49.316 0.402 7.73 194.99 0.51
10/31/2022 3:30:00 AM 9.6 49.28 0.402 7.73 194.36 0.84
10/31/2022 3:45:00 AM 9.59 49.262 0.402 7.74 195.35 0.96
10/31/2022 4:00:00 AM 9.58 49.244 0.403 7.73 195.68 0.4
10/31/2022 4:15:00 AM 9.57 49.226 0.403 7.73 195.47 0.39
10/31/2022 4:30:00 AM 9.55 49.19 0.403 7.74 196.13 0.46
10/31/2022 4:45:00 AM 9.55 49.19 0.403 7.74 196.29 0.41
10/31/2022 5:00:00 AM 9.57 49.226 0.403 7.73 196.46 0.75
10/31/2022 5:15:00 AM 9.56 49.208 0.404 7.73 197.95 0.46
10/31/2022 5:30:00 AM 9.56 49.208 0.404 7.73 197.84 0.61
10/31/2022 5:45:00 AM 9.55 49.19 0.404 7.74 198.28 0.49
10/31/2022 6:00:00 AM 9.56 49.208 0.405 7.73 199.83 0.63
10/31/2022 6:15:00 AM 9.54 49.172 0.405 7.73 199.59 0.48
10/31/2022 6:30:00 AM 9.51 49.118 0.406 7.73 199.08 0.59
10/31/2022 6:45:00 AM 9.49 49.082 0.406 7.73 199.59 0.51
10/31/2022 7:00:00 AM 9.44 48.992 0.406 7.73 198.65 0.45
10/31/2022 7:15:00 AM 9.4 48.92 0.406 7.73 199.58 0.47
10/31/2022 7:30:00 AM 9.4 48.92 0.407 7.73 199.73 0.41
10/31/2022 7:45:00 AM 9.39 48.902 0.408 7.72 200.45 0.42
10/31/2022 8:00:00 AM 9.38 48.884 0.409 7.73 200.3 0.54
10/31/2022 8:15:00 AM 9.38 48.884 0.41 7.74 202.01 1.46
10/31/2022 8:30:00 AM 9.39 48.902 0.412 7.74 202.04 0.76
10/31/2022 8:45:00 AM 9.41 48.938 0.412 7.74 201.61 0.52
10/31/2022 9:00:00 AM 9.41 48.938 0.414 7.73 202.13 0.6
10/31/2022 9:15:00 AM 9.46 49.028 0.415 7.74 202.33 0.7
10/31/2022 9:30:00 AM 9.51 49.118 0.415 7.76 202.81 0.77
10/31/2022 9:45:00 AM 9.56 49.208 0.413 7.76 204.05 0.47
10/31/2022 10:00:00 AM 9.62 49.316 0.412 7.77 205.05 0.49
10/31/2022 10:15:00 AM 9.68 49.424 0.411 7.78 204.35 0.81
10/31/2022 10:30:00 AM 9.76 49.568 0.41 7.78 206.37 0.45
10/31/2022 10:45:00 AM 9.83 49.694 0.409 7.79 205.27 0.39
10/31/2022 11:00:00 AM 9.93 49.874 0.408 7.81 205.63 1.26
10/31/2022 11:15:00 AM 10.03 50.054 0.408 7.81 206.34 0.43
10/31/2022 11:30:00 AM 10.15 50.27 0.408 7.83 208.56 0.45
10/31/2022 11:45:00 AM 10.23 50.414 0.409 7.83 209.25 0.39
10/31/2022 12:00:00 PM 10.32 50.576 0.409 7.83 209.03 0.4
10/31/2022 12:15:00 PM 10.45 50.81 0.409 7.85 207.96 1.54
10/31/2022 12:30:00 PM 10.55 50.99 0.41 7.85 207.43 1.22
10/31/2022 12:45:00 PM 10.63 51.134 0.411 7.86 207.15 1.89
10/31/2022 1:00:00 PM 10.7 51.26 0.413 7.86 206.64 2.59
10/31/2022 1:15:00 PM 10.75 51.35 0.413 7.87 206.1 2.21
10/31/2022 1:30:00 PM 10.8 51.44 0.412 7.87 207.75 2.02
10/31/2022 1:45:00 PM 10.87 51.566 0.412 7.88 206.87 2.4
10/31/2022 2:00:00 PM 10.93 51.674 0.41 7.88 205.33 2.41
10/31/2022 2:15:00 PM 10.98 51.764 0.41 7.88 209.42 1.21
10/31/2022 2:30:00 PM 11.06 51.908 0.411 7.9 210.68 0.5
10/31/2022 2:45:00 PM 11.12 52.016 0.411 7.89 210.54 0.59
10/31/2022 3:00:00 PM 11.2 52.16 0.412 7.9 208.12 0.92
10/31/2022 3:15:00 PM 11.23 52.214 0.414 7.9 206.19 0.95
10/31/2022 3:30:00 PM 11.28 52.304 0.414 7.9 204.49 1.67
10/31/2022 3:45:00 PM 11.31 52.358 0.416 7.89 206.79 0.66
10/31/2022 4:00:00 PM 11.35 52.43 0.417 7.9 198.42 0.39
10/31/2022 4:15:00 PM 11.38 52.484 0.417 7.9 203.68 0.4
10/31/2022 4:30:00 PM 11.39 52.502 0.419 7.89 203.67 0.55
10/31/2022 4:45:00 PM 11.41 52.538 0.42 7.89 202.76 0.82
10/31/2022 5:00:00 PM 11.42 52.556 0.42 7.88 201.22 0.88
10/31/2022 5:15:00 PM 11.44 52.592 0.42 7.87 196.43 0.81
10/31/2022 5:30:00 PM 11.46 52.628 0.421 7.86 195.41 0.61
10/31/2022 5:45:00 PM 11.47 52.646 0.421 7.85 187.2 0.59
10/31/2022 6:00:00 PM 11.46 52.628 0.421 7.84 185.36 0.96
10/31/2022 6:15:00 PM 11.47 52.646 0.42 7.83 189.69 1.51
10/31/2022 6:30:00 PM 11.45 52.61 0.45 7.82 328.85 1.99
10/31/2022 6:45:00 PM 11.45 52.61 0.319 7.8 63.54 2.09
10/31/2022 7:00:00 PM 11.46 52.628 0.284 7.8 166.02 2.92
10/31/2022 7:15:00 PM 11.48 52.664 0.279 7.79 78.12 1.86
10/31/2022 7:30:00 PM 11.5 52.7 0.276 7.79 70.95 1.08
10/31/2022 7:45:00 PM 11.52 52.736 0.309 7.79 53.32 0.51
10/31/2022 8:00:00 PM 11.5 52.7 0.329 7.76 111.44 0.83
10/31/2022 8:15:00 PM 11.52 52.736 0.271 7.76 101.27 2.89
10/31/2022 8:30:00 PM 11.53 52.754 0.262 7.72 217.64 2.85
10/31/2022 8:45:00 PM 11.53 52.754 0.256 7.74 413.53 2.19
10/31/2022 9:00:00 PM 11.55 52.79 0.268 7.71 17820.86 1.16
10/31/2022 9:15:00 PM 11.59 52.862 0.264 7.75 48.55 0.53
10/31/2022 9:30:00 PM 11.6 52.88 0.28 7.73 260.81 1.36
10/31/2022 9:45:00 PM 11.62 52.916 0.277 7.72 23.18 1.13
10/31/2022 10:00:00 PM 11.64 52.952 0.278 7.74 21.18 0.44
10/31/2022 10:15:00 PM 11.66 52.988 0.273 7.74 21.34 0.41
10/31/2022 10:30:00 PM 11.67 53.006 0.268 7.71 20.93 0.36
10/31/2022 10:45:00 PM 11.67 53.006 0.262 7.73 20.29 0.37
10/31/2022 11:00:00 PM 11.69 53.042 0.254 7.74 20.58 0.36
10/31/2022 11:15:00 PM 11.7 53.06 0.272 7.74 20.09 0.36
10/31/2022 11:30:00 PM 11.69 53.042 0.28 7.72 19.34 0.36
10/31/2022 11:45:00 PM 11.69 53.042 0.285 7.73 19.67 0.45
11/1/2022 12:00:00 AM 11.72 53.096 0.284 7.73 19.64 0.38
11/1/2022 12:15:00 AM 11.74 53.132 0.284 7.72 20.55 0.38
11/1/2022 12:30:00 AM 11.75 53.15 0.282 7.73 21.6 0.47
11/1/2022 12:45:00 AM 11.78 53.204 0.281 7.74 21.03 0.38
11/1/2022 1:00:00 AM 11.8 53.24 0.277 7.73 20.45 0.49
11/1/2022 1:15:00 AM 11.82 53.276 0.277 7.72 20.27 0.42
11/1/2022 1:30:00 AM 11.83 53.294 0.276 7.72 20.4 0.43
11/1/2022 1:45:00 AM 11.8 53.24 0.274 7.72 20.57 0.42
11/1/2022 2:00:00 AM 11.81 53.258 0.273 7.71 20.9 0.37
11/1/2022 2:15:00 AM 11.82 53.276 0.271 7.72 20.62 0.4
11/1/2022 2:30:00 AM 11.83 53.294 0.269 7.7 20.76 0.42
11/1/2022 2:45:00 AM 11.85 53.33 0.267 7.7 20.78 0.38
11/1/2022 3:00:00 AM 11.85 53.33 0.27 7.69 21.92 0.38
11/1/2022 3:15:00 AM 11.85 53.33 0.271 7.69 21.2 0.39
11/1/2022 3:30:00 AM 11.85 53.33 0.27 7.69 21.76 0.38
11/1/2022 3:45:00 AM 11.83 53.294 0.27 7.67 21.4 0.37
11/1/2022 4:00:00 AM 11.84 53.312 0.269 7.68 21.51 0.37
11/1/2022 4:15:00 AM 11.84 53.312 0.268 7.68 20.92 0.37
11/1/2022 4:30:00 AM 11.82 53.276 0.273 7.66 73.09 0.55
11/1/2022 4:45:00 AM 11.82 53.276 0.274 7.66 89.12 0.59
11/1/2022 5:00:00 AM 11.84 53.312 0.279 7.66 22.47 0.94
11/1/2022 5:15:00 AM 11.81 53.258 0.266 7.65 14.1 0.5
11/1/2022 5:30:00 AM 11.82 53.276 0.269 7.66 15.01 0.54
11/1/2022 5:45:00 AM 11.83 53.294 0.264 7.65 43.25 0.55
11/1/2022 6:00:00 AM 11.82 53.276 0.265 7.65 80.67 0.72
11/1/2022 6:15:00 AM 11.83 53.294 0.262 7.64 17.66 0.7
11/1/2022 6:30:00 AM 11.85 53.33 0.261 7.65 13.59 0.61
11/1/2022 6:45:00 AM 11.86 53.348 0.261 7.65 14.06 0.83
11/1/2022 7:00:00 AM 11.87 53.366 0.26 7.65 13.92 0.85
11/1/2022 7:15:00 AM 11.87 53.366 0.259 7.65 13.51 0.62
11/1/2022 7:30:00 AM 11.88 53.384 0.256 7.65 13.71 0.64
11/1/2022 7:45:00 AM 11.87 53.366 0.256 7.66 14.41 0.41
11/1/2022 8:00:00 AM 11.87 53.366 0.272 7.67 14.55 0.37
11/1/2022 8:15:00 AM 11.87 53.366 0.26 7.66 49.79 0.51
11/1/2022 8:30:00 AM 11.88 53.384 0.28 7.65 16.92 0.56
11/1/2022 8:45:00 AM 11.88 53.384 0.298 7.67 15.49 0.62
11/1/2022 9:00:00 AM -99999.99 -179968 -99999.99 -99999.99 -99999.99 -99999.99
11/1/2022 9:15:00 AM -99999.99 -179968 -99999.99 -99999.99 -99999.99 -99999.99
11/1/2022 9:30:00 AM -99999.99 -179968 -99999.99 -99999.99 -99999.99 -99999.99
11/1/2022 9:45:00 AM -99999.99 -179968 -99999.99 -99999.99 -99999.99 -99999.99
11/1/2022 10:00:00 AM -99999.99 -179968 -99999.99 -99999.99 -99999.99 -99999.99
11/1/2022 10:15:00 AM -99999.99 -179968 -99999.99 -99999.99 -99999.99 -99999.99
11/1/2022 10:30:00 AM 12.13 53.834 0.41 7.58 28.8 9.25
11/1/2022 10:45:00 AM 12.16 53.888 0.409 7.63 11.44 9.26
11/1/2022 11:00:00 AM 12.2 53.96 0.406 7.67 7.44 9.34
11/1/2022 11:15:00 AM 12.25 54.05 0.405 7.7 8.52 9.37
11/1/2022 11:30:00 AM 12.36 54.248 0.403 7.71 9.46 9.41
11/1/2022 11:45:00 AM 12.49 54.482 0.402 7.73 9.91 9.51
11/1/2022 12:00:00 PM 12.61 54.698 0.4 7.74 7.22 9.5
11/1/2022 12:15:00 PM 12.74 54.932 0.399 7.75 7.12 9.56
11/1/2022 12:30:00 PM 12.86 55.148 0.398 7.76 9.82 9.62
11/1/2022 12:45:00 PM 13 55.4 0.398 7.77 7.26 9.67
11/1/2022 1:00:00 PM 13.11 55.598 0.398 7.79 8.56 9.68
11/1/2022 1:15:00 PM 13.19 55.742 0.397 7.79 8.64 9.7
11/1/2022 1:30:00 PM 13.22 55.796 0.398 7.82 8.98 9.72
11/1/2022 1:45:00 PM 13.28 55.904 0.396 7.8 9.77 9.65
11/1/2022 2:00:00 PM 13.37 56.066 0.395 7.8 10.9 9.72
11/1/2022 2:15:00 PM 13.39 56.102 0.394 7.79 12.53 9.55
11/1/2022 2:30:00 PM 13.5 56.3 0.392 7.82 15.17 9.55
11/1/2022 2:45:00 PM 13.61 56.498 0.391 7.8 16.86 9.47
11/1/2022 3:00:00 PM 13.72 56.696 0.389 7.8 15.74 9.57
11/1/2022 3:15:00 PM 13.82 56.876 0.388 7.8 21.68 9.47
11/1/2022 3:30:00 PM 13.87 56.966 0.387 7.79 25.45 9.43
11/1/2022 3:45:00 PM 13.9 57.02 0.385 7.79 20.49 9.4
11/1/2022 4:00:00 PM 13.93 57.074 0.384 7.79 17.04 9.37
11/1/2022 4:15:00 PM 13.93 57.074 0.383 7.79 15.43 9.3
11/1/2022 4:30:00 PM 13.92 57.056 0.383 7.79 16.1 9.27
11/1/2022 4:45:00 PM 13.96 57.128 0.381 7.78 15.93 9.24
11/1/2022 5:00:00 PM 13.98 57.164 0.381 7.78 15.03 9.22
11/1/2022 5:15:00 PM 14 57.2 0.381 7.77 14.22 9.14
11/1/2022 5:30:00 PM 14.02 57.236 0.38 7.76 14.48 9.03
11/1/2022 5:45:00 PM 14.02 57.236 0.38 7.74 31.73 8.88
11/1/2022 6:00:00 PM 14.01 57.218 0.379 7.75 21.69 8.92
11/1/2022 6:15:00 PM 13.97 57.146 0.381 7.73 16.24 8.86
11/1/2022 6:30:00 PM 13.97 57.146 0.379 7.73 15.11 8.77
11/1/2022 6:45:00 PM 13.94 57.092 0.378 7.72 14.73 8.74
11/1/2022 7:00:00 PM 13.92 57.056 0.378 7.72 14.98 8.72
11/1/2022 7:15:00 PM 13.91 57.038 0.378 7.71 15.58 8.64
11/1/2022 7:30:00 PM 13.89 57.002 0.378 7.7 14.78 8.67
11/1/2022 7:45:00 PM 13.86 56.948 0.378 7.7 14.54 8.6
11/1/2022 8:00:00 PM 13.83 56.894 0.377 7.69 14.78 8.61
11/1/2022 8:15:00 PM 13.82 56.876 0.377 7.67 14.28 8.49
11/1/2022 8:30:00 PM 13.8 56.84 0.378 7.69 13.39 8.5
11/1/2022 8:45:00 PM 13.76 56.768 0.378 7.68 12.77 8.44
11/1/2022 9:00:00 PM 13.73 56.714 0.378 7.67 12.48 8.29
11/1/2022 9:15:00 PM 13.69 56.642 0.378 7.66 12.51 8.26
11/1/2022 9:30:00 PM 13.66 56.588 0.378 7.64 12.25 8.12
11/1/2022 9:45:00 PM 13.63 56.534 0.378 7.64 11.72 7.91
11/1/2022 10:00:00 PM 13.58 56.444 0.378 7.64 11.51 8.06
11/1/2022 10:15:00 PM 13.54 56.372 0.379 7.63 11.56 8.03
11/1/2022 10:30:00 PM 13.5 56.3 0.378 7.64 11.5 8.14
11/1/2022 10:45:00 PM 13.45 56.21 0.379 7.63 11.45 8.29
11/1/2022 11:00:00 PM 13.4 56.12 0.38 7.62 263.57 8.08
11/1/2022 11:15:00 PM 13.34 56.012 0.379 7.62 10.94 8.06
11/1/2022 11:30:00 PM 13.3 55.94 0.379 7.62 11.01 8.03
11/1/2022 11:45:00 PM 13.27 55.886 0.379 7.62 11.39 8.09
11/2/2022 12:00:00 AM 13.22 55.796 0.379 7.61 11.41 7.89
11/2/2022 12:15:00 AM 13.19 55.742 0.38 7.62 11.07 8.04
11/2/2022 12:30:00 AM 13.14 55.652 0.38 7.62 11.13 7.97
11/2/2022 12:45:00 AM 13.1 55.58 0.381 7.6 10.98 7.99
11/2/2022 1:00:00 AM 13.06 55.508 0.381 7.6 10.69 7.96
11/2/2022 1:15:00 AM 13.01 55.418 0.382 7.6 11.39 7.95
11/2/2022 1:30:00 AM 12.97 55.346 0.381 7.6 11.21 8.05
11/2/2022 1:45:00 AM 12.94 55.292 0.381 7.6 10.7 7.97
11/2/2022 2:00:00 AM 12.89 55.202 0.382 7.59 10.83 7.9
11/2/2022 2:15:00 AM 12.86 55.148 0.383 7.59 10.98 7.91
11/2/2022 2:30:00 AM 12.8 55.04 0.383 7.59 10.77 8.05
11/2/2022 2:45:00 AM 12.75 54.95 0.383 7.57 10.91 7.87
11/2/2022 3:00:00 AM 12.73 54.914 0.384 7.58 10.83 7.95
11/2/2022 3:15:00 AM 12.71 54.878 0.385 7.61 10.26 7.92
11/2/2022 3:30:00 AM 12.66 54.788 0.386 7.6 10.32 7.98
11/2/2022 3:45:00 AM 12.63 54.734 0.386 7.59 10.98 8.05
11/2/2022 4:00:00 AM 12.59 54.662 0.387 7.58 10.6 8.08
11/2/2022 4:15:00 AM 12.54 54.572 0.388 7.58 10.32 7.95
11/2/2022 4:30:00 AM 12.54 54.572 0.389 7.58 10.2 7.85
11/2/2022 4:45:00 AM 12.48 54.464 0.389 7.59 9.84 7.79
11/2/2022 5:00:00 AM 12.46 54.428 0.39 7.6 9.93 7.94
11/2/2022 5:15:00 AM 12.41 54.338 0.391 7.58 10.11 8.03
11/2/2022 5:30:00 AM 12.35 54.23 0.392 7.59 9.72 8.03
11/2/2022 5:45:00 AM 12.31 54.158 0.393 7.6 9.95 7.95
11/2/2022 6:00:00 AM 12.27 54.086 0.393 7.6 9.82 8.02
11/2/2022 6:15:00 AM 12.22 53.996 0.394 7.59 10.15 8.1
11/2/2022 6:30:00 AM 12.22 53.996 0.395 7.59 9.9 8.15
11/2/2022 6:45:00 AM 12.14 53.852 0.395 7.61 9.96 8.19
11/2/2022 7:00:00 AM 12.09 53.762 0.396 7.59 9.76 8.31
11/2/2022 7:15:00 AM 12.03 53.654 0.397 7.61 9.62 8.33
11/2/2022 7:30:00 AM 11.99 53.582 0.397 7.62 9.25 8.29
11/2/2022 7:45:00 AM 11.95 53.51 0.398 7.62 9.26 8.37
11/2/2022 8:00:00 AM 11.92 53.456 0.399 7.62 9.19 8.35
11/2/2022 8:15:00 AM 11.86 53.348 0.399 7.63 10 8.37
11/2/2022 8:30:00 AM 11.82 53.276 0.4 7.62 364.69 8.43
11/2/2022 8:45:00 AM 11.83 53.294 0.4 7.62 389.18 8.45
11/2/2022 9:00:00 AM 11.81 53.258 0.401 7.63 371.38 8.32
11/2/2022 9:15:00 AM 11.8 53.24 0.401 7.63 383.66 8.39
11/2/2022 9:30:00 AM 11.81 53.258 0.402 7.63 385.35 8.28
11/2/2022 9:45:00 AM 11.85 53.33 0.402 7.65 374.32 8.59
11/2/2022 10:00:00 AM 11.88 53.384 0.402 7.6 365.63 8.59
11/2/2022 10:15:00 AM 11.99 53.582 0.403 7.62 366.33 8.3
11/2/2022 10:30:00 AM 12.01 53.618 0.403 7.63 367.7 8.67
11/2/2022 10:45:00 AM 12.1 53.78 0.403 7.64 366.27 8.65
11/2/2022 11:00:00 AM 12.21 53.978 0.404 7.66 365.56 8.73
11/2/2022 11:15:00 AM 12.32 54.176 0.404 7.65 365.26 8.82
11/2/2022 11:30:00 AM 12.46 54.428 0.405 7.68 71.91 8.9
11/2/2022 11:45:00 AM 12.55 54.59 0.406 7.68 9.05 8.88
11/2/2022 12:00:00 PM 12.67 54.806 0.405 7.71 10.04 9.05
11/2/2022 12:15:00 PM 12.75 54.95 0.406 7.7 8.06 9.06
11/2/2022 12:30:00 PM 12.84 55.112 0.406 7.7 325.49 9.11
11/2/2022 12:45:00 PM 12.96 55.328 0.407 7.71 427.4 9.38
11/2/2022 1:00:00 PM 13.07 55.526 0.407 7.71 472.82 9.17
11/2/2022 1:15:00 PM 13.19 55.742 0.408 7.7 545.47 8.94
11/2/2022 1:30:00 PM 13.28 55.904 0.408 7.71 289.22 8.21
11/2/2022 1:45:00 PM 13.39 56.102 0.409 7.71 422.05 8.85
11/2/2022 2:00:00 PM 13.51 56.318 0.409 7.72 533.21 8.94
11/2/2022 2:15:00 PM 13.57 56.426 0.41 7.73 678.33 9.12
11/2/2022 2:30:00 PM 13.62 56.516 0.41 7.74 580.24 9.02
11/2/2022 2:45:00 PM 13.65 56.57 0.411 7.75 589.82 9.26
11/2/2022 3:00:00 PM 13.69 56.642 0.411 7.73 587.64 9
11/2/2022 3:15:00 PM 13.66 56.588 0.412 7.74 600.06 9.02
11/2/2022 3:30:00 PM 13.64 56.552 0.412 7.74 604.98 8.91
11/2/2022 3:45:00 PM 13.62 56.516 0.413 7.74 605 8.97
11/2/2022 4:00:00 PM 13.59 56.462 0.413 7.73 614.16 8.9
11/2/2022 4:15:00 PM 13.6 56.48 0.413 7.74 627.53 9.36
11/2/2022 4:30:00 PM 13.58 56.444 0.413 7.76 631.09 9.36
11/2/2022 4:45:00 PM 13.57 56.426 0.414 7.73 646.87 9.13
11/2/2022 5:00:00 PM 13.54 56.372 0.414 7.74 658 9.1
11/2/2022 5:15:00 PM 13.48 56.264 0.414 7.75 664.66 9.17
11/2/2022 5:30:00 PM 13.49 56.282 0.415 7.75 663.64 9.14
11/2/2022 5:45:00 PM 13.44 56.192 0.415 7.75 678.4 9.18
11/2/2022 6:00:00 PM 13.42 56.156 0.416 7.73 397.32 8.97
11/2/2022 6:15:00 PM 13.37 56.066 0.416 7.71 401.62 8.77
11/2/2022 6:30:00 PM 13.33 55.994 0.417 7.72 422.52 8.77
11/2/2022 6:45:00 PM 13.25 55.85 0.417 7.72 401.57 8.73
11/2/2022 7:00:00 PM 13.24 55.832 0.418 7.7 581.35 8.66
11/2/2022 7:15:00 PM 13.16 55.688 0.418 7.71 391.94 8.54
11/2/2022 7:30:00 PM 13.15 55.67 0.419 7.71 369.41 8.55
11/2/2022 7:45:00 PM 13.12 55.616 0.419 7.7 357.95 8.49
11/2/2022 8:00:00 PM 13.07 55.526 0.42 7.68 481 8.45
11/2/2022 8:15:00 PM 13.05 55.49 0.42 7.69 398.9 8.44
11/2/2022 8:30:00 PM 13.01 55.418 0.421 7.69 590.06 8.48
11/2/2022 8:45:00 PM 13 55.4 0.421 7.69 648.88 8.36
11/2/2022 9:00:00 PM 12.96 55.328 0.421 7.68 600.66 8.47
11/2/2022 9:15:00 PM 12.93 55.274 0.423 7.66 693.78 8.19
11/2/2022 9:30:00 PM 12.88 55.184 0.423 7.68 348.4 8.28
11/2/2022 9:45:00 PM 12.85 55.13 0.423 7.68 361.62 8.17
11/2/2022 10:00:00 PM 12.81 55.058 0.425 7.68 391.98 8.41
11/2/2022 10:15:00 PM 12.74 54.932 0.424 7.68 384.34 8.4
11/2/2022 10:30:00 PM 12.7 54.86 0.424 7.67 376.81 8.47
11/2/2022 10:45:00 PM 12.65 54.77 0.425 7.68 366.95 8.38
11/2/2022 11:00:00 PM 12.63 54.734 0.425 7.68 370.51 8.24
11/2/2022 11:15:00 PM 12.54 54.572 0.426 7.68 376.33 8.43
11/2/2022 11:30:00 PM 12.48 54.464 0.426 7.67 371.22 8.38
11/2/2022 11:45:00 PM 12.4 54.32 0.426 7.67 467.94 7.97
11/3/2022 12:00:00 AM 12.37 54.266 0.427 7.66 394.05 8.41
11/3/2022 12:15:00 AM 12.32 54.176 0.427 7.66 413.27 8.29
11/3/2022 12:30:00 AM 12.23 54.014 0.427 7.66 165.18 8.44
11/3/2022 12:45:00 AM 12.21 53.978 0.427 7.61 636.42 8.33
11/3/2022 1:00:00 AM 12.16 53.888 0.428 7.66 708.76 8.34
11/3/2022 1:15:00 AM 12.06 53.708 0.429 7.65 715.8 8.46
11/3/2022 1:30:00 AM 12.03 53.654 0.429 7.66 709.39 8.3
11/3/2022 1:45:00 AM 11.97 53.546 0.429 7.65 713.06 8.55
11/3/2022 2:00:00 AM 11.95 53.51 0.429 7.66 749.99 8.56
11/3/2022 2:15:00 AM 11.9 53.42 0.43 7.66 755.2 8.44
11/3/2022 2:30:00 AM 11.84 53.312 0.43 7.66 739.93 8.48
11/3/2022 2:45:00 AM 11.85 53.33 0.43 7.65 747.63 8.52
11/3/2022 3:00:00 AM 11.74 53.132 0.431 7.66 741.42 8.64
11/3/2022 3:15:00 AM 11.7 53.06 0.431 7.67 727.3 8.5
11/3/2022 3:30:00 AM 11.66 52.988 0.432 7.66 736.69 8.51
11/3/2022 3:45:00 AM 11.6 52.88 0.432 7.67 828.25 8.63
11/3/2022 4:00:00 AM 11.53 52.754 0.432 7.65 823.36 8.32
11/3/2022 4:15:00 AM 11.51 52.718 0.433 7.65 813.89 8.55
11/3/2022 4:30:00 AM 11.45 52.61 0.433 7.65 813.31 8.44
11/3/2022 4:45:00 AM 11.4 52.52 0.433 7.67 817.96 8.54
11/3/2022 5:00:00 AM 11.31 52.358 0.434 7.65 813.71 8.51
11/3/2022 5:15:00 AM 11.28 52.304 0.434 7.66 815.36 8.44
11/3/2022 5:30:00 AM 11.22 52.196 0.434 7.65 817.37 8.51
11/3/2022 5:45:00 AM 11.17 52.106 0.434 7.67 817.38 8.57
11/3/2022 6:00:00 AM 11.12 52.016 0.435 7.64 814.64 8.59
11/3/2022 6:15:00 AM 11.11 51.998 0.435 7.67 817.52 8.63
11/3/2022 6:30:00 AM 11.05 51.89 0.436 7.66 870.28 8.6
11/3/2022 6:45:00 AM 11 51.8 0.435 7.66 891.25 8.66
11/3/2022 7:00:00 AM 10.91 51.638 0.435 7.66 870.97 8.71
11/3/2022 7:15:00 AM 10.83 51.494 0.436 7.66 868.95 8.72
11/3/2022 7:30:00 AM 10.83 51.494 0.436 7.65 865.06 8.71
11/3/2022 7:45:00 AM 10.78 51.404 0.436 7.65 866.05 8.68
11/3/2022 8:00:00 AM 10.72 51.296 0.437 7.64 865.57 8.7
11/3/2022 8:15:00 AM 10.68 51.224 0.436 7.67 864.69 8.71
11/3/2022 8:30:00 AM 10.65 51.17 0.437 7.67 864.35 8.86
11/3/2022 8:45:00 AM 10.64 51.152 0.437 7.66 864.09 8.82
11/3/2022 9:00:00 AM 10.6 51.08 0.437 7.67 861.38 8.91
11/3/2022 9:15:00 AM 10.61 51.098 0.439 7.63 859.13 8.97
11/3/2022 9:30:00 AM 10.64 51.152 0.438 7.66 859.88 8.96
11/3/2022 9:45:00 AM 10.75 51.35 0.438 7.65 859.45 9.06
11/3/2022 10:00:00 AM 10.72 51.296 0.438 7.67 861.21 8.99
11/3/2022 10:15:00 AM 10.81 51.458 0.438 7.68 859.28 9
11/3/2022 10:30:00 AM 10.83 51.494 0.438 7.66 853.51 9.1
11/3/2022 10:45:00 AM 10.93 51.674 0.438 7.7 854.2 9.34
11/3/2022 11:00:00 AM 11.03 51.854 0.437 7.71 851.41 9.34
11/3/2022 11:15:00 AM 11.21 52.178 0.437 7.72 849.4 9.43
11/3/2022 11:30:00 AM 11.35 52.43 0.437 7.73 846.69 9.52
11/3/2022 11:45:00 AM 11.52 52.736 0.437 7.75 841.47 9.75
11/3/2022 12:00:00 PM 11.65 52.97 0.437 7.76 838.84 9.7
11/3/2022 12:15:00 PM 11.76 53.168 0.438 7.76 835.62 9.65
11/3/2022 12:30:00 PM 11.92 53.456 0.438 7.77 833.23 9.85
11/3/2022 12:45:00 PM 12.03 53.654 0.438 7.8 829.6 10.11
11/3/2022 1:00:00 PM 12.19 53.942 0.439 7.8 832.33 10.27
11/3/2022 1:15:00 PM 12.33 54.194 0.439 7.81 831.19 10.36
11/3/2022 1:30:00 PM 12.44 54.392 0.439 7.82 830.45 10.35
11/3/2022 1:45:00 PM 12.58 54.644 0.439 7.82 828.22 10.31
11/3/2022 2:00:00 PM 12.69 54.842 0.439 7.84 827.31 10.45
11/3/2022 2:15:00 PM 12.75 54.95 0.44 7.84 825.05 10.34
11/3/2022 2:30:00 PM 12.82 55.076 0.44 7.83 822.5 10.42
11/3/2022 2:45:00 PM 12.86 55.148 0.44 7.84 823.15 10.45
11/3/2022 3:00:00 PM 12.91 55.238 0.441 7.85 822.41 10.36
11/3/2022 3:15:00 PM 12.89 55.202 0.441 7.83 818.72 10.27
11/3/2022 3:30:00 PM 12.87 55.166 0.441 7.84 809.29 10.32
11/3/2022 3:45:00 PM 12.89 55.202 0.441 7.85 811.41 10.45
11/3/2022 4:00:00 PM 12.87 55.166 0.442 7.83 814.53 10.34
11/3/2022 4:15:00 PM 12.85 55.13 0.442 7.84 809.72 10.25
11/3/2022 4:30:00 PM 12.81 55.058 0.442 7.84 809.97 9.99
11/3/2022 4:45:00 PM 12.76 54.968 0.442 7.84 807.99 10.09
11/3/2022 5:00:00 PM 12.72 54.896 0.442 7.83 649.9 10.05
11/3/2022 5:15:00 PM 12.71 54.878 0.442 7.82 659.02 9.89
11/3/2022 5:30:00 PM 12.65 54.77 0.442 7.83 712.36 9.81
11/3/2022 5:45:00 PM 12.58 54.644 0.442 7.82 705.65 9.84
11/3/2022 6:00:00 PM 12.5 54.5 0.442 7.81 706.11 9.73
11/3/2022 6:15:00 PM 12.47 54.446 0.443 7.8 707.68 9.68
11/3/2022 6:30:00 PM 12.42 54.356 0.442 7.8 707.12 9.71
11/3/2022 6:45:00 PM 12.37 54.266 0.443 7.8 709.95 9.57
11/3/2022 7:00:00 PM 12.32 54.176 0.443 7.79 710.75 9.44
11/3/2022 7:15:00 PM 12.24 54.032 0.443 7.78 716.77 9.33
11/3/2022 7:30:00 PM 12.18 53.924 0.443 7.78 709.93 9.33
11/3/2022 7:45:00 PM 12.16 53.888 0.443 7.77 704.4 9.2
11/3/2022 8:00:00 PM 12.14 53.852 0.443 7.77 711.06 9.25
11/3/2022 8:15:00 PM 12.07 53.726 0.443 7.77 715.85 9.21
11/3/2022 8:30:00 PM 12.04 53.672 0.443 7.76 712.39 9.18
11/3/2022 8:45:00 PM 12 53.6 0.444 7.76 711.69 9.13
11/3/2022 9:00:00 PM 11.98 53.564 0.444 7.75 711.41 8.96
11/3/2022 9:15:00 PM 11.92 53.456 0.444 7.75 708.9 9.15
11/3/2022 9:30:00 PM 11.94 53.492 0.444 7.76 706.15 8.98
11/3/2022 9:45:00 PM 0 32 0 0 0 0
11/3/2022 10:00:00 PM 11.87 53.366 0.444 7.75 712.61 8.98
11/3/2022 10:15:00 PM 11.84 53.312 0.445 7.75 710.61 9
11/3/2022 10:30:00 PM 11.8 53.24 0.445 7.75 711.42 8.97
11/3/2022 10:45:00 PM 11.72 53.096 0.445 7.75 718.15 8.98
11/3/2022 11:00:00 PM 11.71 53.078 0.445 7.74 721.07 8.81
11/3/2022 11:15:00 PM 11.64 52.952 0.445 7.73 724.65 8.88
11/3/2022 11:30:00 PM 11.59 52.862 0.445 7.74 722.03 8.99
11/3/2022 11:45:00 PM 11.57 52.826 0.446 7.74 726.61 8.91
11/4/2022 12:00:00 AM 11.51 52.718 0.446 7.73 722.29 8.95
11/4/2022 12:15:00 AM 11.44 52.592 0.446 7.73 726.6 8.86
11/4/2022 12:30:00 AM 11.38 52.484 0.446 7.73 728.46 8.91
11/4/2022 12:45:00 AM 11.36 52.448 0.446 7.73 730.98 8.97
11/4/2022 1:00:00 AM 11.31 52.358 0.447 7.73 733.71 9.01
11/4/2022 1:15:00 AM 11.26 52.268 0.447 7.72 731.14 8.94
11/4/2022 1:30:00 AM 11.17 52.106 0.447 7.72 735.2 8.79
11/4/2022 1:45:00 AM 11.12 52.016 0.447 7.71 719.51 8.83
11/4/2022 2:00:00 AM 11.09 51.962 0.447 7.72 720.3 8.89
11/4/2022 2:15:00 AM 11.03 51.854 0.448 7.72 724.02 8.93
11/4/2022 2:30:00 AM 11.01 51.818 0.448 7.71 722.39 8.91
11/4/2022 2:45:00 AM 10.93 51.674 0.448 7.71 728.4 8.93
11/4/2022 3:00:00 AM 10.95 51.71 0.448 7.71 725.09 8.99
11/4/2022 3:15:00 AM 10.8 51.44 0.448 7.71 721.85 8.98
11/4/2022 3:30:00 AM 10.84 51.512 0.449 7.71 724.29 8.98
11/4/2022 3:45:00 AM 10.72 51.296 0.449 7.72 731.71 8.97
11/4/2022 4:00:00 AM 10.7 51.26 0.449 7.71 732.81 8.99
11/4/2022 4:15:00 AM 10.62 51.116 0.449 7.71 730.41 8.97
11/4/2022 4:30:00 AM 10.59 51.062 0.449 7.71 729.67 8.99
11/4/2022 4:45:00 AM 10.59 51.062 0.449 7.72 731.69 8.95
11/4/2022 5:00:00 AM 10.56 51.008 0.45 7.71 728.87 8.99
11/4/2022 5:15:00 AM 10.53 50.954 0.45 7.71 733.46 9.04
11/4/2022 5:30:00 AM 10.51 50.918 0.452 7.72 732.28 8.95
11/4/2022 5:45:00 AM 10.43 50.774 0.45 7.71 733.24 9.02
11/4/2022 6:00:00 AM 10.42 50.756 0.45 7.71 731.03 8.98
11/4/2022 6:15:00 AM 10.37 50.666 0.45 7.71 735.04 8.99
11/4/2022 6:30:00 AM 10.31 50.558 0.45 7.71 736.64 8.91
11/4/2022 6:45:00 AM 10.3 50.54 0.451 7.71 737.53 9.07
11/4/2022 7:00:00 AM 10.23 50.414 0.45 7.71 737.88 9.12
11/4/2022 7:15:00 AM 10.19 50.342 0.451 7.71 738.27 9.06
11/4/2022 7:30:00 AM 10.21 50.378 0.451 7.71 740.75 9.05
11/4/2022 7:45:00 AM 10.21 50.378 0.451 7.71 747.39 9.09
11/4/2022 8:00:00 AM 10.13 50.234 0.451 7.71 735.62 9.02
11/4/2022 8:15:00 AM 10.12 50.216 0.451 7.71 729.97 9.14
11/4/2022 8:30:00 AM 10.13 50.234 0.451 7.72 728.85 9.24
11/4/2022 8:45:00 AM 10.14 50.252 0.451 7.72 720.2 9.31
11/4/2022 9:00:00 AM 10.19 50.342 0.452 7.72 724.95 9.38
11/4/2022 9:15:00 AM 10.2 50.36 0.452 7.73 724.91 9.38
11/4/2022 9:30:00 AM 10.24 50.432 0.452 7.74 720.92 9.62
11/4/2022 9:45:00 AM 10.33 50.594 0.453 7.75 719.67 9.7
11/4/2022 10:00:00 AM 10.43 50.774 0.452 7.75 720.39 9.79
11/4/2022 10:15:00 AM 10.52 50.936 0.453 7.76 715.99 9.87
11/4/2022 10:30:00 AM 10.61 51.098 0.452 7.78 703.22 10.05
11/4/2022 10:45:00 AM 10.7 51.26 0.452 7.79 699.82 10.27
11/4/2022 11:00:00 AM 10.84 51.512 0.452 7.8 710.24 10.37
11/4/2022 11:15:00 AM 11.01 51.818 0.452 7.81 706.31 10.49
11/4/2022 11:30:00 AM 11.16 52.088 0.452 7.82 703.05 10.55
11/4/2022 11:45:00 AM 11.31 52.358 0.452 7.84 698.37 10.71
11/4/2022 12:00:00 PM 11.41 52.538 0.452 7.86 697.52 10.73
11/4/2022 12:15:00 PM 11.59 52.862 0.452 7.86 703.55 10.72
11/4/2022 12:30:00 PM 11.74 53.132 0.452 7.87 703.25 10.83
11/4/2022 12:45:00 PM 11.89 53.402 0.452 7.87 694.2 10.82
11/4/2022 1:00:00 PM 12.02 53.636 0.452 7.88 688.08 10.91
11/4/2022 1:15:00 PM 12.19 53.942 0.452 7.89 697.51 10.9
11/4/2022 1:30:00 PM 12.35 54.23 0.452 7.9 686.22 11.06
11/4/2022 1:45:00 PM 12.48 54.464 0.452 7.91 683.54 11.08
11/4/2022 2:00:00 PM 12.6 54.68 0.452 7.9 684.23 11.04
11/4/2022 2:15:00 PM 12.68 54.824 0.451 7.91 674.17 11.1
11/4/2022 2:30:00 PM 12.78 55.004 0.451 7.92 672.48 11.06
11/4/2022 2:45:00 PM 12.81 55.058 0.451 7.93 674.45 11.03
11/4/2022 3:00:00 PM 12.91 55.238 0.451 7.93 672.83 11.14
11/4/2022 3:15:00 PM 12.89 55.202 0.452 7.94 675.44 11.06
11/4/2022 3:30:00 PM 12.92 55.256 0.451 7.94 669.88 11.08
11/4/2022 3:45:00 PM 12.93 55.274 0.452 7.94 669.75 10.96
11/4/2022 4:00:00 PM 12.92 55.256 0.452 7.94 675.52 10.97
11/4/2022 4:15:00 PM 12.93 55.274 0.453 7.93 676.25 10.83
11/4/2022 4:30:00 PM 12.93 55.274 0.453 7.93 674.36 10.79
11/4/2022 4:45:00 PM 12.92 55.256 0.453 7.92 674.38 10.78
11/4/2022 5:00:00 PM 12.88 55.184 0.453 7.91 669.57 10.62
11/4/2022 5:15:00 PM 12.85 55.13 0.453 7.91 673.89 10.61
11/4/2022 5:30:00 PM 12.8 55.04 0.453 7.89 672.07 10.46
11/4/2022 5:45:00 PM 12.77 54.986 0.454 7.89 672.62 10.36
11/4/2022 6:00:00 PM 12.71 54.878 0.454 7.88 674.54 10.12
11/4/2022 6:15:00 PM 12.7 54.86 0.453 7.87 673.94 10.13
11/4/2022 6:30:00 PM 12.65 54.77 0.453 7.85 677.2 9.87
11/4/2022 6:45:00 PM 12.61 54.698 0.453 7.85 677.76 9.72
11/4/2022 7:00:00 PM 12.59 54.662 0.453 7.83 679.11 9.44
11/4/2022 7:15:00 PM 12.56 54.608 0.455 7.83 677.66 9.57
11/4/2022 7:30:00 PM 12.55 54.59 0.454 7.82 678.84 9.43
11/4/2022 7:45:00 PM 12.53 54.554 0.454 7.81 676.85 9.38
11/4/2022 8:00:00 PM 12.47 54.446 0.453 7.81 682.1 9.42
11/4/2022 8:15:00 PM 12.47 54.446 0.454 7.8 680.28 9.2
11/4/2022 8:30:00 PM 12.49 54.482 0.454 7.8 678.4 9.31
11/4/2022 8:45:00 PM 12.48 54.464 0.454 7.79 674.81 9.16
11/4/2022 9:00:00 PM 12.46 54.428 0.454 7.79 674.95 9.08
11/4/2022 9:15:00 PM 12.44 54.392 0.454 7.79 687.01 9.22
11/4/2022 9:30:00 PM 12.45 54.41 0.454 7.77 681.98 8.92
11/4/2022 9:45:00 PM 12.43 54.374 0.454 7.78 683.78 9.02
11/4/2022 10:00:00 PM 12.44 54.392 0.454 7.78 684.22 9.06
11/4/2022 10:15:00 PM 12.44 54.392 0.454 7.77 678.02 8.92
11/4/2022 10:30:00 PM 12.43 54.374 0.454 7.77 679.82 8.93
11/4/2022 10:45:00 PM 12.44 54.392 0.454 7.76 686.01 8.81
11/4/2022 11:00:00 PM 12.43 54.374 0.454 7.76 476.59 8.82
11/4/2022 11:15:00 PM 12.44 54.392 0.455 7.75 510.93 8.83
11/4/2022 11:30:00 PM 12.4 54.32 0.455 7.76 517.78 8.81
11/4/2022 11:45:00 PM 12.39 54.302 0.455 7.76 520.68 8.81
11/5/2022 12:00:00 AM 12.38 54.284 0.455 7.75 563.87 8.76
11/5/2022 12:15:00 AM 12.39 54.302 0.455 7.75 560.97 8.71
11/5/2022 12:30:00 AM 12.34 54.212 0.455 7.75 556.64 8.7
11/5/2022 12:45:00 AM 12.34 54.212 0.455 7.75 563.56 8.65
11/5/2022 1:00:00 AM 12.31 54.158 0.456 7.74 563.13 8.51
11/5/2022 1:15:00 AM 12.23 54.014 0.455 7.74 568.06 8.66
11/5/2022 1:30:00 AM 12.23 54.014 0.455 7.74 544.81 8.62
11/5/2022 1:45:00 AM 12.21 53.978 0.456 7.73 573.78 8.72
11/5/2022 2:00:00 AM 12.18 53.924 0.456 7.74 578.2 8.65
11/5/2022 2:15:00 AM 12.15 53.87 0.455 7.74 574.81 8.61
11/5/2022 2:30:00 AM 12.12 53.816 0.456 7.73 572.8 8.66
11/5/2022 2:45:00 AM 12.09 53.762 0.456 7.73 572.42 8.64
11/5/2022 3:00:00 AM 12.09 53.762 0.456 7.72 574.23 8.61
11/5/2022 3:15:00 AM 12.09 53.762 0.456 7.72 565.98 8.41
11/5/2022 3:30:00 AM 12.04 53.672 0.456 7.72 572.07 8.5
11/5/2022 3:45:00 AM 12.05 53.69 0.456 7.72 572.73 8.51
11/5/2022 4:00:00 AM 12.06 53.708 0.459 7.72 577.4 8.61
11/5/2022 4:15:00 AM 12.01 53.618 0.456 7.72 577.09 8.61
11/5/2022 4:30:00 AM 12.03 53.654 0.457 7.71 578.52 8.55
11/5/2022 4:45:00 AM 12.05 53.69 0.457 7.71 578.25 8.56
11/5/2022 5:00:00 AM 12.06 53.708 0.457 7.72 578.67 8.58
11/5/2022 5:15:00 AM 12.06 53.708 0.457 7.72 575.15 8.56
11/5/2022 5:30:00 AM 12.06 53.708 0.456 7.71 583.9 8.48
11/5/2022 5:45:00 AM 12.09 53.762 0.457 7.7 591.28 8.51
11/5/2022 6:00:00 AM 12.1 53.78 0.457 7.71 580.43 8.52
11/5/2022 6:15:00 AM 12.12 53.816 0.457 7.7 588.74 8.5
11/5/2022 6:30:00 AM 12.14 53.852 0.457 7.71 585.99 8.44
11/5/2022 6:45:00 AM 12.11 53.798 0.457 7.7 573.41 8.58
11/5/2022 7:00:00 AM 12.15 53.87 0.457 7.71 575.04 8.44
11/5/2022 7:15:00 AM 12.15 53.87 0.457 7.71 582.62 8.54
11/5/2022 7:30:00 AM 12.16 53.888 0.457 7.71 581.64 8.49
11/5/2022 7:45:00 AM 12.17 53.906 0.457 7.71 580.6 8.58
11/5/2022 8:00:00 AM 12.21 53.978 0.457 7.71 504.65 8.56
11/5/2022 8:15:00 AM 12.23 54.014 0.457 7.71 503.75 8.55
11/5/2022 8:30:00 AM 12.28 54.104 0.457 7.71 503.09 8.6
11/5/2022 8:45:00 AM 12.29 54.122 0.457 7.72 502.78 8.61
11/5/2022 9:00:00 AM 12.34 54.212 0.457 7.72 501.59 8.61
11/5/2022 9:15:00 AM 12.39 54.302 0.457 7.72 499.57 8.69
11/5/2022 9:30:00 AM 12.45 54.41 0.457 7.73 498.48 8.81
11/5/2022 9:45:00 AM 12.55 54.59 0.457 7.74 498.14 9.04
11/5/2022 10:00:00 AM 12.67 54.806 0.457 7.76 497.19 9.26
11/5/2022 10:15:00 AM 12.75 54.95 0.457 7.76 495.42 9.13
11/5/2022 10:30:00 AM 12.84 55.112 0.457 7.78 542.22 9.48
11/5/2022 10:45:00 AM 12.96 55.328 0.456 7.8 539.27 9.69
11/5/2022 11:00:00 AM 13.12 55.616 0.456 7.81 537.54 9.89
11/5/2022 11:15:00 AM 13.29 55.922 0.456 7.83 535.78 10
11/5/2022 11:30:00 AM 13.51 56.318 0.456 7.84 534.52 10.22
11/5/2022 11:45:00 AM 13.71 56.678 0.456 7.86 532.38 10.33
11/5/2022 12:00:00 PM 13.9 57.02 0.456 7.87 553.98 10.46
11/5/2022 12:15:00 PM 14.1 57.38 0.456 7.88 551.11 10.52
11/5/2022 12:30:00 PM 14.26 57.668 0.456 7.9 549.96 10.62
11/5/2022 12:45:00 PM 14.42 57.956 0.456 7.91 522.58 10.52
11/5/2022 1:00:00 PM 14.63 58.334 0.456 7.92 521.44 10.75
11/5/2022 1:15:00 PM 14.77 58.586 0.456 7.93 519.1 10.66
11/5/2022 1:30:00 PM 14.9 58.82 0.456 7.94 518.55 10.9
11/5/2022 1:45:00 PM 15.04 59.072 0.456 7.95 508.97 10.77
11/5/2022 2:00:00 PM 15.17 59.306 0.456 7.96 506.07 10.99
11/5/2022 2:15:00 PM 15.26 59.468 0.456 7.97 522.93 10.98
11/5/2022 2:30:00 PM 15.32 59.576 0.456 7.96 520.3 10.9
11/5/2022 2:45:00 PM 15.39 59.702 0.456 7.97 520 11
11/5/2022 3:00:00 PM 15.45 59.81 0.456 7.98 519.07 10.95
11/5/2022 3:15:00 PM 15.47 59.846 0.456 7.98 517.73 10.88
11/5/2022 3:30:00 PM 15.47 59.846 0.455 7.98 515.99 10.86
11/5/2022 3:45:00 PM 15.54 59.972 0.456 7.98 519.28 10.85
11/5/2022 4:00:00 PM 15.54 59.972 0.456 7.98 509.59 10.85
11/5/2022 4:15:00 PM 15.54 59.972 0.456 7.98 512.56 10.78
11/5/2022 4:30:00 PM 15.55 59.99 0.456 7.97 507.73 10.6
11/5/2022 4:45:00 PM 15.54 59.972 0.456 7.98 509.38 10.62
11/5/2022 5:00:00 PM 15.52 59.936 0.456 7.96 508.96 10.3
11/5/2022 5:15:00 PM 15.47 59.846 0.456 7.95 507.64 10.21
11/5/2022 5:30:00 PM 15.45 59.81 0.456 7.94 507.29 10.2
11/5/2022 5:45:00 PM 15.42 59.756 0.456 7.92 504.54 10.1
11/5/2022 6:00:00 PM 15.38 59.684 0.456 7.91 509.22 9.74
11/5/2022 6:15:00 PM 15.35 59.63 0.457 7.9 511.16 9.75
11/5/2022 6:30:00 PM 15.32 59.576 0.457 7.88 513.86 9.5
11/5/2022 6:45:00 PM 15.29 59.522 0.457 7.87 513.28 9.25
11/5/2022 7:00:00 PM 15.27 59.486 0.458 7.85 511.61 9.01
11/5/2022 7:15:00 PM 15.22 59.396 0.458 7.84 517.59 8.83
11/5/2022 7:30:00 PM 15.24 59.432 0.458 7.83 517.5 8.68
11/5/2022 7:45:00 PM 15.22 59.396 0.458 7.81 513.69 8.45
11/5/2022 8:00:00 PM 15.2 59.36 0.458 7.8 516 8.57
11/5/2022 8:15:00 PM 15.18 59.324 0.458 7.77 515.64 8.45
11/5/2022 8:30:00 PM 15.17 59.306 0.458 7.78 515.26 8.17
11/5/2022 8:45:00 PM 15.18 59.324 0.458 7.76 515.16 8.2
11/5/2022 9:00:00 PM 15.19 59.342 0.458 7.78 513.3 8.37
11/5/2022 9:15:00 PM 15.19 59.342 0.458 7.78 514.17 8.29
11/5/2022 9:30:00 PM 15.21 59.378 0.458 7.76 511.28 8.13
11/5/2022 9:45:00 PM 15.22 59.396 0.458 7.77 569.27 8.16
11/5/2022 10:00:00 PM 15.21 59.378 0.459 7.75 509.4 8.18
11/5/2022 10:15:00 PM 15.18 59.324 0.458 7.74 509.21 8.01
11/5/2022 10:30:00 PM 15.19 59.342 0.459 7.75 508.6 8.01
11/5/2022 10:45:00 PM 15.17 59.306 0.459 7.74 503.36 7.89
11/5/2022 11:00:00 PM 15.18 59.324 0.459 7.74 504.25 7.97
11/5/2022 11:15:00 PM 15.17 59.306 0.459 7.73 504.21 7.79
11/5/2022 11:30:00 PM 15.17 59.306 0.459 7.73 503.46 7.63
11/5/2022 11:45:00 PM 15.15 59.27 0.459 7.73 501.69 7.57
11/6/2022 12:00:00 AM 15.14 59.252 0.459 7.73 500.98 7.74
11/6/2022 12:15:00 AM 15.09 59.162 0.459 7.72 499.91 7.5
11/6/2022 12:30:00 AM 15.07 59.126 0.46 7.72 500.24 7.64
11/6/2022 12:45:00 AM 15.05 59.09 0.46 7.72 500.35 7.6
11/6/2022 1:00:00 AM 15.06 59.108 0.459 7.72 501.05 7.57
11/6/2022 1:15:00 AM 15.03 59.054 0.459 7.72 500.07 7.6
11/6/2022 1:30:00 AM 15.02 59.036 0.46 7.73 500.81 7.58
11/6/2022 1:45:00 AM 15.01 59.018 0.46 7.7 500.54 7.53
11/6/2022 2:00:00 AM 15.04 59.072 0.46 7.71 500.69 7.36
11/6/2022 2:15:00 AM 15.01 59.018 0.46 7.71 500.02 7.48
11/6/2022 2:30:00 AM 14.97 58.946 0.46 7.71 497.57 7.47
11/6/2022 2:45:00 AM 14.95 58.91 0.46 7.69 498.56 7.55
11/6/2022 3:00:00 AM 14.96 58.928 0.46 7.7 500.83 7.49
11/6/2022 3:15:00 AM 14.94 58.892 0.46 7.69 564.59 7.25
11/6/2022 3:30:00 AM 14.91 58.838 0.46 7.69 564.1 7.3
11/6/2022 3:45:00 AM 14.89 58.802 0.46 7.68 567.13 7.27
11/6/2022 4:00:00 AM 14.85 58.73 0.46 7.7 569.02 7.39
11/6/2022 4:15:00 AM 14.83 58.694 0.46 7.68 575.84 7.04
11/6/2022 4:30:00 AM 14.83 58.694 0.46 7.69 574.33 7.33
11/6/2022 4:45:00 AM 14.8 58.64 0.46 7.68 567.65 7.18
11/6/2022 5:00:00 AM 14.81 58.658 0.46 7.69 568.33 7.23
11/6/2022 5:15:00 AM 14.78 58.604 0.46 7.69 571.05 7.37
11/6/2022 5:30:00 AM 14.78 58.604 0.46 7.69 574.58 7.31
11/6/2022 5:45:00 AM 14.82 58.676 0.46 7.68 575.99 6.92
11/6/2022 6:00:00 AM 14.8 58.64 0.46 7.69 575.44 7.39
11/6/2022 6:15:00 AM 14.81 58.658 0.46 7.68 571.61 6.99
11/6/2022 6:30:00 AM 14.79 58.622 0.46 7.69 575.07 7.36
11/6/2022 6:45:00 AM 14.83 58.694 0.459 7.68 577.63 7.36
11/6/2022 7:00:00 AM 14.84 58.712 0.46 7.69 569.51 7.43
11/6/2022 7:15:00 AM 14.85 58.73 0.459 7.68 567.92 7.3
11/6/2022 7:30:00 AM 14.84 58.712 0.459 7.69 566.94 7.26
11/6/2022 7:45:00 AM 14.84 58.712 0.459 7.68 567.33 7.33
11/6/2022 8:00:00 AM 14.85 58.73 0.459 7.69 566.92 7.28
11/6/2022 8:15:00 AM 14.89 58.802 0.459 7.67 568.65 7.37
11/6/2022 8:30:00 AM 14.89 58.802 0.458 7.68 571.23 7.31
11/6/2022 8:45:00 AM 14.87 58.766 0.457 7.68 570.77 7.39
11/6/2022 9:00:00 AM 14.88 58.784 0.457 7.68 558.89 7.26
11/6/2022 9:15:00 AM 14.91 58.838 0.457 7.68 563.72 7.32
11/6/2022 9:30:00 AM 14.9 58.82 0.457 7.69 566.03 7.31
11/6/2022 9:45:00 AM 14.93 58.874 0.457 7.69 561.64 7.52
11/6/2022 10:00:00 AM 14.97 58.946 0.457 7.7 561 7.55
11/6/2022 10:15:00 AM 15.01 59.018 0.457 7.7 559.81 7.89
11/6/2022 10:30:00 AM 15.07 59.126 0.458 7.71 558.61 7.87
11/6/2022 10:45:00 AM 15.13 59.234 0.457 7.72 559.04 8.15
11/6/2022 11:00:00 AM 15.16 59.288 0.458 7.73 369.52 8.31
11/6/2022 11:15:00 AM 15.23 59.414 0.457 7.75 347.33 8.47
11/6/2022 11:30:00 AM 15.28 59.504 0.457 7.76 346.63 8.65
11/6/2022 11:45:00 AM 15.32 59.576 0.457 7.77 345.84 8.64
11/6/2022 12:00:00 PM 15.35 59.63 0.457 7.78 345.8 8.79
11/6/2022 12:15:00 PM 15.39 59.702 0.457 7.77 338.08 8.73
11/6/2022 12:30:00 PM 15.42 59.756 0.456 7.79 335.97 8.99
11/6/2022 12:45:00 PM 15.52 59.936 0.456 7.8 330.28 9.04
11/6/2022 1:00:00 PM 15.56 60.008 0.456 7.79 329.12 9.03
11/6/2022 1:15:00 PM 15.59 60.062 0.456 7.82 329 9.11
11/6/2022 1:30:00 PM 15.65 60.17 0.455 7.81 322.92 8.94
11/6/2022 1:45:00 PM 15.66 60.188 0.455 7.82 318.4 9.11
11/6/2022 2:00:00 PM 15.66 60.188 0.455 7.81 294.48 9.07
11/6/2022 2:15:00 PM 15.71 60.278 0.455 7.82 308.48 8.98
11/6/2022 2:30:00 PM 15.72 60.296 0.454 7.82 298.32 9.19
11/6/2022 2:45:00 PM 15.72 60.296 0.454 7.84 297.09 9.09
11/6/2022 3:00:00 PM 15.75 60.35 0.454 7.82 3945.38 8.99
11/6/2022 3:15:00 PM 15.74 60.332 0.454 7.83 200.57 9.01
11/6/2022 3:30:00 PM 15.77 60.386 0.454 7.83 199.78 9.03
11/6/2022 3:45:00 PM 15.78 60.404 0.453 7.84 199.77 8.84
11/6/2022 4:00:00 PM 15.77 60.386 0.453 7.84 199.64 9.08
11/6/2022 4:15:00 PM 15.79 60.422 0.452 7.84 199.28 8.88
11/6/2022 4:30:00 PM 15.76 60.368 0.452 7.84 199.2 8.9
11/6/2022 4:45:00 PM 15.79 60.422 0.452 7.81 199.33 8.74
11/6/2022 5:00:00 PM 15.85 60.53 0.452 7.82 198.73 8.93
11/6/2022 5:15:00 PM 15.84 60.512 0.452 7.81 204.66 8.89
11/6/2022 5:30:00 PM 15.83 60.494 0.454 7.82 202.9 8.79
11/6/2022 5:45:00 PM 15.84 60.512 0.452 7.82 202.24 8.68
11/6/2022 6:00:00 PM 15.8 60.44 0.452 7.81 201.38 8.69
11/6/2022 6:15:00 PM 15.79 60.422 0.452 7.81 201.34 8.5
11/6/2022 6:30:00 PM 15.79 60.422 0.452 7.79 202.08 8.39
11/6/2022 6:45:00 PM 15.78 60.404 0.452 7.78 201.41 8.02
11/6/2022 7:00:00 PM 15.77 60.386 0.452 7.77 201.49 7.86
11/6/2022 7:15:00 PM 15.76 60.368 0.452 7.75 201.53 7.82
11/6/2022 7:30:00 PM 15.74 60.332 0.453 7.75 207.45 7.59
11/6/2022 7:45:00 PM 15.75 60.35 0.452 7.75 207.74 7.54
11/6/2022 8:00:00 PM 15.71 60.278 0.452 7.74 207.04 7.76
11/6/2022 8:15:00 PM 15.74 60.332 0.452 7.75 206.79 7.6
11/6/2022 8:30:00 PM 15.72 60.296 0.452 7.73 206.83 7.6
11/6/2022 8:45:00 PM 15.72 60.296 0.452 7.73 206.36 7.64
11/6/2022 9:00:00 PM 15.71 60.278 0.452 7.73 205.34 7.66
11/6/2022 9:15:00 PM 15.71 60.278 0.452 7.73 205.57 7.67
11/6/2022 9:30:00 PM 15.71 60.278 0.452 7.72 205.37 7.37
11/6/2022 9:45:00 PM 15.71 60.278 0.452 7.71 205.45 7.31
11/6/2022 10:00:00 PM 15.69 60.242 0.452 7.71 206.13 7.45
11/6/2022 10:15:00 PM 15.65 60.17 0.452 7.72 205.86 7.37
11/6/2022 10:30:00 PM 15.63 60.134 0.452 7.71 205.66 7.32
11/6/2022 10:45:00 PM 15.6 60.08 0.452 7.71 205.56 7.34
11/6/2022 11:00:00 PM 15.57 60.026 0.451 7.71 204.21 7.1
11/6/2022 11:15:00 PM 15.54 59.972 0.452 7.7 203.96 7.06
11/6/2022 11:30:00 PM 15.52 59.936 0.452 7.7 203.82 6.99
11/6/2022 11:45:00 PM 15.48 59.864 0.452 7.7 203.74 7.14
11/7/2022 12:00:00 AM 15.49 59.882 0.451 7.71 203.98 6.78
11/7/2022 12:15:00 AM 15.46 59.828 0.451 7.7 203.9 6.6
11/7/2022 12:30:00 AM 15.44 59.792 0.451 7.7 203.48 6.7
11/7/2022 12:45:00 AM 15.44 59.792 0.451 7.69 203.28 6.93
11/7/2022 1:00:00 AM 15.4 59.72 0.452 7.7 203.2 6.79
11/7/2022 1:15:00 AM 15.41 59.738 0.451 7.68 202.75 6.23
11/7/2022 1:30:00 AM 15.38 59.684 0.452 7.69 202.06 6.28
11/7/2022 1:45:00 AM 15.36 59.648 0.452 7.68 201.92 6.41
11/7/2022 2:00:00 AM 15.37 59.666 0.452 7.68 201.65 6.93
11/7/2022 2:15:00 AM 15.32 59.576 0.452 7.68 201.91 6.82
11/7/2022 2:30:00 AM 15.31 59.558 0.452 7.69 201.3 6.73
11/7/2022 2:45:00 AM 15.28 59.504 0.451 7.69 201.38 6.63
11/7/2022 3:00:00 AM 15.24 59.432 0.451 7.67 201.28 6.85
11/7/2022 3:15:00 AM 15.23 59.414 0.452 7.68 201.67 6.2
11/7/2022 3:30:00 AM 15.2 59.36 0.452 7.69 200.56 6.71
11/7/2022 3:45:00 AM 15.19 59.342 0.452 7.68 200.5 6.85
11/7/2022 4:00:00 AM 15.16 59.288 0.452 7.67 200.4 6.24
11/7/2022 4:15:00 AM 15.15 59.27 0.453 7.67 200.47 6.42
11/7/2022 4:30:00 AM 15.11 59.198 0.452 7.67 199.23 6.31
11/7/2022 4:45:00 AM 15.06 59.108 0.451 7.67 199.31 6.53
11/7/2022 5:00:00 AM 15.02 59.036 0.452 7.67 198.95 6.31
11/7/2022 5:15:00 AM 14.98 58.964 0.452 7.68 198.61 6.28
11/7/2022 5:30:00 AM 14.94 58.892 0.451 7.68 198.32 6.63
11/7/2022 5:45:00 AM 14.93 58.874 0.452 7.68 198.23 6.24
11/7/2022 6:00:00 AM 14.9 58.82 0.452 7.67 198.33 5.33
11/7/2022 6:15:00 AM 14.83 58.694 0.451 7.67 197.43 6.58
11/7/2022 6:30:00 AM 14.85 58.73 0.453 7.67 198.09 6.91
11/7/2022 6:45:00 AM 14.82 58.676 0.451 7.68 197.23 6.67
11/7/2022 7:00:00 AM 14.8 58.64 0.452 7.68 197.27 7.11
11/7/2022 7:15:00 AM 14.8 58.64 0.452 7.68 355.34 6.7
11/7/2022 7:30:00 AM 14.82 58.676 0.451 7.67 714.73 6.62
11/7/2022 7:45:00 AM 14.82 58.676 0.451 7.65 803.76 6.36
11/7/2022 8:00:00 AM 14.8 58.64 0.452 7.67 865.65 6.77
11/7/2022 8:15:00 AM 14.79 58.622 0.452 7.67 695.41 6.49
11/7/2022 8:30:00 AM 14.81 58.658 0.451 7.66 655.51 6.97
11/7/2022 8:45:00 AM 14.83 58.694 0.452 7.66 628.7 6.17
11/7/2022 9:00:00 AM 14.85 58.73 0.451 7.66 617.44 6.43
11/7/2022 9:15:00 AM 14.88 58.784 0.451 7.68 608.48 6.83
11/7/2022 9:30:00 AM 14.9 58.82 0.451 7.68 604.1 6.95
11/7/2022 9:45:00 AM 14.96 58.928 0.451 7.7 606.17 6.96
11/7/2022 10:00:00 AM 14.97 58.946 0.451 7.69 605.34 7.39
11/7/2022 10:15:00 AM 15.01 59.018 0.451 7.71 602.73 7.69
11/7/2022 10:30:00 AM 15.05 59.09 0.451 7.71 601.39 8.04
11/7/2022 10:45:00 AM 15.11 59.198 0.45 7.72 598.88 8.02
11/7/2022 11:00:00 AM 15.19 59.342 0.45 7.75 590.74 8.26
11/7/2022 11:15:00 AM 15.29 59.522 0.45 7.78 583.44 8.82
11/7/2022 11:30:00 AM 15.36 59.648 0.449 7.79 574.23 9.04
11/7/2022 11:45:00 AM 15.48 59.864 0.45 7.78 574.24 9.1
11/7/2022 12:00:00 PM 15.6 60.08 0.45 7.8 572.38 9.21
11/7/2022 12:15:00 PM 16.09 60.962 0.449 7.89 571.9 9.96
11/7/2022 12:30:00 PM 16.22 61.196 0.449 7.88 510.04 9.49
11/7/2022 12:45:00 PM 16.31 61.358 0.449 7.91 505.71 10.11
11/7/2022 1:00:00 PM 16.41 61.538 0.449 7.93 477.58 10.01
11/7/2022 1:15:00 PM 16.46 61.628 0.449 7.93 484.04 9.93
11/7/2022 1:30:00 PM 16.52 61.736 0.449 7.95 437.61 10.25
11/7/2022 1:45:00 PM 16.53 61.754 0.449 7.96 457.84 10.1
11/7/2022 2:00:00 PM 16.56 61.808 0.449 7.95 466.23 10.15
11/7/2022 2:15:00 PM 16.51 61.718 0.449 7.95 488.47 10.07
11/7/2022 2:30:00 PM 16.48 61.664 0.449 7.95 490.17 9.9
11/7/2022 2:45:00 PM 16.45 61.61 0.449 7.97 443.75 9.57
11/7/2022 3:00:00 PM 16.39 61.502 0.449 7.94 440.02 9.56
11/7/2022 3:15:00 PM 16.36 61.448 0.449 7.94 444.62 9.23
11/7/2022 3:30:00 PM 16.28 61.304 0.449 7.92 477.81 9.39
11/7/2022 3:45:00 PM 16.23 61.214 0.449 7.91 464.6 9.41
11/7/2022 4:00:00 PM 16.17 61.106 0.449 7.91 471.44 9.36
11/7/2022 4:15:00 PM 16.09 60.962 0.45 7.9 472.2 9.41
11/7/2022 4:30:00 PM 16.03 60.854 0.449 7.89 477.7 8.85
11/7/2022 4:45:00 PM 15.92 60.656 0.45 7.88 298.5 8.89
11/7/2022 5:00:00 PM 15.81 60.458 0.45 7.86 296.5 8.33
11/7/2022 5:15:00 PM 15.73 60.314 0.451 7.85 296.93 8.78
11/7/2022 5:30:00 PM 15.65 60.17 0.451 7.85 421.41 8.67
11/7/2022 5:45:00 PM 15.55 59.99 0.451 7.84 405.75 8.69
11/7/2022 6:00:00 PM 15.46 59.828 0.451 7.82 405.38 8.5
11/7/2022 6:15:00 PM 15.33 59.594 0.451 7.81 405.66 8.23
11/7/2022 6:30:00 PM 15.25 59.45 0.451 7.81 408.78 8.5
11/7/2022 6:45:00 PM 15.14 59.252 0.451 7.81 400.81 8.1
11/7/2022 7:00:00 PM 15.08 59.144 0.451 7.79 388.89 7.95
11/7/2022 7:15:00 PM 14.99 58.982 0.452 7.79 314.09 8.04
11/7/2022 7:30:00 PM 14.87 58.766 0.452 7.78 316.29 7.9
11/7/2022 7:45:00 PM 14.81 58.658 0.453 7.78 313.43 7.57
11/7/2022 8:00:00 PM 14.72 58.496 0.452 7.77 314.57 7.87
11/7/2022 8:15:00 PM 14.66 58.388 0.453 7.77 314.88 7.91
11/7/2022 8:30:00 PM 14.6 58.28 0.454 7.76 326.48 7.97
11/7/2022 8:45:00 PM 14.53 58.154 0.453 7.76 324.79 8.07
11/7/2022 9:00:00 PM 14.45 58.01 0.454 7.76 324.95 7.97
11/7/2022 9:15:00 PM 14.32 57.776 0.453 7.76 322.87 7.95
11/7/2022 9:30:00 PM 14.3 57.74 0.453 7.76 319.25 7.66
11/7/2022 9:45:00 PM 14.25 57.65 0.453 7.76 317.99 7.67
11/7/2022 10:00:00 PM 14.17 57.506 0.452 7.75 317.42 7.8
11/7/2022 10:15:00 PM 14.08 57.344 0.453 7.75 317.97 8.1
11/7/2022 10:30:00 PM 14.06 57.308 0.453 7.75 317.1 7.96
11/7/2022 10:45:00 PM 13.99 57.182 0.452 7.75 316.72 7.97
11/7/2022 11:00:00 PM 13.91 57.038 0.453 7.75 324.34 7.9
11/7/2022 11:15:00 PM 13.88 56.984 0.453 7.75 323.99 7.84
11/7/2022 11:30:00 PM 13.79 56.822 0.452 7.76 323.15 7.99
11/7/2022 11:45:00 PM 13.72 56.696 0.453 7.75 323.24 8
11/8/2022 12:00:00 AM 13.65 56.57 0.452 7.76 322.98 7.66
11/8/2022 12:15:00 AM 13.6 56.48 0.452 7.75 322.72 7.83
11/8/2022 12:30:00 AM 13.49 56.282 0.452 7.75 322.04 7.78
11/8/2022 12:45:00 AM 13.45 56.21 0.452 7.75 322.25 7.87
11/8/2022 1:00:00 AM 13.4 56.12 0.452 7.74 323.26 7.79
11/8/2022 1:15:00 AM 13.32 55.976 0.453 7.74 323.52 7.81
11/8/2022 1:30:00 AM 13.23 55.814 0.453 7.74 323.49 7.74
11/8/2022 1:45:00 AM 13.19 55.742 0.453 7.74 322.56 7.82
11/8/2022 2:00:00 AM 13.08 55.544 0.452 7.74 324.5 7.94
11/8/2022 2:15:00 AM 13.02 55.436 0.453 7.73 324.53 7.87
11/8/2022 2:30:00 AM 12.91 55.238 0.453 7.73 325.15 7.99
11/8/2022 2:45:00 AM 12.86 55.148 0.454 7.73 325.42 7.98
11/8/2022 3:00:00 AM 12.8 55.04 0.454 7.72 325.13 7.95
11/8/2022 3:15:00 AM 12.76 54.968 0.454 7.72 324.8 7.85
11/8/2022 3:30:00 AM 12.64 54.752 0.454 7.73 324.57 7.91
11/8/2022 3:45:00 AM 12.55 54.59 0.454 7.73 325.07 7.99
11/8/2022 4:00:00 AM 12.51 54.518 0.454 7.73 693.02 7.87
11/8/2022 4:15:00 AM 12.46 54.428 0.454 7.72 601.05 7.95
11/8/2022 4:30:00 AM 12.35 54.23 0.454 7.72 583.85 7.97
11/8/2022 4:45:00 AM 12.27 54.086 0.454 7.72 320.31 7.94
11/8/2022 5:00:00 AM 12.18 53.924 0.454 7.73 316.27 8.02
11/8/2022 5:15:00 AM 12.16 53.888 0.455 7.72 558.81 8.09
11/8/2022 5:30:00 AM 12.09 53.762 0.455 7.72 473.56 7.99
11/8/2022 5:45:00 AM 11.99 53.582 0.455 7.72 5374.72 7.63
11/8/2022 6:00:00 AM 11.92 53.456 0.455 7.73 441.68 7.62
11/8/2022 6:15:00 AM 11.87 53.366 0.455 7.72 440.58 8.1
11/8/2022 6:30:00 AM 11.78 53.204 0.455 7.72 439.65 7.52
11/8/2022 6:45:00 AM 11.73 53.114 0.455 7.72 438.88 7.49
11/8/2022 7:00:00 AM 11.66 52.988 0.455 7.73 432.71 8.12
11/8/2022 7:15:00 AM 11.6 52.88 0.455 7.73 416.79 8.15
11/8/2022 7:30:00 AM 11.55 52.79 0.456 7.74 415.63 8.27
11/8/2022 7:45:00 AM 11.51 52.718 0.455 7.74 419.72 8.4
11/8/2022 8:00:00 AM 11.51 52.718 0.455 7.73 418.21 7.89
11/8/2022 8:15:00 AM 11.53 52.754 0.455 7.74 414.87 8.22
11/8/2022 8:30:00 AM 11.52 52.736 0.455 7.75 415.04 8.71
11/8/2022 8:45:00 AM 11.56 52.808 0.455 7.77 415.78 8.94
11/8/2022 9:00:00 AM 11.56 52.808 0.455 7.79 412.41 9.26
11/8/2022 9:15:00 AM 11.59 52.862 0.455 7.8 412.32 8.89
11/8/2022 9:30:00 AM 11.63 52.934 0.455 7.81 410.75 9.67
11/8/2022 9:45:00 AM 11.7 53.06 0.455 7.81 410.21 9.36
11/8/2022 10:00:00 AM 11.77 53.186 0.455 7.84 408.37 10
11/8/2022 10:15:00 AM 11.87 53.366 0.455 7.85 405.93 10.09
11/8/2022 10:30:00 AM 11.98 53.564 0.454 7.85 404.37 10.16
11/8/2022 10:45:00 AM 12.09 53.762 0.455 7.88 403.75 10.31
11/8/2022 11:00:00 AM 12.19 53.942 0.454 7.9 401.61 10.64
11/8/2022 11:15:00 AM 12.31 54.158 0.454 7.9 400.6 10.18
11/8/2022 11:30:00 AM 12.41 54.338 0.454 7.92 398.64 10.71
11/8/2022 11:45:00 AM 12.49 54.482 0.454 7.95 397.13 10.98
11/8/2022 12:00:00 PM 12.62 54.716 0.454 7.96 399.39 11.19
11/8/2022 12:15:00 PM 12.75 54.95 0.454 7.96 396.54 11.28
11/8/2022 12:30:00 PM 12.84 55.112 0.454 7.97 395.46 11.26
11/8/2022 12:45:00 PM 12.93 55.274 0.454 7.97 393.42 11.56
11/8/2022 1:00:00 PM 13 55.4 0.454 7.97 391.71 11.42
11/8/2022 1:15:00 PM 13.03 55.454 0.453 8.01 389.92 11.63
11/8/2022 1:30:00 PM 13.07 55.526 0.453 8 388.32 11.68
11/8/2022 1:45:00 PM 13.09 55.562 0.453 8.01 387.87 11.5
11/8/2022 2:00:00 PM 13.1 55.58 0.453 8.02 387.48 11.66
11/8/2022 2:15:00 PM 13.06 55.508 0.453 8.01 385.94 11.57
11/8/2022 2:30:00 PM 13.04 55.472 0.453 7.99 383.39 10.01
11/8/2022 2:45:00 PM 13.01 55.418 0.454 8 381.84 10.98
11/8/2022 3:00:00 PM 12.96 55.328 0.454 7.93 379.57 10.69
11/8/2022 3:15:00 PM 12.85 55.13 0.454 8 378.39 11.29
11/8/2022 3:30:00 PM 12.82 55.076 0.454 7.99 377.99 10.71
11/8/2022 3:45:00 PM 12.76 54.968 0.455 7.98 378.22 10.89
11/8/2022 4:00:00 PM 12.64 54.752 0.454 7.98 378.16 10.93
11/8/2022 4:15:00 PM 12.58 54.644 0.454 7.97 378.39 10.71
11/8/2022 4:30:00 PM 12.54 54.572 0.455 7.95 378.48 10.38
11/8/2022 4:45:00 PM 12.42 54.356 0.455 7.93 378.07 10.47
11/8/2022 5:00:00 PM 12.37 54.266 0.455 7.93 377.36 10.16
11/8/2022 5:15:00 PM 12.27 54.086 0.455 7.9 378.47 10.22
11/8/2022 5:30:00 PM 12.22 53.996 0.457 7.9 379.47 10.16
11/8/2022 5:45:00 PM 12.1 53.78 0.455 7.88 378.94 9.95
11/8/2022 6:00:00 PM 12.07 53.726 0.456 7.87 379.35 9.78
11/8/2022 6:15:00 PM 11.92 53.456 0.455 7.86 378.82 9.53
11/8/2022 6:30:00 PM 11.82 53.276 0.456 7.86 397.01 9.65
11/8/2022 6:45:00 PM 11.78 53.204 0.456 7.83 378.43 9.04
11/8/2022 7:00:00 PM 11.72 53.096 0.456 7.83 411.11 9.02
11/8/2022 7:15:00 PM 11.64 52.952 0.456 7.83 383.24 8.98
11/8/2022 7:30:00 PM 11.59 52.862 0.456 7.82 373.07 9.43
11/8/2022 7:45:00 PM 11.5 52.7 0.456 7.82 390.87 9.22
11/8/2022 8:00:00 PM 11.45 52.61 0.456 7.82 379.86 9.28
11/8/2022 8:15:00 PM 11.4 52.52 0.456 7.82 369.88 9.2
11/8/2022 8:30:00 PM 11.31 52.358 0.456 7.81 366.95 9.41
11/8/2022 8:45:00 PM 11.3 52.34 0.456 7.8 365.21 9.21
11/8/2022 9:00:00 PM 11.21 52.178 0.456 7.8 363.2 9.25
11/8/2022 9:15:00 PM 11.17 52.106 0.456 7.8 332.11 9.34
11/8/2022 9:30:00 PM 11.1 51.98 0.456 7.8 334.82 9.27
11/8/2022 9:45:00 PM 11.02 51.836 0.456 7.8 331.66 9.19
11/8/2022 10:00:00 PM 11 51.8 0.457 7.8 338.68 8.89
11/8/2022 10:15:00 PM 11.03 51.854 0.456 7.8 341.55 9.09
11/8/2022 10:30:00 PM 10.89 51.602 0.455 7.8 339.8 8.87
11/8/2022 10:45:00 PM 10.84 51.512 0.456 7.8 338.25 9.03
11/8/2022 11:00:00 PM 10.77 51.386 0.457 7.8 333.33 9.07
11/8/2022 11:15:00 PM 10.69 51.242 0.457 7.79 594.76 8.97
11/8/2022 11:30:00 PM 10.59 51.062 0.457 7.79 584.49 9.22
11/8/2022 11:45:00 PM 10.52 50.936 0.458 7.8 556.67 9.13
11/9/2022 12:00:00 AM 10.47 50.846 0.458 7.78 520.85 9.07
11/9/2022 12:15:00 AM 10.45 50.81 0.458 7.78 499.02 9.03
11/9/2022 12:30:00 AM 10.35 50.63 0.458 7.78 526.6 9.08
11/9/2022 12:45:00 AM 10.29 50.522 0.458 7.78 490.41 9.22
11/9/2022 1:00:00 AM 10.2 50.36 0.458 7.77 515.69 8.85
11/9/2022 1:15:00 AM 10.19 50.342 0.459 7.77 515.05 9.07
11/9/2022 1:30:00 AM 10.07 50.126 0.459 7.76 515.35 9.12
11/9/2022 1:45:00 AM 10.05 50.09 0.458 7.78 469.06 9.08
11/9/2022 2:00:00 AM 9.94 49.892 0.459 7.77 453.74 9.13
11/9/2022 2:15:00 AM 9.91 49.838 0.458 7.77 480.83 9.06
11/9/2022 2:30:00 AM 9.8 49.64 0.459 7.77 462.73 9.08
11/9/2022 2:45:00 AM 9.76 49.568 0.459 7.76 483.38 9.09
11/9/2022 3:00:00 AM 9.67 49.406 0.458 7.76 494.27 9.19
11/9/2022 3:15:00 AM 9.57 49.226 0.458 7.77 469.34 9.1
11/9/2022 3:30:00 AM 9.54 49.172 0.458 7.77 498.51 9.17
11/9/2022 3:45:00 AM 9.44 48.992 0.458 7.78 503.74 9.22
11/9/2022 4:00:00 AM 9.38 48.884 0.459 7.77 489.31 9.24
11/9/2022 4:15:00 AM 9.32 48.776 0.46 7.77 525.52 9.27
11/9/2022 4:30:00 AM 9.22 48.596 0.459 7.77 500.16 9.24
11/9/2022 4:45:00 AM 9.17 48.506 0.46 7.77 509.48 9.28
11/9/2022 5:00:00 AM 9.1 48.38 0.46 7.76 507.59 9.32
11/9/2022 5:15:00 AM 9.05 48.29 0.46 7.75 408.03 9.33
11/9/2022 5:30:00 AM 9.01 48.218 0.46 7.76 398.1 9.3
11/9/2022 5:45:00 AM 8.92 48.056 0.461 7.76 390.04 9.25
11/9/2022 6:00:00 AM 8.85 47.93 0.461 7.76 381.6 9.31
11/9/2022 6:15:00 AM 8.79 47.822 0.461 7.76 328.67 9.22
11/9/2022 6:30:00 AM 8.72 47.696 0.461 7.76 327.55 9.34
11/9/2022 6:45:00 AM 8.71 47.678 0.462 7.77 344.45 9.4
11/9/2022 7:00:00 AM 8.62 47.516 0.462 7.76 345.97 9.46
11/9/2022 7:15:00 AM 8.57 47.426 0.461 7.76 447.19 9.43
11/9/2022 7:30:00 AM 8.51 47.318 0.462 7.76 407.36 9.5
11/9/2022 7:45:00 AM 8.49 47.282 0.462 7.77 382.16 9.66
11/9/2022 8:00:00 AM 8.49 47.282 0.462 7.77 381.33 9.62
11/9/2022 8:15:00 AM 8.46 47.228 0.462 7.78 369.21 9.82
11/9/2022 8:30:00 AM 8.52 47.336 0.462 7.78 364.28 9.94
11/9/2022 8:45:00 AM 8.55 47.39 0.462 7.8 355.57 9.91
11/9/2022 9:00:00 AM 8.6 47.48 0.461 7.81 375.79 10.04
11/9/2022 9:15:00 AM 8.71 47.678 0.461 7.81 356.53 10.43
11/9/2022 9:30:00 AM 8.73 47.714 0.461 7.83 373.57 10.59
11/9/2022 9:45:00 AM 8.79 47.822 0.461 7.85 428.74 10.74
11/9/2022 10:00:00 AM 8.9 48.02 0.46 7.84 436.3 10.93
11/9/2022 10:15:00 AM 9.01 48.218 0.46 7.86 336.24 11.1
11/9/2022 10:30:00 AM 9.14 48.452 0.46 7.89 323.73 11.32
11/9/2022 10:45:00 AM 9.28 48.704 0.459 7.9 312.68 11.43
11/9/2022 11:00:00 AM 9.42 48.956 0.459 7.91 303.94 11.64
11/9/2022 11:15:00 AM 9.57 49.226 0.459 7.94 224.22 11.8
11/9/2022 11:30:00 AM 9.76 49.568 0.459 7.95 251.57 11.8
11/9/2022 11:45:00 AM 9.88 49.784 0.459 7.97 241.04 11.96
11/9/2022 12:00:00 PM 10.04 50.072 0.458 0 254.85 0
11/9/2022 12:15:00 PM 10.19 50.342 0.458 7.95 279.48 12.25
11/9/2022 12:30:00 PM 10.33 50.594 0.458 8.02 254 12.26
11/9/2022 12:45:00 PM 10.42 50.756 0.458 8.03 252.71 12.39
11/9/2022 1:00:00 PM 10.55 50.99 0.458 8.04 252.21 12.44
11/9/2022 1:15:00 PM 10.61 51.098 0.457 8.05 251.55 12.39
11/9/2022 1:30:00 PM 10.67 51.206 0.457 8.06 251.31 12.44
11/9/2022 1:45:00 PM 10.72 51.296 0.457 8.05 251.4 12.49
11/9/2022 2:00:00 PM 10.75 51.35 0.457 8.06 250.91 12.49
11/9/2022 2:15:00 PM 10.75 51.35 0.457 8.07 249.31 12.42
11/9/2022 2:30:00 PM 10.74 51.332 0.457 8.06 251.61 12.47
11/9/2022 2:45:00 PM 10.72 51.296 0.457 8.06 251.84 12.3
11/9/2022 3:00:00 PM 10.67 51.206 0.457 8.05 266.39 12.25
11/9/2022 3:15:00 PM 10.63 51.134 0.457 8.06 293.05 12.05
11/9/2022 3:30:00 PM 10.56 51.008 0.457 8.05 292.3 12.05
11/9/2022 3:45:00 PM 10.53 50.954 0.457 8.03 285.3 12.05
11/9/2022 4:00:00 PM 10.48 50.864 0.457 8.03 285.32 11.95
11/9/2022 4:15:00 PM 10.43 50.774 0.457 8.04 324.33 11.93
11/9/2022 4:30:00 PM 10.33 50.594 0.457 8 305.16 11.87
11/9/2022 4:45:00 PM 10.26 50.468 0.457 7.99 269.47 11.64
11/9/2022 5:00:00 PM 10.22 50.396 0.458 7.99 262.65 11.58
11/9/2022 5:15:00 PM 10.14 50.252 0.456 7.98 258.95 11.2
11/9/2022 5:30:00 PM 10.04 50.072 0.458 7.96 172.34 11.23
11/9/2022 5:45:00 PM 9.98 49.964 0.458 7.93 257 11.03
11/9/2022 6:00:00 PM 9.92 49.856 0.459 7.93 288.64 10.75
11/9/2022 6:15:00 PM 9.89 49.802 0.459 7.91 249.74 10.78
11/9/2022 6:30:00 PM 9.83 49.694 0.459 7.89 221.57 10.69
11/9/2022 6:45:00 PM 9.77 49.586 0.459 7.89 222.23 10.44
11/9/2022 7:00:00 PM 9.7 49.46 0.459 7.89 224.82 10.42
11/9/2022 7:15:00 PM 9.65 49.37 0.46 7.88 217.17 10.43
11/9/2022 7:30:00 PM 9.62 49.316 0.459 7.86 218.92 10.26
11/9/2022 7:45:00 PM 9.57 49.226 0.459 7.86 216.14 10.39
11/9/2022 8:00:00 PM 9.53 49.154 0.459 7.85 215.59 10.33
11/9/2022 8:15:00 PM 9.49 49.082 0.459 7.85 216.68 10.25
11/9/2022 8:30:00 PM 9.48 49.064 0.459 7.85 218.87 10.26
11/9/2022 8:45:00 PM 9.4 48.92 0.459 7.84 220.13 10.24
11/9/2022 9:00:00 PM 9.38 48.884 0.459 7.84 223.09 10.25
11/9/2022 9:15:00 PM 9.37 48.866 0.46 7.84 211.98 10.13
11/9/2022 9:30:00 PM 9.32 48.776 0.459 7.84 217.25 10.18
11/9/2022 9:45:00 PM 9.34 48.812 0.46 7.84 216.2 10.08
11/9/2022 10:00:00 PM 9.27 48.686 0.459 7.83 204.98 10.07
11/9/2022 10:15:00 PM 9.24 48.632 0.459 7.83 213.22 10.11
11/9/2022 10:30:00 PM 9.23 48.614 0.46 7.83 213.21 10.09
11/9/2022 10:45:00 PM 9.15 48.47 0.46 7.82 211.27 9.99
11/9/2022 11:00:00 PM 9.15 48.47 0.46 7.83 207.48 9.99
11/9/2022 11:15:00 PM 9.13 48.434 0.46 7.82 210.47 9.95
11/9/2022 11:30:00 PM 9.03 48.254 0.46 7.83 211.89 9.94
11/9/2022 11:45:00 PM 9.02 48.236 0.46 7.82 213.52 9.49
11/10/2022 12:00:00 AM 9 48.2 0.461 7.82 213.92 9.84
11/10/2022 12:15:00 AM 8.95 48.11 0.46 7.8 213.74 9.92
11/10/2022 12:30:00 AM 8.93 48.074 0.46 7.81 239.18 9.86
11/10/2022 12:45:00 AM 8.88 47.984 0.461 7.81 483.41 9.76
11/10/2022 1:00:00 AM 8.83 47.894 0.461 7.81 447.62 9.8
11/10/2022 1:15:00 AM 8.82 47.876 0.461 7.81 454.29 9.78
11/10/2022 1:30:00 AM 8.8 47.84 0.46 7.81 418.7 9.82
11/10/2022 1:45:00 AM 8.73 47.714 0.461 7.8 785.61 9.81
11/10/2022 2:00:00 AM 8.69 47.642 0.462 7.8 609.38 9.81
11/10/2022 2:15:00 AM 8.68 47.624 0.462 7.8 542.26 9.68
11/10/2022 2:30:00 AM 8.68 47.624 0.462 7.79 461.69 9.76
11/10/2022 2:45:00 AM 8.56 47.408 0.462 7.8 444.17 9.77
11/10/2022 3:00:00 AM 8.56 47.408 0.462 7.8 424.62 9.67
11/10/2022 3:15:00 AM 8.46 47.228 0.462 7.79 449.95 9.73
11/10/2022 3:30:00 AM 8.37 47.066 0.462 7.78 397.17 9.62
11/10/2022 3:45:00 AM 8.4 47.12 0.462 7.8 408.22 9.72
11/10/2022 4:00:00 AM 8.31 46.958 0.462 7.79 492.26 9.75
11/10/2022 4:15:00 AM 8.27 46.886 0.462 7.79 423.75 9.74
11/10/2022 4:30:00 AM 8.23 46.814 0.463 7.78 1201.11 9.74
11/10/2022 4:45:00 AM 8.17 46.706 0.462 7.79 1002.88 9.82
11/10/2022 5:00:00 AM 8.15 46.67 0.462 7.78 970.4 9.75
11/10/2022 5:15:00 AM 8.14 46.652 0.462 7.78 869.7 9.82
11/10/2022 5:30:00 AM 8.07 46.526 0.462 7.78 325.76 9.83
11/10/2022 5:45:00 AM 8.04 46.472 0.462 7.78 317.33 9.73
11/10/2022 6:00:00 AM 7.99 46.382 0.463 7.78 484.51 9.71
11/10/2022 6:15:00 AM 7.95 46.31 0.463 7.77 416.13 9.79
11/10/2022 6:30:00 AM 7.95 46.31 0.463 7.77 693.05 9.79
11/10/2022 6:45:00 AM 7.91 46.238 0.463 7.77 695.42 9.73
11/10/2022 7:00:00 AM 7.83 46.094 0.463 7.77 701.39 9.84
11/10/2022 7:15:00 AM 7.81 46.058 0.463 7.78 615.28 9.91
11/10/2022 7:30:00 AM 7.83 46.094 0.463 7.78 578.93 9.9